<?xml version="1.0" encoding="UTF-8" standalone="no" ?>
<gpx xmlns="http://www.topografix.com/GPX/1/1" xmlns:xsi="http://www.w3.org/2001/XMLSchema-instance" xsi:schemaLocation="http://www.topografix.com/GPX/1/1 http://www.topografix.com/GPX/1/1/gpx.xsd" version="1.1" creator="VisuGPX - https://www.visugpx.com">
  <metadata>
    <name>lundi 2017 04 24</name>
    <desc><![CDATA[rando du lundi en groupe d'amis]]></desc>
  </metadata>
  <trk>
    <name><![CDATA[Lundi 2017 04 24]]></name>
    <trkseg>
      <trkpt lat="48.85738" lon="2.34694">
        <ele>39.799999237061</ele>
        <time>2017-04-24T18:21:40.000Z</time>
      </trkpt>
      <trkpt lat="48.85739" lon="2.3469">
        <ele>39.599998474121</ele>
        <time>2017-04-24T18:21:45.000Z</time>
      </trkpt>
      <trkpt lat="48.85737" lon="2.34695">
        <ele>39.799999237061</ele>
        <time>2017-04-24T18:21:53.000Z</time>
      </trkpt>
      <trkpt lat="48.8573" lon="2.34694">
        <ele>40.200000762939</ele>
        <time>2017-04-24T18:21:55.000Z</time>
      </trkpt>
      <trkpt lat="48.85749" lon="2.3471">
        <ele>39.799999237061</ele>
        <time>2017-04-24T18:22:00.000Z</time>
      </trkpt>
      <trkpt lat="48.85746" lon="2.34702">
        <ele>39.599998474121</ele>
        <time>2017-04-24T18:22:08.000Z</time>
      </trkpt>
      <trkpt lat="48.85744" lon="2.34701">
        <ele>39.799999237061</ele>
        <time>2017-04-24T18:22:09.000Z</time>
      </trkpt>
      <trkpt lat="48.85731" lon="2.34696">
        <ele>40.200000762939</ele>
        <time>2017-04-24T18:22:13.000Z</time>
      </trkpt>
      <trkpt lat="48.85723" lon="2.34696">
        <ele>40.599998474121</ele>
        <time>2017-04-24T18:22:17.000Z</time>
      </trkpt>
      <trkpt lat="48.85715" lon="2.34692">
        <ele>40.599998474121</ele>
        <time>2017-04-24T18:22:20.000Z</time>
      </trkpt>
      <trkpt lat="48.85698" lon="2.34679">
        <ele>40.799999237061</ele>
        <time>2017-04-24T18:22:26.000Z</time>
      </trkpt>
      <trkpt lat="48.85682" lon="2.34667">
        <ele>41.599998474121</ele>
        <time>2017-04-24T18:22:32.000Z</time>
      </trkpt>
      <trkpt lat="48.85666" lon="2.34653">
        <ele>43</ele>
        <time>2017-04-24T18:22:38.000Z</time>
      </trkpt>
      <trkpt lat="48.85648" lon="2.34642">
        <ele>44.400001525879</ele>
        <time>2017-04-24T18:22:44.000Z</time>
      </trkpt>
      <trkpt lat="48.8563" lon="2.34638">
        <ele>46</ele>
        <time>2017-04-24T18:22:51.000Z</time>
      </trkpt>
      <trkpt lat="48.85614" lon="2.34621">
        <ele>47.200000762939</ele>
        <time>2017-04-24T18:22:58.000Z</time>
      </trkpt>
      <trkpt lat="48.85596" lon="2.34607">
        <ele>47.799999237061</ele>
        <time>2017-04-24T18:23:03.000Z</time>
      </trkpt>
      <trkpt lat="48.85577" lon="2.34594">
        <ele>47.599998474121</ele>
        <time>2017-04-24T18:23:07.000Z</time>
      </trkpt>
      <trkpt lat="48.85559" lon="2.34582">
        <ele>47.400001525879</ele>
        <time>2017-04-24T18:23:12.000Z</time>
      </trkpt>
      <trkpt lat="48.85541" lon="2.34565">
        <ele>46.599998474121</ele>
        <time>2017-04-24T18:23:17.000Z</time>
      </trkpt>
      <trkpt lat="48.85523" lon="2.34553">
        <ele>46</ele>
        <time>2017-04-24T18:23:20.000Z</time>
      </trkpt>
      <trkpt lat="48.85503" lon="2.34544">
        <ele>45</ele>
        <time>2017-04-24T18:23:22.000Z</time>
      </trkpt>
      <trkpt lat="48.85485" lon="2.34532">
        <ele>44</ele>
        <time>2017-04-24T18:23:26.000Z</time>
      </trkpt>
      <trkpt lat="48.85467" lon="2.34519">
        <ele>42.799999237061</ele>
        <time>2017-04-24T18:23:31.000Z</time>
      </trkpt>
      <trkpt lat="48.85451" lon="2.34503">
        <ele>41.599998474121</ele>
        <time>2017-04-24T18:23:36.000Z</time>
      </trkpt>
      <trkpt lat="48.85444" lon="2.34494">
        <ele>41</ele>
        <time>2017-04-24T18:23:39.000Z</time>
      </trkpt>
      <trkpt lat="48.85429" lon="2.34479">
        <ele>41</ele>
        <time>2017-04-24T18:23:43.000Z</time>
      </trkpt>
      <trkpt lat="48.85422" lon="2.3447">
        <ele>41.200000762939</ele>
        <time>2017-04-24T18:23:45.000Z</time>
      </trkpt>
      <trkpt lat="48.85416" lon="2.34463">
        <ele>41.400001525879</ele>
        <time>2017-04-24T18:23:47.000Z</time>
      </trkpt>
      <trkpt lat="48.854" lon="2.34449">
        <ele>42</ele>
        <time>2017-04-24T18:23:55.000Z</time>
      </trkpt>
      <trkpt lat="48.85388" lon="2.3443">
        <ele>42.200000762939</ele>
        <time>2017-04-24T18:24:33.000Z</time>
      </trkpt>
      <trkpt lat="48.85372" lon="2.34414">
        <ele>42.799999237061</ele>
        <time>2017-04-24T18:24:39.000Z</time>
      </trkpt>
      <trkpt lat="48.85351" lon="2.34408">
        <ele>44.400001525879</ele>
        <time>2017-04-24T18:24:45.000Z</time>
      </trkpt>
      <trkpt lat="48.85334" lon="2.34399">
        <ele>45.400001525879</ele>
        <time>2017-04-24T18:24:49.000Z</time>
      </trkpt>
      <trkpt lat="48.85315" lon="2.34392">
        <ele>47</ele>
        <time>2017-04-24T18:24:54.000Z</time>
      </trkpt>
      <trkpt lat="48.85292" lon="2.34387">
        <ele>48.599998474121</ele>
        <time>2017-04-24T18:24:59.000Z</time>
      </trkpt>
      <trkpt lat="48.85271" lon="2.34379">
        <ele>50.200000762939</ele>
        <time>2017-04-24T18:25:04.000Z</time>
      </trkpt>
      <trkpt lat="48.85249" lon="2.34373">
        <ele>50</ele>
        <time>2017-04-24T18:25:09.000Z</time>
      </trkpt>
      <trkpt lat="48.8523" lon="2.34363">
        <ele>49.799999237061</ele>
        <time>2017-04-24T18:25:14.000Z</time>
      </trkpt>
      <trkpt lat="48.85213" lon="2.34356">
        <ele>49.599998474121</ele>
        <time>2017-04-24T18:25:18.000Z</time>
      </trkpt>
      <trkpt lat="48.85203" lon="2.34349">
        <ele>49.400001525879</ele>
        <time>2017-04-24T18:25:21.000Z</time>
      </trkpt>
      <trkpt lat="48.85186" lon="2.34345">
        <ele>49</ele>
        <time>2017-04-24T18:25:26.000Z</time>
      </trkpt>
      <trkpt lat="48.85167" lon="2.34339">
        <ele>48.400001525879</ele>
        <time>2017-04-24T18:25:33.000Z</time>
      </trkpt>
      <trkpt lat="48.85155" lon="2.34334">
        <ele>48.200000762939</ele>
        <time>2017-04-24T18:25:41.000Z</time>
      </trkpt>
      <trkpt lat="48.85138" lon="2.34317">
        <ele>48</ele>
        <time>2017-04-24T18:25:59.000Z</time>
      </trkpt>
      <trkpt lat="48.85137" lon="2.34346">
        <ele>47.799999237061</ele>
        <time>2017-04-24T18:26:08.000Z</time>
      </trkpt>
      <trkpt lat="48.85132" lon="2.34373">
        <ele>47.400001525879</ele>
        <time>2017-04-24T18:26:14.000Z</time>
      </trkpt>
      <trkpt lat="48.85123" lon="2.344">
        <ele>46.799999237061</ele>
        <time>2017-04-24T18:26:19.000Z</time>
      </trkpt>
      <trkpt lat="48.85119" lon="2.3443">
        <ele>45.799999237061</ele>
        <time>2017-04-24T18:26:24.000Z</time>
      </trkpt>
      <trkpt lat="48.85109" lon="2.34459">
        <ele>46.400001525879</ele>
        <time>2017-04-24T18:26:29.000Z</time>
      </trkpt>
      <trkpt lat="48.85102" lon="2.34486">
        <ele>47.200000762939</ele>
        <time>2017-04-24T18:26:33.000Z</time>
      </trkpt>
      <trkpt lat="48.85096" lon="2.34514">
        <ele>47.799999237061</ele>
        <time>2017-04-24T18:26:37.000Z</time>
      </trkpt>
      <trkpt lat="48.85085" lon="2.34544">
        <ele>48.400001525879</ele>
        <time>2017-04-24T18:26:42.000Z</time>
      </trkpt>
      <trkpt lat="48.85077" lon="2.3457">
        <ele>48.599998474121</ele>
        <time>2017-04-24T18:26:47.000Z</time>
      </trkpt>
      <trkpt lat="48.85075" lon="2.34585">
        <ele>48.599998474121</ele>
        <time>2017-04-24T18:26:50.000Z</time>
      </trkpt>
      <trkpt lat="48.85072" lon="2.346">
        <ele>49</ele>
        <time>2017-04-24T18:26:53.000Z</time>
      </trkpt>
      <trkpt lat="48.85073" lon="2.34629">
        <ele>49.400001525879</ele>
        <time>2017-04-24T18:26:57.000Z</time>
      </trkpt>
      <trkpt lat="48.85065" lon="2.34661">
        <ele>46.799999237061</ele>
        <time>2017-04-24T18:27:01.000Z</time>
      </trkpt>
      <trkpt lat="48.85056" lon="2.34693">
        <ele>45.799999237061</ele>
        <time>2017-04-24T18:27:05.000Z</time>
      </trkpt>
      <trkpt lat="48.85048" lon="2.34726">
        <ele>44.799999237061</ele>
        <time>2017-04-24T18:27:09.000Z</time>
      </trkpt>
      <trkpt lat="48.85041" lon="2.34758">
        <ele>43.799999237061</ele>
        <time>2017-04-24T18:27:13.000Z</time>
      </trkpt>
      <trkpt lat="48.85038" lon="2.34787">
        <ele>42.799999237061</ele>
        <time>2017-04-24T18:27:17.000Z</time>
      </trkpt>
      <trkpt lat="48.85037" lon="2.34816">
        <ele>42.200000762939</ele>
        <time>2017-04-24T18:27:21.000Z</time>
      </trkpt>
      <trkpt lat="48.85031" lon="2.34839">
        <ele>41.799999237061</ele>
        <time>2017-04-24T18:27:24.000Z</time>
      </trkpt>
      <trkpt lat="48.85022" lon="2.34867">
        <ele>42.599998474121</ele>
        <time>2017-04-24T18:27:28.000Z</time>
      </trkpt>
      <trkpt lat="48.85015" lon="2.34894">
        <ele>43.599998474121</ele>
        <time>2017-04-24T18:27:32.000Z</time>
      </trkpt>
      <trkpt lat="48.85009" lon="2.3492">
        <ele>44.599998474121</ele>
        <time>2017-04-24T18:27:36.000Z</time>
      </trkpt>
      <trkpt lat="48.85001" lon="2.34949">
        <ele>46.200000762939</ele>
        <time>2017-04-24T18:27:40.000Z</time>
      </trkpt>
      <trkpt lat="48.8499" lon="2.34978">
        <ele>46.599998474121</ele>
        <time>2017-04-24T18:27:44.000Z</time>
      </trkpt>
      <trkpt lat="48.84979" lon="2.35007">
        <ele>44.799999237061</ele>
        <time>2017-04-24T18:27:48.000Z</time>
      </trkpt>
      <trkpt lat="48.84972" lon="2.35034">
        <ele>44.400001525879</ele>
        <time>2017-04-24T18:27:52.000Z</time>
      </trkpt>
      <trkpt lat="48.84965" lon="2.35065">
        <ele>43.200000762939</ele>
        <time>2017-04-24T18:27:56.000Z</time>
      </trkpt>
      <trkpt lat="48.84962" lon="2.35097">
        <ele>42.599998474121</ele>
        <time>2017-04-24T18:28:00.000Z</time>
      </trkpt>
      <trkpt lat="48.84965" lon="2.35131">
        <ele>43</ele>
        <time>2017-04-24T18:28:04.000Z</time>
      </trkpt>
      <trkpt lat="48.84964" lon="2.35163">
        <ele>43.200000762939</ele>
        <time>2017-04-24T18:28:08.000Z</time>
      </trkpt>
      <trkpt lat="48.84966" lon="2.35186">
        <ele>42.799999237061</ele>
        <time>2017-04-24T18:28:11.000Z</time>
      </trkpt>
      <trkpt lat="48.84965" lon="2.35216">
        <ele>42.400001525879</ele>
        <time>2017-04-24T18:28:15.000Z</time>
      </trkpt>
      <trkpt lat="48.84963" lon="2.35231">
        <ele>42.200000762939</ele>
        <time>2017-04-24T18:28:17.000Z</time>
      </trkpt>
      <trkpt lat="48.84962" lon="2.35259">
        <ele>41.599998474121</ele>
        <time>2017-04-24T18:28:21.000Z</time>
      </trkpt>
      <trkpt lat="48.84961" lon="2.35287">
        <ele>41.400001525879</ele>
        <time>2017-04-24T18:28:25.000Z</time>
      </trkpt>
      <trkpt lat="48.84959" lon="2.35317">
        <ele>42</ele>
        <time>2017-04-24T18:28:29.000Z</time>
      </trkpt>
      <trkpt lat="48.84954" lon="2.35347">
        <ele>42.400001525879</ele>
        <time>2017-04-24T18:28:33.000Z</time>
      </trkpt>
      <trkpt lat="48.84952" lon="2.35376">
        <ele>44</ele>
        <time>2017-04-24T18:28:36.000Z</time>
      </trkpt>
      <trkpt lat="48.84948" lon="2.35409">
        <ele>45.799999237061</ele>
        <time>2017-04-24T18:28:40.000Z</time>
      </trkpt>
      <trkpt lat="48.84942" lon="2.35439">
        <ele>45.799999237061</ele>
        <time>2017-04-24T18:28:44.000Z</time>
      </trkpt>
      <trkpt lat="48.84941" lon="2.35447">
        <ele>45.599998474121</ele>
        <time>2017-04-24T18:28:45.000Z</time>
      </trkpt>
      <trkpt lat="48.84941" lon="2.35454">
        <ele>45.400001525879</ele>
        <time>2017-04-24T18:28:46.000Z</time>
      </trkpt>
      <trkpt lat="48.84934" lon="2.35485">
        <ele>44.200000762939</ele>
        <time>2017-04-24T18:28:50.000Z</time>
      </trkpt>
      <trkpt lat="48.84927" lon="2.35516">
        <ele>41.400001525879</ele>
        <time>2017-04-24T18:28:54.000Z</time>
      </trkpt>
      <trkpt lat="48.84922" lon="2.35546">
        <ele>38</ele>
        <time>2017-04-24T18:28:58.000Z</time>
      </trkpt>
      <trkpt lat="48.84924" lon="2.35576">
        <ele>35.400001525879</ele>
        <time>2017-04-24T18:29:03.000Z</time>
      </trkpt>
      <trkpt lat="48.84924" lon="2.3558">
        <ele>35.200000762939</ele>
        <time>2017-04-24T18:29:04.000Z</time>
      </trkpt>
      <trkpt lat="48.84924" lon="2.35583">
        <ele>35.200000762939</ele>
        <time>2017-04-24T18:29:05.000Z</time>
      </trkpt>
      <trkpt lat="48.84927" lon="2.35585">
        <ele>35</ele>
        <time>2017-04-24T18:29:07.000Z</time>
      </trkpt>
      <trkpt lat="48.84944" lon="2.35578">
        <ele>35</ele>
        <time>2017-04-24T18:29:20.000Z</time>
      </trkpt>
      <trkpt lat="48.8494" lon="2.35581">
        <ele>35</ele>
        <time>2017-04-24T18:29:24.000Z</time>
      </trkpt>
      <trkpt lat="48.8494" lon="2.35583">
        <ele>35</ele>
        <time>2017-04-24T18:29:25.000Z</time>
      </trkpt>
      <trkpt lat="48.84936" lon="2.35612">
        <ele>34</ele>
        <time>2017-04-24T18:29:32.000Z</time>
      </trkpt>
      <trkpt lat="48.84945" lon="2.35639">
        <ele>32.799999237061</ele>
        <time>2017-04-24T18:29:38.000Z</time>
      </trkpt>
      <trkpt lat="48.84943" lon="2.35667">
        <ele>32.200000762939</ele>
        <time>2017-04-24T18:29:45.000Z</time>
      </trkpt>
      <trkpt lat="48.84938" lon="2.35696">
        <ele>31.39999961853</ele>
        <time>2017-04-24T18:29:51.000Z</time>
      </trkpt>
      <trkpt lat="48.8493" lon="2.35722">
        <ele>31.200000762939</ele>
        <time>2017-04-24T18:29:57.000Z</time>
      </trkpt>
      <trkpt lat="48.84922" lon="2.35746">
        <ele>31.799999237061</ele>
        <time>2017-04-24T18:30:01.000Z</time>
      </trkpt>
      <trkpt lat="48.84914" lon="2.3576">
        <ele>32.799999237061</ele>
        <time>2017-04-24T18:30:03.000Z</time>
      </trkpt>
      <trkpt lat="48.84906" lon="2.3577">
        <ele>33.799999237061</ele>
        <time>2017-04-24T18:30:05.000Z</time>
      </trkpt>
      <trkpt lat="48.8489" lon="2.3579">
        <ele>35.200000762939</ele>
        <time>2017-04-24T18:30:09.000Z</time>
      </trkpt>
      <trkpt lat="48.84872" lon="2.35812">
        <ele>34.599998474121</ele>
        <time>2017-04-24T18:30:14.000Z</time>
      </trkpt>
      <trkpt lat="48.84867" lon="2.35818">
        <ele>34.400001525879</ele>
        <time>2017-04-24T18:30:15.000Z</time>
      </trkpt>
      <trkpt lat="48.84863" lon="2.35826">
        <ele>34</ele>
        <time>2017-04-24T18:30:17.000Z</time>
      </trkpt>
      <trkpt lat="48.84849" lon="2.35845">
        <ele>33.599998474121</ele>
        <time>2017-04-24T18:30:21.000Z</time>
      </trkpt>
      <trkpt lat="48.84833" lon="2.35868">
        <ele>33</ele>
        <time>2017-04-24T18:30:25.000Z</time>
      </trkpt>
      <trkpt lat="48.84816" lon="2.3589">
        <ele>32.599998474121</ele>
        <time>2017-04-24T18:30:29.000Z</time>
      </trkpt>
      <trkpt lat="48.84805" lon="2.35906">
        <ele>32.400001525879</ele>
        <time>2017-04-24T18:30:32.000Z</time>
      </trkpt>
      <trkpt lat="48.84792" lon="2.35926">
        <ele>32.599998474121</ele>
        <time>2017-04-24T18:30:35.000Z</time>
      </trkpt>
      <trkpt lat="48.84776" lon="2.35952">
        <ele>32.599998474121</ele>
        <time>2017-04-24T18:30:40.000Z</time>
      </trkpt>
      <trkpt lat="48.8476" lon="2.35974">
        <ele>32.799999237061</ele>
        <time>2017-04-24T18:30:44.000Z</time>
      </trkpt>
      <trkpt lat="48.84752" lon="2.35988">
        <ele>33.200000762939</ele>
        <time>2017-04-24T18:30:47.000Z</time>
      </trkpt>
      <trkpt lat="48.84738" lon="2.3601">
        <ele>33.599998474121</ele>
        <time>2017-04-24T18:30:52.000Z</time>
      </trkpt>
      <trkpt lat="48.84724" lon="2.36032">
        <ele>33.599998474121</ele>
        <time>2017-04-24T18:30:57.000Z</time>
      </trkpt>
      <trkpt lat="48.84721" lon="2.36036">
        <ele>33.599998474121</ele>
        <time>2017-04-24T18:30:58.000Z</time>
      </trkpt>
      <trkpt lat="48.84712" lon="2.36061">
        <ele>32.400001525879</ele>
        <time>2017-04-24T18:31:03.000Z</time>
      </trkpt>
      <trkpt lat="48.84702" lon="2.36077">
        <ele>31.799999237061</ele>
        <time>2017-04-24T18:31:05.000Z</time>
      </trkpt>
      <trkpt lat="48.84696" lon="2.36086">
        <ele>31.799999237061</ele>
        <time>2017-04-24T18:31:07.000Z</time>
      </trkpt>
      <trkpt lat="48.84683" lon="2.36107">
        <ele>30.799999237061</ele>
        <time>2017-04-24T18:31:10.000Z</time>
      </trkpt>
      <trkpt lat="48.8467" lon="2.36131">
        <ele>29.60000038147</ele>
        <time>2017-04-24T18:31:14.000Z</time>
      </trkpt>
      <trkpt lat="48.84655" lon="2.36151">
        <ele>29.39999961853</ele>
        <time>2017-04-24T18:31:18.000Z</time>
      </trkpt>
      <trkpt lat="48.84639" lon="2.36171">
        <ele>30.200000762939</ele>
        <time>2017-04-24T18:31:23.000Z</time>
      </trkpt>
      <trkpt lat="48.84625" lon="2.3619">
        <ele>31.60000038147</ele>
        <time>2017-04-24T18:31:27.000Z</time>
      </trkpt>
      <trkpt lat="48.8461" lon="2.36211">
        <ele>31.60000038147</ele>
        <time>2017-04-24T18:31:32.000Z</time>
      </trkpt>
      <trkpt lat="48.84594" lon="2.36231">
        <ele>32</ele>
        <time>2017-04-24T18:31:37.000Z</time>
      </trkpt>
      <trkpt lat="48.84579" lon="2.36251">
        <ele>32.400001525879</ele>
        <time>2017-04-24T18:31:41.000Z</time>
      </trkpt>
      <trkpt lat="48.84569" lon="2.36266">
        <ele>32.200000762939</ele>
        <time>2017-04-24T18:31:44.000Z</time>
      </trkpt>
      <trkpt lat="48.84554" lon="2.36288">
        <ele>32.200000762939</ele>
        <time>2017-04-24T18:31:48.000Z</time>
      </trkpt>
      <trkpt lat="48.84541" lon="2.36309">
        <ele>33</ele>
        <time>2017-04-24T18:31:52.000Z</time>
      </trkpt>
      <trkpt lat="48.84529" lon="2.36327">
        <ele>33.599998474121</ele>
        <time>2017-04-24T18:31:56.000Z</time>
      </trkpt>
      <trkpt lat="48.84517" lon="2.36349">
        <ele>33.599998474121</ele>
        <time>2017-04-24T18:31:59.000Z</time>
      </trkpt>
      <trkpt lat="48.84507" lon="2.36367">
        <ele>33.400001525879</ele>
        <time>2017-04-24T18:32:02.000Z</time>
      </trkpt>
      <trkpt lat="48.84498" lon="2.3638">
        <ele>33.200000762939</ele>
        <time>2017-04-24T18:32:06.000Z</time>
      </trkpt>
      <trkpt lat="48.84485" lon="2.36388">
        <ele>33.799999237061</ele>
        <time>2017-04-24T18:32:11.000Z</time>
      </trkpt>
      <trkpt lat="48.84476" lon="2.36391">
        <ele>34.400001525879</ele>
        <time>2017-04-24T18:32:15.000Z</time>
      </trkpt>
      <trkpt lat="48.84471" lon="2.36386">
        <ele>34.599998474121</ele>
        <time>2017-04-24T18:32:18.000Z</time>
      </trkpt>
      <trkpt lat="48.84458" lon="2.36383">
        <ele>35.599998474121</ele>
        <time>2017-04-24T18:32:26.000Z</time>
      </trkpt>
      <trkpt lat="48.8444" lon="2.36395">
        <ele>37.200000762939</ele>
        <time>2017-04-24T18:32:34.000Z</time>
      </trkpt>
      <trkpt lat="48.8442" lon="2.36399">
        <ele>37.400001525879</ele>
        <time>2017-04-24T18:32:41.000Z</time>
      </trkpt>
      <trkpt lat="48.84403" lon="2.36411">
        <ele>37</ele>
        <time>2017-04-24T18:32:49.000Z</time>
      </trkpt>
      <trkpt lat="48.84391" lon="2.36427">
        <ele>36</ele>
        <time>2017-04-24T18:32:56.000Z</time>
      </trkpt>
      <trkpt lat="48.84388" lon="2.36438">
        <ele>35</ele>
        <time>2017-04-24T18:33:00.000Z</time>
      </trkpt>
      <trkpt lat="48.84376" lon="2.36462">
        <ele>36</ele>
        <time>2017-04-24T18:33:05.000Z</time>
      </trkpt>
      <trkpt lat="48.84374" lon="2.36468">
        <ele>36.400001525879</ele>
        <time>2017-04-24T18:33:07.000Z</time>
      </trkpt>
      <trkpt lat="48.84369" lon="2.36487">
        <ele>37.599998474121</ele>
        <time>2017-04-24T18:33:12.000Z</time>
      </trkpt>
      <trkpt lat="48.8436" lon="2.36501">
        <ele>38.599998474121</ele>
        <time>2017-04-24T18:33:20.000Z</time>
      </trkpt>
      <trkpt lat="48.84349" lon="2.36515">
        <ele>38.400001525879</ele>
        <time>2017-04-24T18:33:31.000Z</time>
      </trkpt>
      <trkpt lat="48.84337" lon="2.36536">
        <ele>37.599998474121</ele>
        <time>2017-04-24T18:33:38.000Z</time>
      </trkpt>
      <trkpt lat="48.84326" lon="2.36559">
        <ele>37.400001525879</ele>
        <time>2017-04-24T18:33:49.000Z</time>
      </trkpt>
      <trkpt lat="48.84317" lon="2.36587">
        <ele>38.400001525879</ele>
        <time>2017-04-24T18:33:59.000Z</time>
      </trkpt>
      <trkpt lat="48.84304" lon="2.36609">
        <ele>37.799999237061</ele>
        <time>2017-04-24T18:34:03.000Z</time>
      </trkpt>
      <trkpt lat="48.84288" lon="2.36631">
        <ele>37.200000762939</ele>
        <time>2017-04-24T18:34:08.000Z</time>
      </trkpt>
      <trkpt lat="48.84271" lon="2.36652">
        <ele>36.799999237061</ele>
        <time>2017-04-24T18:34:12.000Z</time>
      </trkpt>
      <trkpt lat="48.84255" lon="2.36675">
        <ele>35.799999237061</ele>
        <time>2017-04-24T18:34:16.000Z</time>
      </trkpt>
      <trkpt lat="48.84241" lon="2.36697">
        <ele>34.400001525879</ele>
        <time>2017-04-24T18:34:20.000Z</time>
      </trkpt>
      <trkpt lat="48.84227" lon="2.36723">
        <ele>33.200000762939</ele>
        <time>2017-04-24T18:34:23.000Z</time>
      </trkpt>
      <trkpt lat="48.84213" lon="2.36743">
        <ele>32.799999237061</ele>
        <time>2017-04-24T18:34:28.000Z</time>
      </trkpt>
      <trkpt lat="48.84198" lon="2.36767">
        <ele>33.599998474121</ele>
        <time>2017-04-24T18:34:33.000Z</time>
      </trkpt>
      <trkpt lat="48.84188" lon="2.36797">
        <ele>34.599998474121</ele>
        <time>2017-04-24T18:34:38.000Z</time>
      </trkpt>
      <trkpt lat="48.84172" lon="2.36822">
        <ele>35.400001525879</ele>
        <time>2017-04-24T18:34:43.000Z</time>
      </trkpt>
      <trkpt lat="48.84153" lon="2.36843">
        <ele>35.200000762939</ele>
        <time>2017-04-24T18:34:47.000Z</time>
      </trkpt>
      <trkpt lat="48.84136" lon="2.36861">
        <ele>34</ele>
        <time>2017-04-24T18:34:50.000Z</time>
      </trkpt>
      <trkpt lat="48.84131" lon="2.36868">
        <ele>34</ele>
        <time>2017-04-24T18:34:51.000Z</time>
      </trkpt>
      <trkpt lat="48.84116" lon="2.36886">
        <ele>34.599998474121</ele>
        <time>2017-04-24T18:34:54.000Z</time>
      </trkpt>
      <trkpt lat="48.84097" lon="2.36907">
        <ele>34.200000762939</ele>
        <time>2017-04-24T18:34:57.000Z</time>
      </trkpt>
      <trkpt lat="48.84078" lon="2.36929">
        <ele>33.400001525879</ele>
        <time>2017-04-24T18:34:59.000Z</time>
      </trkpt>
      <trkpt lat="48.8406" lon="2.36952">
        <ele>32.599998474121</ele>
        <time>2017-04-24T18:35:01.000Z</time>
      </trkpt>
      <trkpt lat="48.84046" lon="2.36972">
        <ele>32.799999237061</ele>
        <time>2017-04-24T18:35:03.000Z</time>
      </trkpt>
      <trkpt lat="48.84015" lon="2.36995">
        <ele>33</ele>
        <time>2017-04-24T18:35:06.000Z</time>
      </trkpt>
      <trkpt lat="48.83996" lon="2.37012">
        <ele>33</ele>
        <time>2017-04-24T18:35:08.000Z</time>
      </trkpt>
      <trkpt lat="48.8398" lon="2.37032">
        <ele>33</ele>
        <time>2017-04-24T18:35:10.000Z</time>
      </trkpt>
      <trkpt lat="48.83965" lon="2.37062">
        <ele>33.400001525879</ele>
        <time>2017-04-24T18:35:13.000Z</time>
      </trkpt>
      <trkpt lat="48.8395" lon="2.37086">
        <ele>34</ele>
        <time>2017-04-24T18:35:15.000Z</time>
      </trkpt>
      <trkpt lat="48.83938" lon="2.37107">
        <ele>34</ele>
        <time>2017-04-24T18:35:17.000Z</time>
      </trkpt>
      <trkpt lat="48.83921" lon="2.37134">
        <ele>33.400001525879</ele>
        <time>2017-04-24T18:35:20.000Z</time>
      </trkpt>
      <trkpt lat="48.83904" lon="2.3716">
        <ele>32.799999237061</ele>
        <time>2017-04-24T18:35:23.000Z</time>
      </trkpt>
      <trkpt lat="48.83885" lon="2.37185">
        <ele>32</ele>
        <time>2017-04-24T18:35:26.000Z</time>
      </trkpt>
      <trkpt lat="48.8387" lon="2.37208">
        <ele>32.200000762939</ele>
        <time>2017-04-24T18:35:29.000Z</time>
      </trkpt>
      <trkpt lat="48.83856" lon="2.37234">
        <ele>32.599998474121</ele>
        <time>2017-04-24T18:35:33.000Z</time>
      </trkpt>
      <trkpt lat="48.83843" lon="2.37256">
        <ele>33.599998474121</ele>
        <time>2017-04-24T18:35:37.000Z</time>
      </trkpt>
      <trkpt lat="48.83826" lon="2.37281">
        <ele>34</ele>
        <time>2017-04-24T18:35:38.000Z</time>
      </trkpt>
      <trkpt lat="48.83811" lon="2.373">
        <ele>34.799999237061</ele>
        <time>2017-04-24T18:35:41.000Z</time>
      </trkpt>
      <trkpt lat="48.83793" lon="2.37322">
        <ele>36.400001525879</ele>
        <time>2017-04-24T18:35:45.000Z</time>
      </trkpt>
      <trkpt lat="48.83778" lon="2.37341">
        <ele>37.400001525879</ele>
        <time>2017-04-24T18:35:48.000Z</time>
      </trkpt>
      <trkpt lat="48.83774" lon="2.37345">
        <ele>38</ele>
        <time>2017-04-24T18:35:51.000Z</time>
      </trkpt>
      <trkpt lat="48.8377" lon="2.37346">
        <ele>38.200000762939</ele>
        <time>2017-04-24T18:35:55.000Z</time>
      </trkpt>
      <trkpt lat="48.83759" lon="2.37371">
        <ele>39.200000762939</ele>
        <time>2017-04-24T18:36:15.000Z</time>
      </trkpt>
      <trkpt lat="48.83749" lon="2.37393">
        <ele>39.799999237061</ele>
        <time>2017-04-24T18:36:20.000Z</time>
      </trkpt>
      <trkpt lat="48.8375" lon="2.37393">
        <ele>39.799999237061</ele>
        <time>2017-04-24T18:36:21.000Z</time>
      </trkpt>
      <trkpt lat="48.83756" lon="2.374">
        <ele>39.599998474121</ele>
        <time>2017-04-24T18:37:39.000Z</time>
      </trkpt>
      <trkpt lat="48.83743" lon="2.3741">
        <ele>40.400001525879</ele>
        <time>2017-04-24T18:38:05.000Z</time>
      </trkpt>
      <trkpt lat="48.83735" lon="2.37429">
        <ele>41</ele>
        <time>2017-04-24T18:38:10.000Z</time>
      </trkpt>
      <trkpt lat="48.8374" lon="2.37448">
        <ele>41</ele>
        <time>2017-04-24T18:38:14.000Z</time>
      </trkpt>
      <trkpt lat="48.83753" lon="2.37468">
        <ele>40.599998474121</ele>
        <time>2017-04-24T18:38:20.000Z</time>
      </trkpt>
      <trkpt lat="48.8377" lon="2.37486">
        <ele>40</ele>
        <time>2017-04-24T18:38:27.000Z</time>
      </trkpt>
      <trkpt lat="48.83784" lon="2.37505">
        <ele>39.400001525879</ele>
        <time>2017-04-24T18:38:33.000Z</time>
      </trkpt>
      <trkpt lat="48.83798" lon="2.37527">
        <ele>38.599998474121</ele>
        <time>2017-04-24T18:38:39.000Z</time>
      </trkpt>
      <trkpt lat="48.8381" lon="2.37548">
        <ele>37.400001525879</ele>
        <time>2017-04-24T18:38:44.000Z</time>
      </trkpt>
      <trkpt lat="48.83824" lon="2.37571">
        <ele>36</ele>
        <time>2017-04-24T18:38:50.000Z</time>
      </trkpt>
      <trkpt lat="48.83837" lon="2.37597">
        <ele>36.200000762939</ele>
        <time>2017-04-24T18:38:55.000Z</time>
      </trkpt>
      <trkpt lat="48.83841" lon="2.37615">
        <ele>36.799999237061</ele>
        <time>2017-04-24T18:38:59.000Z</time>
      </trkpt>
      <trkpt lat="48.83831" lon="2.37627">
        <ele>37</ele>
        <time>2017-04-24T18:39:04.000Z</time>
      </trkpt>
      <trkpt lat="48.83814" lon="2.37637">
        <ele>36.599998474121</ele>
        <time>2017-04-24T18:39:10.000Z</time>
      </trkpt>
      <trkpt lat="48.83796" lon="2.37655">
        <ele>36</ele>
        <time>2017-04-24T18:39:17.000Z</time>
      </trkpt>
      <trkpt lat="48.8378" lon="2.37671">
        <ele>35.799999237061</ele>
        <time>2017-04-24T18:39:22.000Z</time>
      </trkpt>
      <trkpt lat="48.83764" lon="2.37688">
        <ele>37</ele>
        <time>2017-04-24T18:39:27.000Z</time>
      </trkpt>
      <trkpt lat="48.83748" lon="2.37704">
        <ele>38.799999237061</ele>
        <time>2017-04-24T18:39:32.000Z</time>
      </trkpt>
      <trkpt lat="48.8373" lon="2.37719">
        <ele>39</ele>
        <time>2017-04-24T18:39:38.000Z</time>
      </trkpt>
      <trkpt lat="48.83713" lon="2.37736">
        <ele>37.200000762939</ele>
        <time>2017-04-24T18:39:43.000Z</time>
      </trkpt>
      <trkpt lat="48.83697" lon="2.37752">
        <ele>35.400001525879</ele>
        <time>2017-04-24T18:39:49.000Z</time>
      </trkpt>
      <trkpt lat="48.8368" lon="2.3777">
        <ele>35.799999237061</ele>
        <time>2017-04-24T18:39:55.000Z</time>
      </trkpt>
      <trkpt lat="48.83666" lon="2.37793">
        <ele>36.599998474121</ele>
        <time>2017-04-24T18:40:00.000Z</time>
      </trkpt>
      <trkpt lat="48.83652" lon="2.37813">
        <ele>36.599998474121</ele>
        <time>2017-04-24T18:40:05.000Z</time>
      </trkpt>
      <trkpt lat="48.83637" lon="2.37833">
        <ele>36</ele>
        <time>2017-04-24T18:40:11.000Z</time>
      </trkpt>
      <trkpt lat="48.8362" lon="2.37853">
        <ele>36.799999237061</ele>
        <time>2017-04-24T18:40:17.000Z</time>
      </trkpt>
      <trkpt lat="48.83605" lon="2.37869">
        <ele>39</ele>
        <time>2017-04-24T18:40:22.000Z</time>
      </trkpt>
      <trkpt lat="48.8359" lon="2.37887">
        <ele>42.400001525879</ele>
        <time>2017-04-24T18:40:27.000Z</time>
      </trkpt>
      <trkpt lat="48.83575" lon="2.37906">
        <ele>44.799999237061</ele>
        <time>2017-04-24T18:40:32.000Z</time>
      </trkpt>
      <trkpt lat="48.8356" lon="2.37926">
        <ele>45.400001525879</ele>
        <time>2017-04-24T18:40:37.000Z</time>
      </trkpt>
      <trkpt lat="48.83545" lon="2.37944">
        <ele>45.400001525879</ele>
        <time>2017-04-24T18:40:42.000Z</time>
      </trkpt>
      <trkpt lat="48.8353" lon="2.37963">
        <ele>45.799999237061</ele>
        <time>2017-04-24T18:40:47.000Z</time>
      </trkpt>
      <trkpt lat="48.83516" lon="2.37981">
        <ele>45.799999237061</ele>
        <time>2017-04-24T18:40:52.000Z</time>
      </trkpt>
      <trkpt lat="48.83501" lon="2.38">
        <ele>45.400001525879</ele>
        <time>2017-04-24T18:40:57.000Z</time>
      </trkpt>
      <trkpt lat="48.83487" lon="2.38017">
        <ele>44.200000762939</ele>
        <time>2017-04-24T18:41:01.000Z</time>
      </trkpt>
      <trkpt lat="48.83472" lon="2.38033">
        <ele>42.799999237061</ele>
        <time>2017-04-24T18:41:05.000Z</time>
      </trkpt>
      <trkpt lat="48.83458" lon="2.3805">
        <ele>38</ele>
        <time>2017-04-24T18:41:10.000Z</time>
      </trkpt>
      <trkpt lat="48.83443" lon="2.38078">
        <ele>31.200000762939</ele>
        <time>2017-04-24T18:41:14.000Z</time>
      </trkpt>
      <trkpt lat="48.83428" lon="2.38103">
        <ele>30.799999237061</ele>
        <time>2017-04-24T18:41:18.000Z</time>
      </trkpt>
      <trkpt lat="48.83415" lon="2.38122">
        <ele>31.39999961853</ele>
        <time>2017-04-24T18:41:22.000Z</time>
      </trkpt>
      <trkpt lat="48.834" lon="2.38145">
        <ele>31.200000762939</ele>
        <time>2017-04-24T18:41:27.000Z</time>
      </trkpt>
      <trkpt lat="48.83391" lon="2.38158">
        <ele>30.60000038147</ele>
        <time>2017-04-24T18:41:30.000Z</time>
      </trkpt>
      <trkpt lat="48.83377" lon="2.38177">
        <ele>30.200000762939</ele>
        <time>2017-04-24T18:41:35.000Z</time>
      </trkpt>
      <trkpt lat="48.83368" lon="2.38188">
        <ele>29.799999237061</ele>
        <time>2017-04-24T18:41:39.000Z</time>
      </trkpt>
      <trkpt lat="48.83364" lon="2.38192">
        <ele>29.60000038147</ele>
        <time>2017-04-24T18:41:41.000Z</time>
      </trkpt>
      <trkpt lat="48.83361" lon="2.38195">
        <ele>29.60000038147</ele>
        <time>2017-04-24T18:41:43.000Z</time>
      </trkpt>
      <trkpt lat="48.83349" lon="2.38214">
        <ele>30.60000038147</ele>
        <time>2017-04-24T18:42:13.000Z</time>
      </trkpt>
      <trkpt lat="48.83335" lon="2.38232">
        <ele>32.599998474121</ele>
        <time>2017-04-24T18:42:19.000Z</time>
      </trkpt>
      <trkpt lat="48.8332" lon="2.38249">
        <ele>33.200000762939</ele>
        <time>2017-04-24T18:42:25.000Z</time>
      </trkpt>
      <trkpt lat="48.83303" lon="2.38267">
        <ele>34.400001525879</ele>
        <time>2017-04-24T18:42:31.000Z</time>
      </trkpt>
      <trkpt lat="48.83288" lon="2.38287">
        <ele>33.799999237061</ele>
        <time>2017-04-24T18:42:37.000Z</time>
      </trkpt>
      <trkpt lat="48.83274" lon="2.38304">
        <ele>32.599998474121</ele>
        <time>2017-04-24T18:42:42.000Z</time>
      </trkpt>
      <trkpt lat="48.8326" lon="2.38323">
        <ele>30.39999961853</ele>
        <time>2017-04-24T18:42:47.000Z</time>
      </trkpt>
      <trkpt lat="48.83245" lon="2.38342">
        <ele>29.60000038147</ele>
        <time>2017-04-24T18:42:52.000Z</time>
      </trkpt>
      <trkpt lat="48.83231" lon="2.38359">
        <ele>28.799999237061</ele>
        <time>2017-04-24T18:42:57.000Z</time>
      </trkpt>
      <trkpt lat="48.83214" lon="2.3838">
        <ele>28.60000038147</ele>
        <time>2017-04-24T18:43:03.000Z</time>
      </trkpt>
      <trkpt lat="48.83197" lon="2.38401">
        <ele>28.799999237061</ele>
        <time>2017-04-24T18:43:09.000Z</time>
      </trkpt>
      <trkpt lat="48.83182" lon="2.38418">
        <ele>29.799999237061</ele>
        <time>2017-04-24T18:43:13.000Z</time>
      </trkpt>
      <trkpt lat="48.83165" lon="2.38435">
        <ele>32.599998474121</ele>
        <time>2017-04-24T18:43:18.000Z</time>
      </trkpt>
      <trkpt lat="48.83148" lon="2.38454">
        <ele>35.400001525879</ele>
        <time>2017-04-24T18:43:23.000Z</time>
      </trkpt>
      <trkpt lat="48.83132" lon="2.38472">
        <ele>32.799999237061</ele>
        <time>2017-04-24T18:43:27.000Z</time>
      </trkpt>
      <trkpt lat="48.83116" lon="2.38493">
        <ele>29.200000762939</ele>
        <time>2017-04-24T18:43:32.000Z</time>
      </trkpt>
      <trkpt lat="48.831" lon="2.3851">
        <ele>29.799999237061</ele>
        <time>2017-04-24T18:43:37.000Z</time>
      </trkpt>
      <trkpt lat="48.83083" lon="2.38531">
        <ele>33.599998474121</ele>
        <time>2017-04-24T18:43:42.000Z</time>
      </trkpt>
      <trkpt lat="48.83068" lon="2.38552">
        <ele>37.200000762939</ele>
        <time>2017-04-24T18:43:48.000Z</time>
      </trkpt>
      <trkpt lat="48.83052" lon="2.38576">
        <ele>39.400001525879</ele>
        <time>2017-04-24T18:43:54.000Z</time>
      </trkpt>
      <trkpt lat="48.83038" lon="2.38596">
        <ele>43.200000762939</ele>
        <time>2017-04-24T18:43:59.000Z</time>
      </trkpt>
      <trkpt lat="48.83021" lon="2.38613">
        <ele>41</ele>
        <time>2017-04-24T18:44:06.000Z</time>
      </trkpt>
      <trkpt lat="48.83003" lon="2.3863">
        <ele>38.799999237061</ele>
        <time>2017-04-24T18:44:13.000Z</time>
      </trkpt>
      <trkpt lat="48.82985" lon="2.3865">
        <ele>36.200000762939</ele>
        <time>2017-04-24T18:44:19.000Z</time>
      </trkpt>
      <trkpt lat="48.82968" lon="2.38666">
        <ele>33.400001525879</ele>
        <time>2017-04-24T18:44:23.000Z</time>
      </trkpt>
      <trkpt lat="48.82952" lon="2.38686">
        <ele>33</ele>
        <time>2017-04-24T18:44:27.000Z</time>
      </trkpt>
      <trkpt lat="48.82935" lon="2.38703">
        <ele>32.599998474121</ele>
        <time>2017-04-24T18:44:31.000Z</time>
      </trkpt>
      <trkpt lat="48.82919" lon="2.38716">
        <ele>32.200000762939</ele>
        <time>2017-04-24T18:44:35.000Z</time>
      </trkpt>
      <trkpt lat="48.82902" lon="2.38734">
        <ele>31.799999237061</ele>
        <time>2017-04-24T18:44:40.000Z</time>
      </trkpt>
      <trkpt lat="48.82884" lon="2.38746">
        <ele>31</ele>
        <time>2017-04-24T18:44:44.000Z</time>
      </trkpt>
      <trkpt lat="48.82867" lon="2.38762">
        <ele>29.799999237061</ele>
        <time>2017-04-24T18:44:49.000Z</time>
      </trkpt>
      <trkpt lat="48.8285" lon="2.3878">
        <ele>29.39999961853</ele>
        <time>2017-04-24T18:44:54.000Z</time>
      </trkpt>
      <trkpt lat="48.8284" lon="2.38795">
        <ele>29.799999237061</ele>
        <time>2017-04-24T18:44:57.000Z</time>
      </trkpt>
      <trkpt lat="48.82831" lon="2.38815">
        <ele>30.39999961853</ele>
        <time>2017-04-24T18:45:01.000Z</time>
      </trkpt>
      <trkpt lat="48.82818" lon="2.38835">
        <ele>31.799999237061</ele>
        <time>2017-04-24T18:45:06.000Z</time>
      </trkpt>
      <trkpt lat="48.82813" lon="2.38842">
        <ele>32</ele>
        <time>2017-04-24T18:45:08.000Z</time>
      </trkpt>
      <trkpt lat="48.828" lon="2.38862">
        <ele>32.400001525879</ele>
        <time>2017-04-24T18:45:13.000Z</time>
      </trkpt>
      <trkpt lat="48.82796" lon="2.38867">
        <ele>32</ele>
        <time>2017-04-24T18:45:15.000Z</time>
      </trkpt>
      <trkpt lat="48.82787" lon="2.38879">
        <ele>31</ele>
        <time>2017-04-24T18:45:21.000Z</time>
      </trkpt>
      <trkpt lat="48.82774" lon="2.38897">
        <ele>29.200000762939</ele>
        <time>2017-04-24T18:45:29.000Z</time>
      </trkpt>
      <trkpt lat="48.82759" lon="2.38917">
        <ele>28.39999961853</ele>
        <time>2017-04-24T18:45:37.000Z</time>
      </trkpt>
      <trkpt lat="48.82742" lon="2.38937">
        <ele>28.799999237061</ele>
        <time>2017-04-24T18:45:43.000Z</time>
      </trkpt>
      <trkpt lat="48.82725" lon="2.38958">
        <ele>29.39999961853</ele>
        <time>2017-04-24T18:45:48.000Z</time>
      </trkpt>
      <trkpt lat="48.82707" lon="2.38978">
        <ele>30.60000038147</ele>
        <time>2017-04-24T18:45:53.000Z</time>
      </trkpt>
      <trkpt lat="48.82689" lon="2.38992">
        <ele>31.799999237061</ele>
        <time>2017-04-24T18:45:57.000Z</time>
      </trkpt>
      <trkpt lat="48.82675" lon="2.39021">
        <ele>29.60000038147</ele>
        <time>2017-04-24T18:46:01.000Z</time>
      </trkpt>
      <trkpt lat="48.8266" lon="2.39043">
        <ele>27</ele>
        <time>2017-04-24T18:46:05.000Z</time>
      </trkpt>
      <trkpt lat="48.82646" lon="2.39063">
        <ele>28</ele>
        <time>2017-04-24T18:46:09.000Z</time>
      </trkpt>
      <trkpt lat="48.82632" lon="2.39081">
        <ele>30</ele>
        <time>2017-04-24T18:46:13.000Z</time>
      </trkpt>
      <trkpt lat="48.82616" lon="2.39101">
        <ele>29</ele>
        <time>2017-04-24T18:46:18.000Z</time>
      </trkpt>
      <trkpt lat="48.82599" lon="2.39119">
        <ele>27</ele>
        <time>2017-04-24T18:46:23.000Z</time>
      </trkpt>
      <trkpt lat="48.82582" lon="2.39137">
        <ele>25.799999237061</ele>
        <time>2017-04-24T18:46:28.000Z</time>
      </trkpt>
      <trkpt lat="48.82569" lon="2.39157">
        <ele>24.799999237061</ele>
        <time>2017-04-24T18:46:32.000Z</time>
      </trkpt>
      <trkpt lat="48.82552" lon="2.39182">
        <ele>25.39999961853</ele>
        <time>2017-04-24T18:46:36.000Z</time>
      </trkpt>
      <trkpt lat="48.82538" lon="2.39203">
        <ele>25.60000038147</ele>
        <time>2017-04-24T18:46:39.000Z</time>
      </trkpt>
      <trkpt lat="48.82526" lon="2.39225">
        <ele>25.60000038147</ele>
        <time>2017-04-24T18:46:42.000Z</time>
      </trkpt>
      <trkpt lat="48.82511" lon="2.39249">
        <ele>26</ele>
        <time>2017-04-24T18:46:46.000Z</time>
      </trkpt>
      <trkpt lat="48.82497" lon="2.39272">
        <ele>28.799999237061</ele>
        <time>2017-04-24T18:46:50.000Z</time>
      </trkpt>
      <trkpt lat="48.82483" lon="2.39295">
        <ele>31.39999961853</ele>
        <time>2017-04-24T18:46:54.000Z</time>
      </trkpt>
      <trkpt lat="48.82467" lon="2.39315">
        <ele>30.799999237061</ele>
        <time>2017-04-24T18:46:58.000Z</time>
      </trkpt>
      <trkpt lat="48.82452" lon="2.39337">
        <ele>30.39999961853</ele>
        <time>2017-04-24T18:47:02.000Z</time>
      </trkpt>
      <trkpt lat="48.82445" lon="2.3935">
        <ele>30.799999237061</ele>
        <time>2017-04-24T18:47:04.000Z</time>
      </trkpt>
      <trkpt lat="48.82431" lon="2.39371">
        <ele>32.400001525879</ele>
        <time>2017-04-24T18:47:07.000Z</time>
      </trkpt>
      <trkpt lat="48.82422" lon="2.39385">
        <ele>33.799999237061</ele>
        <time>2017-04-24T18:47:09.000Z</time>
      </trkpt>
      <trkpt lat="48.82406" lon="2.39406">
        <ele>33.400001525879</ele>
        <time>2017-04-24T18:47:12.000Z</time>
      </trkpt>
      <trkpt lat="48.82391" lon="2.39429">
        <ele>33.799999237061</ele>
        <time>2017-04-24T18:47:15.000Z</time>
      </trkpt>
      <trkpt lat="48.82376" lon="2.39451">
        <ele>33.799999237061</ele>
        <time>2017-04-24T18:47:18.000Z</time>
      </trkpt>
      <trkpt lat="48.82362" lon="2.39472">
        <ele>31.60000038147</ele>
        <time>2017-04-24T18:47:21.000Z</time>
      </trkpt>
      <trkpt lat="48.82348" lon="2.39492">
        <ele>31</ele>
        <time>2017-04-24T18:47:24.000Z</time>
      </trkpt>
      <trkpt lat="48.82336" lon="2.39511">
        <ele>30.60000038147</ele>
        <time>2017-04-24T18:47:27.000Z</time>
      </trkpt>
      <trkpt lat="48.8232" lon="2.39537">
        <ele>31.200000762939</ele>
        <time>2017-04-24T18:47:31.000Z</time>
      </trkpt>
      <trkpt lat="48.82307" lon="2.39557">
        <ele>30.39999961853</ele>
        <time>2017-04-24T18:47:34.000Z</time>
      </trkpt>
      <trkpt lat="48.82294" lon="2.39577">
        <ele>29.200000762939</ele>
        <time>2017-04-24T18:47:37.000Z</time>
      </trkpt>
      <trkpt lat="48.82281" lon="2.39596">
        <ele>28</ele>
        <time>2017-04-24T18:47:40.000Z</time>
      </trkpt>
      <trkpt lat="48.82268" lon="2.39616">
        <ele>27.39999961853</ele>
        <time>2017-04-24T18:47:43.000Z</time>
      </trkpt>
      <trkpt lat="48.8226" lon="2.39629">
        <ele>27.799999237061</ele>
        <time>2017-04-24T18:47:45.000Z</time>
      </trkpt>
      <trkpt lat="48.82247" lon="2.39648">
        <ele>27.799999237061</ele>
        <time>2017-04-24T18:47:48.000Z</time>
      </trkpt>
      <trkpt lat="48.82235" lon="2.39668">
        <ele>27.60000038147</ele>
        <time>2017-04-24T18:47:51.000Z</time>
      </trkpt>
      <trkpt lat="48.82222" lon="2.39688">
        <ele>28</ele>
        <time>2017-04-24T18:47:54.000Z</time>
      </trkpt>
      <trkpt lat="48.82208" lon="2.39715">
        <ele>27.39999961853</ele>
        <time>2017-04-24T18:47:58.000Z</time>
      </trkpt>
      <trkpt lat="48.82194" lon="2.3974">
        <ele>26.39999961853</ele>
        <time>2017-04-24T18:48:02.000Z</time>
      </trkpt>
      <trkpt lat="48.82181" lon="2.39765">
        <ele>26</ele>
        <time>2017-04-24T18:48:06.000Z</time>
      </trkpt>
      <trkpt lat="48.82167" lon="2.39792">
        <ele>26</ele>
        <time>2017-04-24T18:48:10.000Z</time>
      </trkpt>
      <trkpt lat="48.82155" lon="2.39821">
        <ele>25.200000762939</ele>
        <time>2017-04-24T18:48:14.000Z</time>
      </trkpt>
      <trkpt lat="48.82144" lon="2.3985">
        <ele>25</ele>
        <time>2017-04-24T18:48:18.000Z</time>
      </trkpt>
      <trkpt lat="48.82132" lon="2.39878">
        <ele>25.799999237061</ele>
        <time>2017-04-24T18:48:22.000Z</time>
      </trkpt>
      <trkpt lat="48.82122" lon="2.39905">
        <ele>27</ele>
        <time>2017-04-24T18:48:26.000Z</time>
      </trkpt>
      <trkpt lat="48.82112" lon="2.39932">
        <ele>27.60000038147</ele>
        <time>2017-04-24T18:48:30.000Z</time>
      </trkpt>
      <trkpt lat="48.82101" lon="2.39962">
        <ele>28</ele>
        <time>2017-04-24T18:48:34.000Z</time>
      </trkpt>
      <trkpt lat="48.82091" lon="2.39993">
        <ele>28.799999237061</ele>
        <time>2017-04-24T18:48:38.000Z</time>
      </trkpt>
      <trkpt lat="48.82082" lon="2.40017">
        <ele>30</ele>
        <time>2017-04-24T18:48:41.000Z</time>
      </trkpt>
      <trkpt lat="48.82075" lon="2.40034">
        <ele>30.60000038147</ele>
        <time>2017-04-24T18:48:43.000Z</time>
      </trkpt>
      <trkpt lat="48.82066" lon="2.40058">
        <ele>31.39999961853</ele>
        <time>2017-04-24T18:48:46.000Z</time>
      </trkpt>
      <trkpt lat="48.82056" lon="2.40088">
        <ele>32.400001525879</ele>
        <time>2017-04-24T18:48:50.000Z</time>
      </trkpt>
      <trkpt lat="48.8205" lon="2.40102">
        <ele>33</ele>
        <time>2017-04-24T18:48:52.000Z</time>
      </trkpt>
      <trkpt lat="48.82035" lon="2.40129">
        <ele>33</ele>
        <time>2017-04-24T18:48:56.000Z</time>
      </trkpt>
      <trkpt lat="48.82026" lon="2.40153">
        <ele>33</ele>
        <time>2017-04-24T18:48:59.000Z</time>
      </trkpt>
      <trkpt lat="48.82018" lon="2.40177">
        <ele>32.799999237061</ele>
        <time>2017-04-24T18:49:02.000Z</time>
      </trkpt>
      <trkpt lat="48.82009" lon="2.40203">
        <ele>32.599998474121</ele>
        <time>2017-04-24T18:49:05.000Z</time>
      </trkpt>
      <trkpt lat="48.82001" lon="2.40228">
        <ele>32.200000762939</ele>
        <time>2017-04-24T18:49:08.000Z</time>
      </trkpt>
      <trkpt lat="48.81994" lon="2.40253">
        <ele>33.400001525879</ele>
        <time>2017-04-24T18:49:11.000Z</time>
      </trkpt>
      <trkpt lat="48.81987" lon="2.40277">
        <ele>34.200000762939</ele>
        <time>2017-04-24T18:49:14.000Z</time>
      </trkpt>
      <trkpt lat="48.81978" lon="2.40309">
        <ele>35</ele>
        <time>2017-04-24T18:49:18.000Z</time>
      </trkpt>
      <trkpt lat="48.8197" lon="2.40341">
        <ele>35.799999237061</ele>
        <time>2017-04-24T18:49:22.000Z</time>
      </trkpt>
      <trkpt lat="48.81961" lon="2.40372">
        <ele>35.200000762939</ele>
        <time>2017-04-24T18:49:26.000Z</time>
      </trkpt>
      <trkpt lat="48.81955" lon="2.40395">
        <ele>33.400001525879</ele>
        <time>2017-04-24T18:49:29.000Z</time>
      </trkpt>
      <trkpt lat="48.81948" lon="2.40425">
        <ele>32.400001525879</ele>
        <time>2017-04-24T18:49:33.000Z</time>
      </trkpt>
      <trkpt lat="48.81945" lon="2.40439">
        <ele>31.60000038147</ele>
        <time>2017-04-24T18:49:35.000Z</time>
      </trkpt>
      <trkpt lat="48.81944" lon="2.40472">
        <ele>30.60000038147</ele>
        <time>2017-04-24T18:49:40.000Z</time>
      </trkpt>
      <trkpt lat="48.81942" lon="2.40479">
        <ele>30.200000762939</ele>
        <time>2017-04-24T18:49:41.000Z</time>
      </trkpt>
      <trkpt lat="48.81937" lon="2.40506">
        <ele>29</ele>
        <time>2017-04-24T18:49:45.000Z</time>
      </trkpt>
      <trkpt lat="48.8193" lon="2.40538">
        <ele>29.200000762939</ele>
        <time>2017-04-24T18:49:49.000Z</time>
      </trkpt>
      <trkpt lat="48.81923" lon="2.40564">
        <ele>29.200000762939</ele>
        <time>2017-04-24T18:49:52.000Z</time>
      </trkpt>
      <trkpt lat="48.8192" lon="2.40572">
        <ele>29.200000762939</ele>
        <time>2017-04-24T18:49:53.000Z</time>
      </trkpt>
      <trkpt lat="48.81912" lon="2.40598">
        <ele>30.200000762939</ele>
        <time>2017-04-24T18:49:56.000Z</time>
      </trkpt>
      <trkpt lat="48.81906" lon="2.40624">
        <ele>32</ele>
        <time>2017-04-24T18:49:59.000Z</time>
      </trkpt>
      <trkpt lat="48.81897" lon="2.40656">
        <ele>32</ele>
        <time>2017-04-24T18:50:03.000Z</time>
      </trkpt>
      <trkpt lat="48.81888" lon="2.40686">
        <ele>33</ele>
        <time>2017-04-24T18:50:07.000Z</time>
      </trkpt>
      <trkpt lat="48.81879" lon="2.40714">
        <ele>34</ele>
        <time>2017-04-24T18:50:11.000Z</time>
      </trkpt>
      <trkpt lat="48.81871" lon="2.40744">
        <ele>35</ele>
        <time>2017-04-24T18:50:16.000Z</time>
      </trkpt>
      <trkpt lat="48.81866" lon="2.40771">
        <ele>34.599998474121</ele>
        <time>2017-04-24T18:50:20.000Z</time>
      </trkpt>
      <trkpt lat="48.81859" lon="2.40798">
        <ele>32.599998474121</ele>
        <time>2017-04-24T18:50:25.000Z</time>
      </trkpt>
      <trkpt lat="48.81855" lon="2.40809">
        <ele>31.799999237061</ele>
        <time>2017-04-24T18:50:28.000Z</time>
      </trkpt>
      <trkpt lat="48.8185" lon="2.40824">
        <ele>31</ele>
        <time>2017-04-24T18:51:36.000Z</time>
      </trkpt>
      <trkpt lat="48.81849" lon="2.40854">
        <ele>31.39999961853</ele>
        <time>2017-04-24T18:51:42.000Z</time>
      </trkpt>
      <trkpt lat="48.81844" lon="2.40886">
        <ele>32.200000762939</ele>
        <time>2017-04-24T18:51:48.000Z</time>
      </trkpt>
      <trkpt lat="48.81836" lon="2.40915">
        <ele>31.60000038147</ele>
        <time>2017-04-24T18:51:53.000Z</time>
      </trkpt>
      <trkpt lat="48.81831" lon="2.40942">
        <ele>32.200000762939</ele>
        <time>2017-04-24T18:51:57.000Z</time>
      </trkpt>
      <trkpt lat="48.81826" lon="2.4097">
        <ele>32.799999237061</ele>
        <time>2017-04-24T18:52:01.000Z</time>
      </trkpt>
      <trkpt lat="48.8182" lon="2.40998">
        <ele>33.400001525879</ele>
        <time>2017-04-24T18:52:05.000Z</time>
      </trkpt>
      <trkpt lat="48.81815" lon="2.41024">
        <ele>32.799999237061</ele>
        <time>2017-04-24T18:52:09.000Z</time>
      </trkpt>
      <trkpt lat="48.81811" lon="2.41043">
        <ele>32.599998474121</ele>
        <time>2017-04-24T18:52:12.000Z</time>
      </trkpt>
      <trkpt lat="48.81805" lon="2.41069">
        <ele>33.799999237061</ele>
        <time>2017-04-24T18:52:17.000Z</time>
      </trkpt>
      <trkpt lat="48.81804" lon="2.41073">
        <ele>34</ele>
        <time>2017-04-24T18:52:18.000Z</time>
      </trkpt>
      <trkpt lat="48.81802" lon="2.41083">
        <ele>34.400001525879</ele>
        <time>2017-04-24T18:52:21.000Z</time>
      </trkpt>
      <trkpt lat="48.81799" lon="2.41092">
        <ele>34.400001525879</ele>
        <time>2017-04-24T18:52:25.000Z</time>
      </trkpt>
      <trkpt lat="48.81796" lon="2.41096">
        <ele>34.200000762939</ele>
        <time>2017-04-24T18:52:28.000Z</time>
      </trkpt>
      <trkpt lat="48.81794" lon="2.41096">
        <ele>34.200000762939</ele>
        <time>2017-04-24T18:52:30.000Z</time>
      </trkpt>
      <trkpt lat="48.81778" lon="2.41087">
        <ele>34</ele>
        <time>2017-04-24T18:53:13.000Z</time>
      </trkpt>
      <trkpt lat="48.8176" lon="2.41078">
        <ele>33.799999237061</ele>
        <time>2017-04-24T18:53:18.000Z</time>
      </trkpt>
      <trkpt lat="48.81744" lon="2.4107">
        <ele>33.400001525879</ele>
        <time>2017-04-24T18:53:22.000Z</time>
      </trkpt>
      <trkpt lat="48.81724" lon="2.4106">
        <ele>33.200000762939</ele>
        <time>2017-04-24T18:53:27.000Z</time>
      </trkpt>
      <trkpt lat="48.81716" lon="2.41058">
        <ele>33</ele>
        <time>2017-04-24T18:53:29.000Z</time>
      </trkpt>
      <trkpt lat="48.81706" lon="2.41081">
        <ele>32.400001525879</ele>
        <time>2017-04-24T18:53:34.000Z</time>
      </trkpt>
      <trkpt lat="48.81697" lon="2.41109">
        <ele>32.400001525879</ele>
        <time>2017-04-24T18:53:39.000Z</time>
      </trkpt>
      <trkpt lat="48.81691" lon="2.41137">
        <ele>32.200000762939</ele>
        <time>2017-04-24T18:53:44.000Z</time>
      </trkpt>
      <trkpt lat="48.81686" lon="2.41168">
        <ele>32.200000762939</ele>
        <time>2017-04-24T18:53:50.000Z</time>
      </trkpt>
      <trkpt lat="48.81681" lon="2.412">
        <ele>33.799999237061</ele>
        <time>2017-04-24T18:53:56.000Z</time>
      </trkpt>
      <trkpt lat="48.81679" lon="2.41233">
        <ele>35</ele>
        <time>2017-04-24T18:54:02.000Z</time>
      </trkpt>
      <trkpt lat="48.81678" lon="2.41263">
        <ele>34.599998474121</ele>
        <time>2017-04-24T18:54:08.000Z</time>
      </trkpt>
      <trkpt lat="48.81674" lon="2.41296">
        <ele>34.200000762939</ele>
        <time>2017-04-24T18:54:14.000Z</time>
      </trkpt>
      <trkpt lat="48.8167" lon="2.41324">
        <ele>34</ele>
        <time>2017-04-24T18:54:19.000Z</time>
      </trkpt>
      <trkpt lat="48.81666" lon="2.41353">
        <ele>34</ele>
        <time>2017-04-24T18:54:24.000Z</time>
      </trkpt>
      <trkpt lat="48.81668" lon="2.41381">
        <ele>34</ele>
        <time>2017-04-24T18:54:28.000Z</time>
      </trkpt>
      <trkpt lat="48.81669" lon="2.41409">
        <ele>33.799999237061</ele>
        <time>2017-04-24T18:54:33.000Z</time>
      </trkpt>
      <trkpt lat="48.81668" lon="2.41437">
        <ele>34</ele>
        <time>2017-04-24T18:54:39.000Z</time>
      </trkpt>
      <trkpt lat="48.81664" lon="2.41468">
        <ele>34.400001525879</ele>
        <time>2017-04-24T18:54:45.000Z</time>
      </trkpt>
      <trkpt lat="48.81665" lon="2.41495">
        <ele>35</ele>
        <time>2017-04-24T18:54:50.000Z</time>
      </trkpt>
      <trkpt lat="48.81666" lon="2.41525">
        <ele>33.799999237061</ele>
        <time>2017-04-24T18:54:56.000Z</time>
      </trkpt>
      <trkpt lat="48.81672" lon="2.41556">
        <ele>32.200000762939</ele>
        <time>2017-04-24T18:55:01.000Z</time>
      </trkpt>
      <trkpt lat="48.81671" lon="2.41584">
        <ele>31.200000762939</ele>
        <time>2017-04-24T18:55:06.000Z</time>
      </trkpt>
      <trkpt lat="48.81681" lon="2.41612">
        <ele>31.799999237061</ele>
        <time>2017-04-24T18:55:10.000Z</time>
      </trkpt>
      <trkpt lat="48.81686" lon="2.41641">
        <ele>32.400001525879</ele>
        <time>2017-04-24T18:55:14.000Z</time>
      </trkpt>
      <trkpt lat="48.81691" lon="2.41667">
        <ele>33</ele>
        <time>2017-04-24T18:55:18.000Z</time>
      </trkpt>
      <trkpt lat="48.81695" lon="2.41694">
        <ele>33.799999237061</ele>
        <time>2017-04-24T18:55:22.000Z</time>
      </trkpt>
      <trkpt lat="48.81695" lon="2.41701">
        <ele>34.200000762939</ele>
        <time>2017-04-24T18:55:23.000Z</time>
      </trkpt>
      <trkpt lat="48.81698" lon="2.4173">
        <ele>35</ele>
        <time>2017-04-24T18:55:27.000Z</time>
      </trkpt>
      <trkpt lat="48.81704" lon="2.41761">
        <ele>35.599998474121</ele>
        <time>2017-04-24T18:55:32.000Z</time>
      </trkpt>
      <trkpt lat="48.8171" lon="2.41789">
        <ele>34.799999237061</ele>
        <time>2017-04-24T18:55:36.000Z</time>
      </trkpt>
      <trkpt lat="48.81714" lon="2.41819">
        <ele>33.799999237061</ele>
        <time>2017-04-24T18:55:40.000Z</time>
      </trkpt>
      <trkpt lat="48.81718" lon="2.41846">
        <ele>33.400001525879</ele>
        <time>2017-04-24T18:55:44.000Z</time>
      </trkpt>
      <trkpt lat="48.81725" lon="2.41873">
        <ele>33.400001525879</ele>
        <time>2017-04-24T18:55:48.000Z</time>
      </trkpt>
      <trkpt lat="48.81728" lon="2.41903">
        <ele>33.799999237061</ele>
        <time>2017-04-24T18:55:52.000Z</time>
      </trkpt>
      <trkpt lat="48.81728" lon="2.41935">
        <ele>34.400001525879</ele>
        <time>2017-04-24T18:55:56.000Z</time>
      </trkpt>
      <trkpt lat="48.81731" lon="2.41965">
        <ele>35</ele>
        <time>2017-04-24T18:56:00.000Z</time>
      </trkpt>
      <trkpt lat="48.81731" lon="2.41984">
        <ele>34.599998474121</ele>
        <time>2017-04-24T18:56:03.000Z</time>
      </trkpt>
      <trkpt lat="48.8173" lon="2.4201">
        <ele>34.599998474121</ele>
        <time>2017-04-24T18:56:07.000Z</time>
      </trkpt>
      <trkpt lat="48.8173" lon="2.42019">
        <ele>34.799999237061</ele>
        <time>2017-04-24T18:56:08.000Z</time>
      </trkpt>
      <trkpt lat="48.81732" lon="2.42046">
        <ele>35</ele>
        <time>2017-04-24T18:56:11.000Z</time>
      </trkpt>
      <trkpt lat="48.81728" lon="2.42078">
        <ele>34</ele>
        <time>2017-04-24T18:56:15.000Z</time>
      </trkpt>
      <trkpt lat="48.81728" lon="2.42086">
        <ele>33.799999237061</ele>
        <time>2017-04-24T18:56:16.000Z</time>
      </trkpt>
      <trkpt lat="48.81727" lon="2.42118">
        <ele>33.799999237061</ele>
        <time>2017-04-24T18:56:20.000Z</time>
      </trkpt>
      <trkpt lat="48.81725" lon="2.42143">
        <ele>34</ele>
        <time>2017-04-24T18:56:24.000Z</time>
      </trkpt>
      <trkpt lat="48.81724" lon="2.42155">
        <ele>34</ele>
        <time>2017-04-24T18:56:26.000Z</time>
      </trkpt>
      <trkpt lat="48.81721" lon="2.42188">
        <ele>33.200000762939</ele>
        <time>2017-04-24T18:56:31.000Z</time>
      </trkpt>
      <trkpt lat="48.8172" lon="2.42212">
        <ele>32.799999237061</ele>
        <time>2017-04-24T18:56:35.000Z</time>
      </trkpt>
      <trkpt lat="48.81728" lon="2.42231">
        <ele>33</ele>
        <time>2017-04-24T18:56:39.000Z</time>
      </trkpt>
      <trkpt lat="48.8173" lon="2.42235">
        <ele>33</ele>
        <time>2017-04-24T18:56:40.000Z</time>
      </trkpt>
      <trkpt lat="48.81733" lon="2.42246">
        <ele>33</ele>
        <time>2017-04-24T18:56:43.000Z</time>
      </trkpt>
      <trkpt lat="48.81733" lon="2.42268">
        <ele>32.799999237061</ele>
        <time>2017-04-24T18:56:48.000Z</time>
      </trkpt>
      <trkpt lat="48.81727" lon="2.42298">
        <ele>32.799999237061</ele>
        <time>2017-04-24T18:56:54.000Z</time>
      </trkpt>
      <trkpt lat="48.81723" lon="2.42326">
        <ele>33.400001525879</ele>
        <time>2017-04-24T18:57:00.000Z</time>
      </trkpt>
      <trkpt lat="48.81719" lon="2.42355">
        <ele>33.400001525879</ele>
        <time>2017-04-24T18:57:05.000Z</time>
      </trkpt>
      <trkpt lat="48.81717" lon="2.42385">
        <ele>32.200000762939</ele>
        <time>2017-04-24T18:57:10.000Z</time>
      </trkpt>
      <trkpt lat="48.81715" lon="2.42416">
        <ele>30.60000038147</ele>
        <time>2017-04-24T18:57:15.000Z</time>
      </trkpt>
      <trkpt lat="48.81713" lon="2.42444">
        <ele>30.799999237061</ele>
        <time>2017-04-24T18:57:20.000Z</time>
      </trkpt>
      <trkpt lat="48.81711" lon="2.42475">
        <ele>30.39999961853</ele>
        <time>2017-04-24T18:57:26.000Z</time>
      </trkpt>
      <trkpt lat="48.81712" lon="2.42504">
        <ele>30.200000762939</ele>
        <time>2017-04-24T18:57:32.000Z</time>
      </trkpt>
      <trkpt lat="48.8171" lon="2.42532">
        <ele>30.799999237061</ele>
        <time>2017-04-24T18:57:41.000Z</time>
      </trkpt>
      <trkpt lat="48.81703" lon="2.42566">
        <ele>31.799999237061</ele>
        <time>2017-04-24T18:57:47.000Z</time>
      </trkpt>
      <trkpt lat="48.81702" lon="2.42594">
        <ele>32.599998474121</ele>
        <time>2017-04-24T18:57:50.000Z</time>
      </trkpt>
      <trkpt lat="48.81703" lon="2.42626">
        <ele>33.400001525879</ele>
        <time>2017-04-24T18:57:53.000Z</time>
      </trkpt>
      <trkpt lat="48.81702" lon="2.42657">
        <ele>34.200000762939</ele>
        <time>2017-04-24T18:57:57.000Z</time>
      </trkpt>
      <trkpt lat="48.81703" lon="2.42684">
        <ele>33.599998474121</ele>
        <time>2017-04-24T18:58:01.000Z</time>
      </trkpt>
      <trkpt lat="48.81702" lon="2.42716">
        <ele>32</ele>
        <time>2017-04-24T18:58:06.000Z</time>
      </trkpt>
      <trkpt lat="48.81703" lon="2.42748">
        <ele>30.60000038147</ele>
        <time>2017-04-24T18:58:11.000Z</time>
      </trkpt>
      <trkpt lat="48.81704" lon="2.4276">
        <ele>30.60000038147</ele>
        <time>2017-04-24T18:58:13.000Z</time>
      </trkpt>
      <trkpt lat="48.81703" lon="2.42777">
        <ele>30.60000038147</ele>
        <time>2017-04-24T18:58:16.000Z</time>
      </trkpt>
      <trkpt lat="48.81701" lon="2.4281">
        <ele>30.60000038147</ele>
        <time>2017-04-24T18:58:21.000Z</time>
      </trkpt>
      <trkpt lat="48.81703" lon="2.42843">
        <ele>30.60000038147</ele>
        <time>2017-04-24T18:58:26.000Z</time>
      </trkpt>
      <trkpt lat="48.81704" lon="2.42876">
        <ele>30.39999961853</ele>
        <time>2017-04-24T18:58:31.000Z</time>
      </trkpt>
      <trkpt lat="48.81707" lon="2.42904">
        <ele>30.200000762939</ele>
        <time>2017-04-24T18:58:35.000Z</time>
      </trkpt>
      <trkpt lat="48.81707" lon="2.42924">
        <ele>30.200000762939</ele>
        <time>2017-04-24T18:58:38.000Z</time>
      </trkpt>
      <trkpt lat="48.81707" lon="2.42952">
        <ele>30.799999237061</ele>
        <time>2017-04-24T18:58:42.000Z</time>
      </trkpt>
      <trkpt lat="48.81704" lon="2.42981">
        <ele>31.799999237061</ele>
        <time>2017-04-24T18:58:46.000Z</time>
      </trkpt>
      <trkpt lat="48.81701" lon="2.42996">
        <ele>32.200000762939</ele>
        <time>2017-04-24T18:58:48.000Z</time>
      </trkpt>
      <trkpt lat="48.81697" lon="2.43027">
        <ele>33</ele>
        <time>2017-04-24T18:58:52.000Z</time>
      </trkpt>
      <trkpt lat="48.81696" lon="2.43059">
        <ele>34.200000762939</ele>
        <time>2017-04-24T18:58:56.000Z</time>
      </trkpt>
      <trkpt lat="48.81699" lon="2.43087">
        <ele>35</ele>
        <time>2017-04-24T18:59:00.000Z</time>
      </trkpt>
      <trkpt lat="48.81702" lon="2.43115">
        <ele>34.599998474121</ele>
        <time>2017-04-24T18:59:04.000Z</time>
      </trkpt>
      <trkpt lat="48.81706" lon="2.43144">
        <ele>34</ele>
        <time>2017-04-24T18:59:09.000Z</time>
      </trkpt>
      <trkpt lat="48.81706" lon="2.43152">
        <ele>33.799999237061</ele>
        <time>2017-04-24T18:59:10.000Z</time>
      </trkpt>
      <trkpt lat="48.81707" lon="2.43172">
        <ele>33.599998474121</ele>
        <time>2017-04-24T18:59:13.000Z</time>
      </trkpt>
      <trkpt lat="48.81708" lon="2.43197">
        <ele>33.599998474121</ele>
        <time>2017-04-24T18:59:17.000Z</time>
      </trkpt>
      <trkpt lat="48.81709" lon="2.43227">
        <ele>33.200000762939</ele>
        <time>2017-04-24T18:59:22.000Z</time>
      </trkpt>
      <trkpt lat="48.8171" lon="2.43258">
        <ele>33</ele>
        <time>2017-04-24T18:59:28.000Z</time>
      </trkpt>
      <trkpt lat="48.81709" lon="2.4328">
        <ele>33</ele>
        <time>2017-04-24T18:59:31.000Z</time>
      </trkpt>
      <trkpt lat="48.81705" lon="2.4331">
        <ele>33.599998474121</ele>
        <time>2017-04-24T18:59:35.000Z</time>
      </trkpt>
      <trkpt lat="48.81702" lon="2.43325">
        <ele>34</ele>
        <time>2017-04-24T18:59:37.000Z</time>
      </trkpt>
      <trkpt lat="48.81691" lon="2.43352">
        <ele>34</ele>
        <time>2017-04-24T18:59:42.000Z</time>
      </trkpt>
      <trkpt lat="48.81685" lon="2.43367">
        <ele>34</ele>
        <time>2017-04-24T18:59:47.000Z</time>
      </trkpt>
      <trkpt lat="48.81691" lon="2.43377">
        <ele>34</ele>
        <time>2017-04-24T18:59:54.000Z</time>
      </trkpt>
      <trkpt lat="48.81709" lon="2.43372">
        <ele>34.400001525879</ele>
        <time>2017-04-24T19:00:10.000Z</time>
      </trkpt>
      <trkpt lat="48.81709" lon="2.43372">
        <ele>34.400001525879</ele>
        <time>2017-04-24T19:00:11.000Z</time>
      </trkpt>
      <trkpt lat="48.81724" lon="2.43369">
        <ele>34.799999237061</ele>
        <time>2017-04-24T19:00:23.000Z</time>
      </trkpt>
      <trkpt lat="48.81727" lon="2.4335">
        <ele>34.599998474121</ele>
        <time>2017-04-24T19:00:28.000Z</time>
      </trkpt>
      <trkpt lat="48.81722" lon="2.43323">
        <ele>34.200000762939</ele>
        <time>2017-04-24T19:00:36.000Z</time>
      </trkpt>
      <trkpt lat="48.81721" lon="2.43312">
        <ele>34</ele>
        <time>2017-04-24T19:00:41.000Z</time>
      </trkpt>
      <trkpt lat="48.81721" lon="2.43329">
        <ele>34.400001525879</ele>
        <time>2017-04-24T19:00:50.000Z</time>
      </trkpt>
      <trkpt lat="48.81724" lon="2.43341">
        <ele>34.599998474121</ele>
        <time>2017-04-24T19:00:57.000Z</time>
      </trkpt>
      <trkpt lat="48.81731" lon="2.4334">
        <ele>34.599998474121</ele>
        <time>2017-04-24T19:01:02.000Z</time>
      </trkpt>
      <trkpt lat="48.8175" lon="2.4334">
        <ele>34.799999237061</ele>
        <time>2017-04-24T19:01:11.000Z</time>
      </trkpt>
      <trkpt lat="48.81769" lon="2.43339">
        <ele>35</ele>
        <time>2017-04-24T19:01:21.000Z</time>
      </trkpt>
      <trkpt lat="48.81772" lon="2.43338">
        <ele>35</ele>
        <time>2017-04-24T19:01:23.000Z</time>
      </trkpt>
      <trkpt lat="48.81774" lon="2.43335">
        <ele>35.200000762939</ele>
        <time>2017-04-24T19:01:25.000Z</time>
      </trkpt>
      <trkpt lat="48.81774" lon="2.4333">
        <ele>35.200000762939</ele>
        <time>2017-04-24T19:01:29.000Z</time>
      </trkpt>
      <trkpt lat="48.81773" lon="2.43322">
        <ele>35.200000762939</ele>
        <time>2017-04-24T19:01:33.000Z</time>
      </trkpt>
      <trkpt lat="48.81772" lon="2.43313">
        <ele>35.200000762939</ele>
        <time>2017-04-24T19:01:39.000Z</time>
      </trkpt>
      <trkpt lat="48.81772" lon="2.43341">
        <ele>35.200000762939</ele>
        <time>2017-04-24T19:01:54.000Z</time>
      </trkpt>
      <trkpt lat="48.81774" lon="2.43343">
        <ele>35.200000762939</ele>
        <time>2017-04-24T19:01:56.000Z</time>
      </trkpt>
      <trkpt lat="48.8177" lon="2.43355">
        <ele>35.200000762939</ele>
        <time>2017-04-24T19:03:04.000Z</time>
      </trkpt>
      <trkpt lat="48.81779" lon="2.43366">
        <ele>36</ele>
        <time>2017-04-24T19:03:40.000Z</time>
      </trkpt>
      <trkpt lat="48.81792" lon="2.43366">
        <ele>36.799999237061</ele>
        <time>2017-04-24T19:04:17.000Z</time>
      </trkpt>
      <trkpt lat="48.81798" lon="2.43367">
        <ele>37.200000762939</ele>
        <time>2017-04-24T19:04:23.000Z</time>
      </trkpt>
      <trkpt lat="48.81802" lon="2.43359">
        <ele>37.599998474121</ele>
        <time>2017-04-24T19:04:28.000Z</time>
      </trkpt>
      <trkpt lat="48.81813" lon="2.43351">
        <ele>38.799999237061</ele>
        <time>2017-04-24T19:05:23.000Z</time>
      </trkpt>
      <trkpt lat="48.81812" lon="2.43342">
        <ele>38.599998474121</ele>
        <time>2017-04-24T19:06:29.000Z</time>
      </trkpt>
      <trkpt lat="48.81815" lon="2.43314">
        <ele>39.400001525879</ele>
        <time>2017-04-24T19:06:37.000Z</time>
      </trkpt>
      <trkpt lat="48.81814" lon="2.43284">
        <ele>39.400001525879</ele>
        <time>2017-04-24T19:06:43.000Z</time>
      </trkpt>
      <trkpt lat="48.81816" lon="2.43256">
        <ele>38.799999237061</ele>
        <time>2017-04-24T19:06:48.000Z</time>
      </trkpt>
      <trkpt lat="48.81823" lon="2.43231">
        <ele>38.799999237061</ele>
        <time>2017-04-24T19:06:54.000Z</time>
      </trkpt>
      <trkpt lat="48.81824" lon="2.43231">
        <ele>38.799999237061</ele>
        <time>2017-04-24T19:06:55.000Z</time>
      </trkpt>
      <trkpt lat="48.81822" lon="2.43237">
        <ele>38.799999237061</ele>
        <time>2017-04-24T19:07:10.000Z</time>
      </trkpt>
      <trkpt lat="48.81828" lon="2.43249">
        <ele>39.400001525879</ele>
        <time>2017-04-24T19:07:56.000Z</time>
      </trkpt>
      <trkpt lat="48.81847" lon="2.43242">
        <ele>40.400001525879</ele>
        <time>2017-04-24T19:08:01.000Z</time>
      </trkpt>
      <trkpt lat="48.81856" lon="2.43243">
        <ele>41</ele>
        <time>2017-04-24T19:08:03.000Z</time>
      </trkpt>
      <trkpt lat="48.81866" lon="2.43263">
        <ele>43.200000762939</ele>
        <time>2017-04-24T19:08:08.000Z</time>
      </trkpt>
      <trkpt lat="48.81867" lon="2.43277">
        <ele>43.599998474121</ele>
        <time>2017-04-24T19:08:11.000Z</time>
      </trkpt>
      <trkpt lat="48.81864" lon="2.43306">
        <ele>43.799999237061</ele>
        <time>2017-04-24T19:08:18.000Z</time>
      </trkpt>
      <trkpt lat="48.81865" lon="2.43333">
        <ele>44.799999237061</ele>
        <time>2017-04-24T19:08:25.000Z</time>
      </trkpt>
      <trkpt lat="48.81882" lon="2.43352">
        <ele>48</ele>
        <time>2017-04-24T19:08:33.000Z</time>
      </trkpt>
      <trkpt lat="48.81898" lon="2.43366">
        <ele>51</ele>
        <time>2017-04-24T19:08:41.000Z</time>
      </trkpt>
      <trkpt lat="48.81911" lon="2.43389">
        <ele>53.599998474121</ele>
        <time>2017-04-24T19:08:49.000Z</time>
      </trkpt>
      <trkpt lat="48.81927" lon="2.43405">
        <ele>56.599998474121</ele>
        <time>2017-04-24T19:08:58.000Z</time>
      </trkpt>
      <trkpt lat="48.81941" lon="2.43424">
        <ele>59.200000762939</ele>
        <time>2017-04-24T19:09:06.000Z</time>
      </trkpt>
      <trkpt lat="48.81952" lon="2.43447">
        <ele>60</ele>
        <time>2017-04-24T19:09:20.000Z</time>
      </trkpt>
      <trkpt lat="48.81952" lon="2.43451">
        <ele>59.799999237061</ele>
        <time>2017-04-24T19:09:23.000Z</time>
      </trkpt>
      <trkpt lat="48.81947" lon="2.43455">
        <ele>59.200000762939</ele>
        <time>2017-04-24T19:11:11.000Z</time>
      </trkpt>
      <trkpt lat="48.81956" lon="2.43463">
        <ele>60</ele>
        <time>2017-04-24T19:12:07.000Z</time>
      </trkpt>
      <trkpt lat="48.81969" lon="2.43488">
        <ele>61</ele>
        <time>2017-04-24T19:12:15.000Z</time>
      </trkpt>
      <trkpt lat="48.81978" lon="2.43515">
        <ele>61.599998474121</ele>
        <time>2017-04-24T19:12:21.000Z</time>
      </trkpt>
      <trkpt lat="48.81981" lon="2.43545">
        <ele>61.599998474121</ele>
        <time>2017-04-24T19:12:26.000Z</time>
      </trkpt>
      <trkpt lat="48.81981" lon="2.43574">
        <ele>61.599998474121</ele>
        <time>2017-04-24T19:12:31.000Z</time>
      </trkpt>
      <trkpt lat="48.81981" lon="2.43606">
        <ele>61.799999237061</ele>
        <time>2017-04-24T19:12:37.000Z</time>
      </trkpt>
      <trkpt lat="48.81982" lon="2.43633">
        <ele>62.200000762939</ele>
        <time>2017-04-24T19:12:56.000Z</time>
      </trkpt>
      <trkpt lat="48.81976" lon="2.43661">
        <ele>61.599998474121</ele>
        <time>2017-04-24T19:13:05.000Z</time>
      </trkpt>
      <trkpt lat="48.81968" lon="2.43686">
        <ele>61</ele>
        <time>2017-04-24T19:13:10.000Z</time>
      </trkpt>
      <trkpt lat="48.81963" lon="2.43714">
        <ele>61.400001525879</ele>
        <time>2017-04-24T19:13:15.000Z</time>
      </trkpt>
      <trkpt lat="48.81956" lon="2.43744">
        <ele>62</ele>
        <time>2017-04-24T19:13:20.000Z</time>
      </trkpt>
      <trkpt lat="48.8195" lon="2.4377">
        <ele>61.799999237061</ele>
        <time>2017-04-24T19:13:24.000Z</time>
      </trkpt>
      <trkpt lat="48.81944" lon="2.43798">
        <ele>61.799999237061</ele>
        <time>2017-04-24T19:13:28.000Z</time>
      </trkpt>
      <trkpt lat="48.8194" lon="2.43827">
        <ele>62</ele>
        <time>2017-04-24T19:13:32.000Z</time>
      </trkpt>
      <trkpt lat="48.81934" lon="2.43857">
        <ele>61.400001525879</ele>
        <time>2017-04-24T19:13:36.000Z</time>
      </trkpt>
      <trkpt lat="48.81929" lon="2.43888">
        <ele>60.799999237061</ele>
        <time>2017-04-24T19:13:40.000Z</time>
      </trkpt>
      <trkpt lat="48.81928" lon="2.43902">
        <ele>60.599998474121</ele>
        <time>2017-04-24T19:13:42.000Z</time>
      </trkpt>
      <trkpt lat="48.81923" lon="2.43932">
        <ele>60</ele>
        <time>2017-04-24T19:13:46.000Z</time>
      </trkpt>
      <trkpt lat="48.81912" lon="2.43965">
        <ele>58.200000762939</ele>
        <time>2017-04-24T19:13:50.000Z</time>
      </trkpt>
      <trkpt lat="48.81906" lon="2.43994">
        <ele>57.200000762939</ele>
        <time>2017-04-24T19:13:54.000Z</time>
      </trkpt>
      <trkpt lat="48.81901" lon="2.44022">
        <ele>56.799999237061</ele>
        <time>2017-04-24T19:13:58.000Z</time>
      </trkpt>
      <trkpt lat="48.81897" lon="2.44055">
        <ele>56.799999237061</ele>
        <time>2017-04-24T19:14:03.000Z</time>
      </trkpt>
      <trkpt lat="48.81894" lon="2.44083">
        <ele>57</ele>
        <time>2017-04-24T19:14:07.000Z</time>
      </trkpt>
      <trkpt lat="48.81889" lon="2.44115">
        <ele>56.799999237061</ele>
        <time>2017-04-24T19:14:12.000Z</time>
      </trkpt>
      <trkpt lat="48.81887" lon="2.44133">
        <ele>56.400001525879</ele>
        <time>2017-04-24T19:14:15.000Z</time>
      </trkpt>
      <trkpt lat="48.81882" lon="2.44158">
        <ele>55.799999237061</ele>
        <time>2017-04-24T19:14:19.000Z</time>
      </trkpt>
      <trkpt lat="48.81881" lon="2.44192">
        <ele>55.400001525879</ele>
        <time>2017-04-24T19:14:24.000Z</time>
      </trkpt>
      <trkpt lat="48.81879" lon="2.44224">
        <ele>55</ele>
        <time>2017-04-24T19:14:29.000Z</time>
      </trkpt>
      <trkpt lat="48.81876" lon="2.4424">
        <ele>54.599998474121</ele>
        <time>2017-04-24T19:14:32.000Z</time>
      </trkpt>
      <trkpt lat="48.81873" lon="2.44254">
        <ele>53.799999237061</ele>
        <time>2017-04-24T19:14:35.000Z</time>
      </trkpt>
      <trkpt lat="48.81874" lon="2.44274">
        <ele>54</ele>
        <time>2017-04-24T19:14:40.000Z</time>
      </trkpt>
      <trkpt lat="48.81874" lon="2.44278">
        <ele>54.200000762939</ele>
        <time>2017-04-24T19:14:41.000Z</time>
      </trkpt>
      <trkpt lat="48.81874" lon="2.44285">
        <ele>54.200000762939</ele>
        <time>2017-04-24T19:14:45.000Z</time>
      </trkpt>
      <trkpt lat="48.81873" lon="2.44292">
        <ele>54.200000762939</ele>
        <time>2017-04-24T19:14:49.000Z</time>
      </trkpt>
      <trkpt lat="48.81877" lon="2.44316">
        <ele>55.200000762939</ele>
        <time>2017-04-24T19:15:02.000Z</time>
      </trkpt>
      <trkpt lat="48.81881" lon="2.4434">
        <ele>56.200000762939</ele>
        <time>2017-04-24T19:15:45.000Z</time>
      </trkpt>
      <trkpt lat="48.81891" lon="2.44363">
        <ele>58.599998474121</ele>
        <time>2017-04-24T19:15:52.000Z</time>
      </trkpt>
      <trkpt lat="48.81904" lon="2.44385">
        <ele>61.599998474121</ele>
        <time>2017-04-24T19:15:57.000Z</time>
      </trkpt>
      <trkpt lat="48.81919" lon="2.44408">
        <ele>64.800003051758</ele>
        <time>2017-04-24T19:16:02.000Z</time>
      </trkpt>
      <trkpt lat="48.81933" lon="2.44426">
        <ele>67.400001525879</ele>
        <time>2017-04-24T19:16:06.000Z</time>
      </trkpt>
      <trkpt lat="48.81951" lon="2.44441">
        <ele>68.599998474121</ele>
        <time>2017-04-24T19:16:11.000Z</time>
      </trkpt>
      <trkpt lat="48.8197" lon="2.44457">
        <ele>68.800003051758</ele>
        <time>2017-04-24T19:16:15.000Z</time>
      </trkpt>
      <trkpt lat="48.81986" lon="2.4447">
        <ele>68.800003051758</ele>
        <time>2017-04-24T19:16:19.000Z</time>
      </trkpt>
      <trkpt lat="48.82003" lon="2.44487">
        <ele>68.800003051758</ele>
        <time>2017-04-24T19:16:23.000Z</time>
      </trkpt>
      <trkpt lat="48.82015" lon="2.44497">
        <ele>68.800003051758</ele>
        <time>2017-04-24T19:16:26.000Z</time>
      </trkpt>
      <trkpt lat="48.82027" lon="2.44504">
        <ele>69</ele>
        <time>2017-04-24T19:16:29.000Z</time>
      </trkpt>
      <trkpt lat="48.82044" lon="2.44518">
        <ele>68.800003051758</ele>
        <time>2017-04-24T19:16:35.000Z</time>
      </trkpt>
      <trkpt lat="48.82055" lon="2.44522">
        <ele>68.800003051758</ele>
        <time>2017-04-24T19:16:39.000Z</time>
      </trkpt>
      <trkpt lat="48.82057" lon="2.44524">
        <ele>68.800003051758</ele>
        <time>2017-04-24T19:16:40.000Z</time>
      </trkpt>
      <trkpt lat="48.8206" lon="2.44524">
        <ele>68.599998474121</ele>
        <time>2017-04-24T19:16:43.000Z</time>
      </trkpt>
      <trkpt lat="48.82063" lon="2.44531">
        <ele>68.599998474121</ele>
        <time>2017-04-24T19:16:49.000Z</time>
      </trkpt>
      <trkpt lat="48.82064" lon="2.44516">
        <ele>68.800003051758</ele>
        <time>2017-04-24T19:17:15.000Z</time>
      </trkpt>
      <trkpt lat="48.82069" lon="2.44487">
        <ele>68.800003051758</ele>
        <time>2017-04-24T19:17:20.000Z</time>
      </trkpt>
      <trkpt lat="48.82072" lon="2.44458">
        <ele>68.400001525879</ele>
        <time>2017-04-24T19:17:25.000Z</time>
      </trkpt>
      <trkpt lat="48.82081" lon="2.44427">
        <ele>67.599998474121</ele>
        <time>2017-04-24T19:17:28.000Z</time>
      </trkpt>
      <trkpt lat="48.8209" lon="2.44397">
        <ele>67</ele>
        <time>2017-04-24T19:17:32.000Z</time>
      </trkpt>
      <trkpt lat="48.82094" lon="2.4437">
        <ele>66.199996948242</ele>
        <time>2017-04-24T19:17:36.000Z</time>
      </trkpt>
      <trkpt lat="48.82097" lon="2.44341">
        <ele>65.400001525879</ele>
        <time>2017-04-24T19:17:40.000Z</time>
      </trkpt>
      <trkpt lat="48.82102" lon="2.44312">
        <ele>64.400001525879</ele>
        <time>2017-04-24T19:17:44.000Z</time>
      </trkpt>
      <trkpt lat="48.82104" lon="2.44297">
        <ele>63.799999237061</ele>
        <time>2017-04-24T19:17:46.000Z</time>
      </trkpt>
      <trkpt lat="48.82108" lon="2.44267">
        <ele>62.599998474121</ele>
        <time>2017-04-24T19:17:50.000Z</time>
      </trkpt>
      <trkpt lat="48.82112" lon="2.4424">
        <ele>62.400001525879</ele>
        <time>2017-04-24T19:17:54.000Z</time>
      </trkpt>
      <trkpt lat="48.82116" lon="2.44212">
        <ele>63.400001525879</ele>
        <time>2017-04-24T19:17:58.000Z</time>
      </trkpt>
      <trkpt lat="48.82131" lon="2.442">
        <ele>64</ele>
        <time>2017-04-24T19:18:03.000Z</time>
      </trkpt>
      <trkpt lat="48.8214" lon="2.44205">
        <ele>64</ele>
        <time>2017-04-24T19:18:05.000Z</time>
      </trkpt>
      <trkpt lat="48.82158" lon="2.44215">
        <ele>63.799999237061</ele>
        <time>2017-04-24T19:18:09.000Z</time>
      </trkpt>
      <trkpt lat="48.82163" lon="2.44216">
        <ele>63.599998474121</ele>
        <time>2017-04-24T19:18:10.000Z</time>
      </trkpt>
      <trkpt lat="48.82172" lon="2.44219">
        <ele>63.400001525879</ele>
        <time>2017-04-24T19:18:12.000Z</time>
      </trkpt>
      <trkpt lat="48.82194" lon="2.44214">
        <ele>63</ele>
        <time>2017-04-24T19:18:17.000Z</time>
      </trkpt>
      <trkpt lat="48.82212" lon="2.44207">
        <ele>62.799999237061</ele>
        <time>2017-04-24T19:18:22.000Z</time>
      </trkpt>
      <trkpt lat="48.82217" lon="2.44205">
        <ele>62.599998474121</ele>
        <time>2017-04-24T19:18:24.000Z</time>
      </trkpt>
      <trkpt lat="48.82226" lon="2.44207">
        <ele>62.599998474121</ele>
        <time>2017-04-24T19:18:31.000Z</time>
      </trkpt>
      <trkpt lat="48.82238" lon="2.44217">
        <ele>62.400001525879</ele>
        <time>2017-04-24T19:19:42.000Z</time>
      </trkpt>
      <trkpt lat="48.82258" lon="2.4422">
        <ele>62</ele>
        <time>2017-04-24T19:19:49.000Z</time>
      </trkpt>
      <trkpt lat="48.82278" lon="2.44217">
        <ele>61.599998474121</ele>
        <time>2017-04-24T19:19:55.000Z</time>
      </trkpt>
      <trkpt lat="48.82297" lon="2.44211">
        <ele>61.200000762939</ele>
        <time>2017-04-24T19:20:00.000Z</time>
      </trkpt>
      <trkpt lat="48.82317" lon="2.44201">
        <ele>61</ele>
        <time>2017-04-24T19:20:05.000Z</time>
      </trkpt>
      <trkpt lat="48.82337" lon="2.44188">
        <ele>61</ele>
        <time>2017-04-24T19:20:10.000Z</time>
      </trkpt>
      <trkpt lat="48.82358" lon="2.44177">
        <ele>61</ele>
        <time>2017-04-24T19:20:15.000Z</time>
      </trkpt>
      <trkpt lat="48.8238" lon="2.44171">
        <ele>60.400001525879</ele>
        <time>2017-04-24T19:20:20.000Z</time>
      </trkpt>
      <trkpt lat="48.82402" lon="2.44162">
        <ele>60</ele>
        <time>2017-04-24T19:20:25.000Z</time>
      </trkpt>
      <trkpt lat="48.82417" lon="2.44158">
        <ele>59.799999237061</ele>
        <time>2017-04-24T19:20:28.000Z</time>
      </trkpt>
      <trkpt lat="48.82437" lon="2.44155">
        <ele>59</ele>
        <time>2017-04-24T19:20:32.000Z</time>
      </trkpt>
      <trkpt lat="48.82457" lon="2.44153">
        <ele>59</ele>
        <time>2017-04-24T19:20:36.000Z</time>
      </trkpt>
      <trkpt lat="48.82472" lon="2.44149">
        <ele>59</ele>
        <time>2017-04-24T19:20:39.000Z</time>
      </trkpt>
      <trkpt lat="48.82492" lon="2.44143">
        <ele>59</ele>
        <time>2017-04-24T19:20:43.000Z</time>
      </trkpt>
      <trkpt lat="48.82513" lon="2.44134">
        <ele>58.400001525879</ele>
        <time>2017-04-24T19:20:47.000Z</time>
      </trkpt>
      <trkpt lat="48.82535" lon="2.44126">
        <ele>57.799999237061</ele>
        <time>2017-04-24T19:20:51.000Z</time>
      </trkpt>
      <trkpt lat="48.82539" lon="2.44125">
        <ele>57.599998474121</ele>
        <time>2017-04-24T19:20:52.000Z</time>
      </trkpt>
      <trkpt lat="48.82559" lon="2.44117">
        <ele>57</ele>
        <time>2017-04-24T19:20:56.000Z</time>
      </trkpt>
      <trkpt lat="48.82579" lon="2.44109">
        <ele>57</ele>
        <time>2017-04-24T19:21:00.000Z</time>
      </trkpt>
      <trkpt lat="48.82599" lon="2.44101">
        <ele>57</ele>
        <time>2017-04-24T19:21:04.000Z</time>
      </trkpt>
      <trkpt lat="48.82619" lon="2.44093">
        <ele>57.200000762939</ele>
        <time>2017-04-24T19:21:08.000Z</time>
      </trkpt>
      <trkpt lat="48.82639" lon="2.44085">
        <ele>57.400001525879</ele>
        <time>2017-04-24T19:21:12.000Z</time>
      </trkpt>
      <trkpt lat="48.82649" lon="2.44081">
        <ele>57.599998474121</ele>
        <time>2017-04-24T19:21:14.000Z</time>
      </trkpt>
      <trkpt lat="48.82663" lon="2.44075">
        <ele>57.599998474121</ele>
        <time>2017-04-24T19:21:17.000Z</time>
      </trkpt>
      <trkpt lat="48.82682" lon="2.4407">
        <ele>58</ele>
        <time>2017-04-24T19:21:21.000Z</time>
      </trkpt>
      <trkpt lat="48.82703" lon="2.44063">
        <ele>58</ele>
        <time>2017-04-24T19:21:25.000Z</time>
      </trkpt>
      <trkpt lat="48.82723" lon="2.44056">
        <ele>58</ele>
        <time>2017-04-24T19:21:29.000Z</time>
      </trkpt>
      <trkpt lat="48.82743" lon="2.4405">
        <ele>57.599998474121</ele>
        <time>2017-04-24T19:21:33.000Z</time>
      </trkpt>
      <trkpt lat="48.82763" lon="2.44043">
        <ele>56.799999237061</ele>
        <time>2017-04-24T19:21:37.000Z</time>
      </trkpt>
      <trkpt lat="48.82773" lon="2.44038">
        <ele>56.400001525879</ele>
        <time>2017-04-24T19:21:39.000Z</time>
      </trkpt>
      <trkpt lat="48.82791" lon="2.44029">
        <ele>56</ele>
        <time>2017-04-24T19:21:43.000Z</time>
      </trkpt>
      <trkpt lat="48.82808" lon="2.44021">
        <ele>55.799999237061</ele>
        <time>2017-04-24T19:21:47.000Z</time>
      </trkpt>
      <trkpt lat="48.82828" lon="2.44015">
        <ele>55.799999237061</ele>
        <time>2017-04-24T19:21:52.000Z</time>
      </trkpt>
      <trkpt lat="48.82847" lon="2.4401">
        <ele>55.799999237061</ele>
        <time>2017-04-24T19:21:59.000Z</time>
      </trkpt>
      <trkpt lat="48.8285" lon="2.4401">
        <ele>55.799999237061</ele>
        <time>2017-04-24T19:22:00.000Z</time>
      </trkpt>
      <trkpt lat="48.82853" lon="2.44009">
        <ele>55.799999237061</ele>
        <time>2017-04-24T19:22:02.000Z</time>
      </trkpt>
      <trkpt lat="48.82858" lon="2.44008">
        <ele>55.799999237061</ele>
        <time>2017-04-24T19:22:07.000Z</time>
      </trkpt>
      <trkpt lat="48.82859" lon="2.44008">
        <ele>55.799999237061</ele>
        <time>2017-04-24T19:22:08.000Z</time>
      </trkpt>
      <trkpt lat="48.8286" lon="2.44007">
        <ele>55.799999237061</ele>
        <time>2017-04-24T19:22:10.000Z</time>
      </trkpt>
      <trkpt lat="48.82869" lon="2.44004">
        <ele>55.799999237061</ele>
        <time>2017-04-24T19:22:17.000Z</time>
      </trkpt>
      <trkpt lat="48.82887" lon="2.43992">
        <ele>55.799999237061</ele>
        <time>2017-04-24T19:22:23.000Z</time>
      </trkpt>
      <trkpt lat="48.82905" lon="2.43984">
        <ele>55.599998474121</ele>
        <time>2017-04-24T19:22:29.000Z</time>
      </trkpt>
      <trkpt lat="48.82925" lon="2.43977">
        <ele>55.200000762939</ele>
        <time>2017-04-24T19:22:35.000Z</time>
      </trkpt>
      <trkpt lat="48.82946" lon="2.43975">
        <ele>54.200000762939</ele>
        <time>2017-04-24T19:22:41.000Z</time>
      </trkpt>
      <trkpt lat="48.82968" lon="2.43968">
        <ele>53.599998474121</ele>
        <time>2017-04-24T19:22:47.000Z</time>
      </trkpt>
      <trkpt lat="48.82986" lon="2.43961">
        <ele>53</ele>
        <time>2017-04-24T19:22:52.000Z</time>
      </trkpt>
      <trkpt lat="48.83005" lon="2.43959">
        <ele>53.200000762939</ele>
        <time>2017-04-24T19:22:57.000Z</time>
      </trkpt>
      <trkpt lat="48.83027" lon="2.43957">
        <ele>53.599998474121</ele>
        <time>2017-04-24T19:23:02.000Z</time>
      </trkpt>
      <trkpt lat="48.83047" lon="2.4395">
        <ele>53.599998474121</ele>
        <time>2017-04-24T19:23:08.000Z</time>
      </trkpt>
      <trkpt lat="48.83068" lon="2.43942">
        <ele>53</ele>
        <time>2017-04-24T19:23:14.000Z</time>
      </trkpt>
      <trkpt lat="48.83087" lon="2.43934">
        <ele>52.200000762939</ele>
        <time>2017-04-24T19:23:19.000Z</time>
      </trkpt>
      <trkpt lat="48.83105" lon="2.43927">
        <ele>51.200000762939</ele>
        <time>2017-04-24T19:23:24.000Z</time>
      </trkpt>
      <trkpt lat="48.83124" lon="2.43923">
        <ele>51</ele>
        <time>2017-04-24T19:23:29.000Z</time>
      </trkpt>
      <trkpt lat="48.83142" lon="2.43918">
        <ele>51</ele>
        <time>2017-04-24T19:23:34.000Z</time>
      </trkpt>
      <trkpt lat="48.8316" lon="2.43914">
        <ele>51</ele>
        <time>2017-04-24T19:23:39.000Z</time>
      </trkpt>
      <trkpt lat="48.8318" lon="2.43907">
        <ele>51.200000762939</ele>
        <time>2017-04-24T19:23:44.000Z</time>
      </trkpt>
      <trkpt lat="48.832" lon="2.43901">
        <ele>51.200000762939</ele>
        <time>2017-04-24T19:23:49.000Z</time>
      </trkpt>
      <trkpt lat="48.83218" lon="2.43896">
        <ele>50.599998474121</ele>
        <time>2017-04-24T19:23:54.000Z</time>
      </trkpt>
      <trkpt lat="48.83238" lon="2.4389">
        <ele>50.200000762939</ele>
        <time>2017-04-24T19:23:59.000Z</time>
      </trkpt>
      <trkpt lat="48.83258" lon="2.43879">
        <ele>50</ele>
        <time>2017-04-24T19:24:04.000Z</time>
      </trkpt>
      <trkpt lat="48.83277" lon="2.43874">
        <ele>49.799999237061</ele>
        <time>2017-04-24T19:24:09.000Z</time>
      </trkpt>
      <trkpt lat="48.83297" lon="2.43869">
        <ele>49.599998474121</ele>
        <time>2017-04-24T19:24:14.000Z</time>
      </trkpt>
      <trkpt lat="48.83315" lon="2.43863">
        <ele>49.599998474121</ele>
        <time>2017-04-24T19:24:18.000Z</time>
      </trkpt>
      <trkpt lat="48.83335" lon="2.43858">
        <ele>49.200000762939</ele>
        <time>2017-04-24T19:24:23.000Z</time>
      </trkpt>
      <trkpt lat="48.83357" lon="2.4385">
        <ele>49.200000762939</ele>
        <time>2017-04-24T19:24:28.000Z</time>
      </trkpt>
      <trkpt lat="48.83378" lon="2.43842">
        <ele>49.799999237061</ele>
        <time>2017-04-24T19:24:33.000Z</time>
      </trkpt>
      <trkpt lat="48.83395" lon="2.43837">
        <ele>49.799999237061</ele>
        <time>2017-04-24T19:24:37.000Z</time>
      </trkpt>
      <trkpt lat="48.83414" lon="2.43832">
        <ele>50</ele>
        <time>2017-04-24T19:24:42.000Z</time>
      </trkpt>
      <trkpt lat="48.83431" lon="2.43822">
        <ele>50</ele>
        <time>2017-04-24T19:24:46.000Z</time>
      </trkpt>
      <trkpt lat="48.8345" lon="2.4381">
        <ele>49.799999237061</ele>
        <time>2017-04-24T19:24:51.000Z</time>
      </trkpt>
      <trkpt lat="48.83455" lon="2.43808">
        <ele>49.799999237061</ele>
        <time>2017-04-24T19:24:53.000Z</time>
      </trkpt>
      <trkpt lat="48.83463" lon="2.43793">
        <ele>49.799999237061</ele>
        <time>2017-04-24T19:24:56.000Z</time>
      </trkpt>
      <trkpt lat="48.83467" lon="2.43792">
        <ele>49.599998474121</ele>
        <time>2017-04-24T19:24:59.000Z</time>
      </trkpt>
      <trkpt lat="48.83471" lon="2.43789">
        <ele>49.599998474121</ele>
        <time>2017-04-24T19:25:04.000Z</time>
      </trkpt>
      <trkpt lat="48.83477" lon="2.43806">
        <ele>49.599998474121</ele>
        <time>2017-04-24T19:26:03.000Z</time>
      </trkpt>
      <trkpt lat="48.83477" lon="2.43834">
        <ele>49.400001525879</ele>
        <time>2017-04-24T19:26:11.000Z</time>
      </trkpt>
      <trkpt lat="48.83477" lon="2.43867">
        <ele>48.200000762939</ele>
        <time>2017-04-24T19:26:18.000Z</time>
      </trkpt>
      <trkpt lat="48.83477" lon="2.43895">
        <ele>47.599998474121</ele>
        <time>2017-04-24T19:26:23.000Z</time>
      </trkpt>
      <trkpt lat="48.83475" lon="2.43923">
        <ele>47.200000762939</ele>
        <time>2017-04-24T19:26:28.000Z</time>
      </trkpt>
      <trkpt lat="48.83475" lon="2.43951">
        <ele>47.200000762939</ele>
        <time>2017-04-24T19:26:33.000Z</time>
      </trkpt>
      <trkpt lat="48.8347" lon="2.43983">
        <ele>47.599998474121</ele>
        <time>2017-04-24T19:26:39.000Z</time>
      </trkpt>
      <trkpt lat="48.83467" lon="2.44011">
        <ele>48.200000762939</ele>
        <time>2017-04-24T19:26:44.000Z</time>
      </trkpt>
      <trkpt lat="48.83464" lon="2.4404">
        <ele>48.200000762939</ele>
        <time>2017-04-24T19:26:49.000Z</time>
      </trkpt>
      <trkpt lat="48.83459" lon="2.44067">
        <ele>48</ele>
        <time>2017-04-24T19:26:54.000Z</time>
      </trkpt>
      <trkpt lat="48.83456" lon="2.44096">
        <ele>47.799999237061</ele>
        <time>2017-04-24T19:26:59.000Z</time>
      </trkpt>
      <trkpt lat="48.83452" lon="2.44123">
        <ele>47.799999237061</ele>
        <time>2017-04-24T19:27:04.000Z</time>
      </trkpt>
      <trkpt lat="48.8345" lon="2.44151">
        <ele>47.799999237061</ele>
        <time>2017-04-24T19:27:09.000Z</time>
      </trkpt>
      <trkpt lat="48.83447" lon="2.44179">
        <ele>48</ele>
        <time>2017-04-24T19:27:14.000Z</time>
      </trkpt>
      <trkpt lat="48.83446" lon="2.44207">
        <ele>48</ele>
        <time>2017-04-24T19:27:19.000Z</time>
      </trkpt>
      <trkpt lat="48.83442" lon="2.44234">
        <ele>48</ele>
        <time>2017-04-24T19:27:24.000Z</time>
      </trkpt>
      <trkpt lat="48.8344" lon="2.44264">
        <ele>48</ele>
        <time>2017-04-24T19:27:29.000Z</time>
      </trkpt>
      <trkpt lat="48.83439" lon="2.44296">
        <ele>48</ele>
        <time>2017-04-24T19:27:34.000Z</time>
      </trkpt>
      <trkpt lat="48.83437" lon="2.44328">
        <ele>48</ele>
        <time>2017-04-24T19:27:39.000Z</time>
      </trkpt>
      <trkpt lat="48.83433" lon="2.44358">
        <ele>49</ele>
        <time>2017-04-24T19:27:44.000Z</time>
      </trkpt>
      <trkpt lat="48.83431" lon="2.44387">
        <ele>50</ele>
        <time>2017-04-24T19:27:49.000Z</time>
      </trkpt>
      <trkpt lat="48.83428" lon="2.44418">
        <ele>51</ele>
        <time>2017-04-24T19:27:55.000Z</time>
      </trkpt>
      <trkpt lat="48.83422" lon="2.44447">
        <ele>50.599998474121</ele>
        <time>2017-04-24T19:28:01.000Z</time>
      </trkpt>
      <trkpt lat="48.83414" lon="2.44473">
        <ele>50.400001525879</ele>
        <time>2017-04-24T19:28:10.000Z</time>
      </trkpt>
      <trkpt lat="48.83409" lon="2.4448">
        <ele>50.400001525879</ele>
        <time>2017-04-24T19:28:16.000Z</time>
      </trkpt>
      <trkpt lat="48.834" lon="2.44484">
        <ele>50.799999237061</ele>
        <time>2017-04-24T19:29:15.000Z</time>
      </trkpt>
      <trkpt lat="48.83393" lon="2.44511">
        <ele>51.200000762939</ele>
        <time>2017-04-24T19:29:31.000Z</time>
      </trkpt>
      <trkpt lat="48.83389" lon="2.44521">
        <ele>51.400001525879</ele>
        <time>2017-04-24T19:29:35.000Z</time>
      </trkpt>
      <trkpt lat="48.83395" lon="2.4454">
        <ele>51.599998474121</ele>
        <time>2017-04-24T19:30:00.000Z</time>
      </trkpt>
      <trkpt lat="48.83403" lon="2.44566">
        <ele>51.599998474121</ele>
        <time>2017-04-24T19:30:06.000Z</time>
      </trkpt>
      <trkpt lat="48.8341" lon="2.44597">
        <ele>51.799999237061</ele>
        <time>2017-04-24T19:30:12.000Z</time>
      </trkpt>
      <trkpt lat="48.83415" lon="2.44625">
        <ele>51.599998474121</ele>
        <time>2017-04-24T19:30:18.000Z</time>
      </trkpt>
      <trkpt lat="48.8342" lon="2.44656">
        <ele>51.400001525879</ele>
        <time>2017-04-24T19:30:24.000Z</time>
      </trkpt>
      <trkpt lat="48.83423" lon="2.44689">
        <ele>51.400001525879</ele>
        <time>2017-04-24T19:30:30.000Z</time>
      </trkpt>
      <trkpt lat="48.83427" lon="2.44716">
        <ele>51.799999237061</ele>
        <time>2017-04-24T19:30:34.000Z</time>
      </trkpt>
      <trkpt lat="48.83432" lon="2.44748">
        <ele>52</ele>
        <time>2017-04-24T19:30:39.000Z</time>
      </trkpt>
      <trkpt lat="48.83436" lon="2.44779">
        <ele>52</ele>
        <time>2017-04-24T19:30:44.000Z</time>
      </trkpt>
      <trkpt lat="48.8344" lon="2.44811">
        <ele>52</ele>
        <time>2017-04-24T19:30:49.000Z</time>
      </trkpt>
      <trkpt lat="48.83446" lon="2.44841">
        <ele>51.799999237061</ele>
        <time>2017-04-24T19:30:54.000Z</time>
      </trkpt>
      <trkpt lat="48.83453" lon="2.44871">
        <ele>51.599998474121</ele>
        <time>2017-04-24T19:30:59.000Z</time>
      </trkpt>
      <trkpt lat="48.83462" lon="2.44904">
        <ele>51.400001525879</ele>
        <time>2017-04-24T19:31:03.000Z</time>
      </trkpt>
      <trkpt lat="48.83469" lon="2.44934">
        <ele>52</ele>
        <time>2017-04-24T19:31:06.000Z</time>
      </trkpt>
      <trkpt lat="48.83476" lon="2.44966">
        <ele>52.200000762939</ele>
        <time>2017-04-24T19:31:09.000Z</time>
      </trkpt>
      <trkpt lat="48.83484" lon="2.45001">
        <ele>52</ele>
        <time>2017-04-24T19:31:12.000Z</time>
      </trkpt>
      <trkpt lat="48.83492" lon="2.45027">
        <ele>52</ele>
        <time>2017-04-24T19:31:15.000Z</time>
      </trkpt>
      <trkpt lat="48.83501" lon="2.45057">
        <ele>51.799999237061</ele>
        <time>2017-04-24T19:31:18.000Z</time>
      </trkpt>
      <trkpt lat="48.83508" lon="2.45083">
        <ele>51.599998474121</ele>
        <time>2017-04-24T19:31:21.000Z</time>
      </trkpt>
      <trkpt lat="48.8351" lon="2.45093">
        <ele>51.799999237061</ele>
        <time>2017-04-24T19:31:22.000Z</time>
      </trkpt>
      <trkpt lat="48.83517" lon="2.45118">
        <ele>51.799999237061</ele>
        <time>2017-04-24T19:31:25.000Z</time>
      </trkpt>
      <trkpt lat="48.83527" lon="2.45145">
        <ele>52</ele>
        <time>2017-04-24T19:31:29.000Z</time>
      </trkpt>
      <trkpt lat="48.83537" lon="2.45173">
        <ele>52.200000762939</ele>
        <time>2017-04-24T19:31:34.000Z</time>
      </trkpt>
      <trkpt lat="48.83545" lon="2.45198">
        <ele>52.599998474121</ele>
        <time>2017-04-24T19:31:39.000Z</time>
      </trkpt>
      <trkpt lat="48.83553" lon="2.45226">
        <ele>53</ele>
        <time>2017-04-24T19:31:45.000Z</time>
      </trkpt>
      <trkpt lat="48.83559" lon="2.45239">
        <ele>53.400001525879</ele>
        <time>2017-04-24T19:31:48.000Z</time>
      </trkpt>
      <trkpt lat="48.83567" lon="2.45257">
        <ele>53.799999237061</ele>
        <time>2017-04-24T19:31:52.000Z</time>
      </trkpt>
      <trkpt lat="48.83572" lon="2.4527">
        <ele>54.200000762939</ele>
        <time>2017-04-24T19:31:54.000Z</time>
      </trkpt>
      <trkpt lat="48.83583" lon="2.45298">
        <ele>54.799999237061</ele>
        <time>2017-04-24T19:32:02.000Z</time>
      </trkpt>
      <trkpt lat="48.83585" lon="2.45302">
        <ele>55</ele>
        <time>2017-04-24T19:32:05.000Z</time>
      </trkpt>
      <trkpt lat="48.83585" lon="2.45303">
        <ele>55</ele>
        <time>2017-04-24T19:32:06.000Z</time>
      </trkpt>
      <trkpt lat="48.83601" lon="2.45311">
        <ele>55.400001525879</ele>
        <time>2017-04-24T19:32:39.000Z</time>
      </trkpt>
      <trkpt lat="48.83618" lon="2.45301">
        <ele>55</ele>
        <time>2017-04-24T19:32:46.000Z</time>
      </trkpt>
      <trkpt lat="48.83634" lon="2.45287">
        <ele>54.599998474121</ele>
        <time>2017-04-24T19:32:52.000Z</time>
      </trkpt>
      <trkpt lat="48.83652" lon="2.45271">
        <ele>53.599998474121</ele>
        <time>2017-04-24T19:32:57.000Z</time>
      </trkpt>
      <trkpt lat="48.83669" lon="2.45258">
        <ele>52.799999237061</ele>
        <time>2017-04-24T19:33:02.000Z</time>
      </trkpt>
      <trkpt lat="48.83687" lon="2.45244">
        <ele>52</ele>
        <time>2017-04-24T19:33:07.000Z</time>
      </trkpt>
      <trkpt lat="48.83706" lon="2.4523">
        <ele>52</ele>
        <time>2017-04-24T19:33:13.000Z</time>
      </trkpt>
      <trkpt lat="48.83725" lon="2.45216">
        <ele>52</ele>
        <time>2017-04-24T19:33:18.000Z</time>
      </trkpt>
      <trkpt lat="48.83745" lon="2.45205">
        <ele>52.400001525879</ele>
        <time>2017-04-24T19:33:23.000Z</time>
      </trkpt>
      <trkpt lat="48.83764" lon="2.45191">
        <ele>52.799999237061</ele>
        <time>2017-04-24T19:33:28.000Z</time>
      </trkpt>
      <trkpt lat="48.8378" lon="2.45178">
        <ele>53</ele>
        <time>2017-04-24T19:33:32.000Z</time>
      </trkpt>
      <trkpt lat="48.83797" lon="2.45164">
        <ele>53.400001525879</ele>
        <time>2017-04-24T19:33:36.000Z</time>
      </trkpt>
      <trkpt lat="48.83802" lon="2.45162">
        <ele>53.400001525879</ele>
        <time>2017-04-24T19:33:37.000Z</time>
      </trkpt>
      <trkpt lat="48.83822" lon="2.45151">
        <ele>53.599998474121</ele>
        <time>2017-04-24T19:33:42.000Z</time>
      </trkpt>
      <trkpt lat="48.83842" lon="2.4514">
        <ele>53.799999237061</ele>
        <time>2017-04-24T19:33:47.000Z</time>
      </trkpt>
      <trkpt lat="48.83862" lon="2.4513">
        <ele>54</ele>
        <time>2017-04-24T19:33:52.000Z</time>
      </trkpt>
      <trkpt lat="48.8388" lon="2.45121">
        <ele>54</ele>
        <time>2017-04-24T19:33:56.000Z</time>
      </trkpt>
      <trkpt lat="48.83897" lon="2.45111">
        <ele>54</ele>
        <time>2017-04-24T19:34:00.000Z</time>
      </trkpt>
      <trkpt lat="48.83917" lon="2.45097">
        <ele>54</ele>
        <time>2017-04-24T19:34:05.000Z</time>
      </trkpt>
      <trkpt lat="48.83933" lon="2.45084">
        <ele>54</ele>
        <time>2017-04-24T19:34:09.000Z</time>
      </trkpt>
      <trkpt lat="48.8395" lon="2.45074">
        <ele>53.799999237061</ele>
        <time>2017-04-24T19:34:13.000Z</time>
      </trkpt>
      <trkpt lat="48.83955" lon="2.45069">
        <ele>53.799999237061</ele>
        <time>2017-04-24T19:34:14.000Z</time>
      </trkpt>
      <trkpt lat="48.83972" lon="2.45057">
        <ele>53.599998474121</ele>
        <time>2017-04-24T19:34:18.000Z</time>
      </trkpt>
      <trkpt lat="48.83991" lon="2.45045">
        <ele>53.400001525879</ele>
        <time>2017-04-24T19:34:22.000Z</time>
      </trkpt>
      <trkpt lat="48.84012" lon="2.45033">
        <ele>53</ele>
        <time>2017-04-24T19:34:26.000Z</time>
      </trkpt>
      <trkpt lat="48.84017" lon="2.4503">
        <ele>52.799999237061</ele>
        <time>2017-04-24T19:34:27.000Z</time>
      </trkpt>
      <trkpt lat="48.84038" lon="2.45018">
        <ele>52.400001525879</ele>
        <time>2017-04-24T19:34:31.000Z</time>
      </trkpt>
      <trkpt lat="48.84058" lon="2.45006">
        <ele>52.599998474121</ele>
        <time>2017-04-24T19:34:35.000Z</time>
      </trkpt>
      <trkpt lat="48.84077" lon="2.44992">
        <ele>52.599998474121</ele>
        <time>2017-04-24T19:34:39.000Z</time>
      </trkpt>
      <trkpt lat="48.84082" lon="2.44989">
        <ele>52.599998474121</ele>
        <time>2017-04-24T19:34:40.000Z</time>
      </trkpt>
      <trkpt lat="48.841" lon="2.44978">
        <ele>52.400001525879</ele>
        <time>2017-04-24T19:34:44.000Z</time>
      </trkpt>
      <trkpt lat="48.84117" lon="2.44968">
        <ele>52.599998474121</ele>
        <time>2017-04-24T19:34:48.000Z</time>
      </trkpt>
      <trkpt lat="48.84135" lon="2.44957">
        <ele>52.599998474121</ele>
        <time>2017-04-24T19:34:53.000Z</time>
      </trkpt>
      <trkpt lat="48.84145" lon="2.44951">
        <ele>52.799999237061</ele>
        <time>2017-04-24T19:34:56.000Z</time>
      </trkpt>
      <trkpt lat="48.84158" lon="2.4494">
        <ele>52.400001525879</ele>
        <time>2017-04-24T19:35:01.000Z</time>
      </trkpt>
      <trkpt lat="48.84165" lon="2.44935">
        <ele>52.400001525879</ele>
        <time>2017-04-24T19:35:05.000Z</time>
      </trkpt>
      <trkpt lat="48.84171" lon="2.44933">
        <ele>52.400001525879</ele>
        <time>2017-04-24T19:35:10.000Z</time>
      </trkpt>
      <trkpt lat="48.84173" lon="2.4493">
        <ele>52.400001525879</ele>
        <time>2017-04-24T19:35:12.000Z</time>
      </trkpt>
      <trkpt lat="48.84177" lon="2.44926">
        <ele>52.200000762939</ele>
        <time>2017-04-24T19:35:18.000Z</time>
      </trkpt>
      <trkpt lat="48.8419" lon="2.44915">
        <ele>52</ele>
        <time>2017-04-24T19:35:54.000Z</time>
      </trkpt>
      <trkpt lat="48.84209" lon="2.44908">
        <ele>52</ele>
        <time>2017-04-24T19:36:02.000Z</time>
      </trkpt>
      <trkpt lat="48.84221" lon="2.44912">
        <ele>52.200000762939</ele>
        <time>2017-04-24T19:36:07.000Z</time>
      </trkpt>
      <trkpt lat="48.84235" lon="2.44932">
        <ele>52.599998474121</ele>
        <time>2017-04-24T19:36:14.000Z</time>
      </trkpt>
      <trkpt lat="48.8425" lon="2.44949">
        <ele>52.799999237061</ele>
        <time>2017-04-24T19:36:20.000Z</time>
      </trkpt>
      <trkpt lat="48.84265" lon="2.44964">
        <ele>53</ele>
        <time>2017-04-24T19:36:26.000Z</time>
      </trkpt>
      <trkpt lat="48.84281" lon="2.44978">
        <ele>53</ele>
        <time>2017-04-24T19:36:31.000Z</time>
      </trkpt>
      <trkpt lat="48.84297" lon="2.44991">
        <ele>53</ele>
        <time>2017-04-24T19:36:36.000Z</time>
      </trkpt>
      <trkpt lat="48.84315" lon="2.44999">
        <ele>53</ele>
        <time>2017-04-24T19:36:41.000Z</time>
      </trkpt>
      <trkpt lat="48.84334" lon="2.4501">
        <ele>53.200000762939</ele>
        <time>2017-04-24T19:36:46.000Z</time>
      </trkpt>
      <trkpt lat="48.84353" lon="2.45018">
        <ele>53.200000762939</ele>
        <time>2017-04-24T19:36:51.000Z</time>
      </trkpt>
      <trkpt lat="48.84373" lon="2.45026">
        <ele>53.400001525879</ele>
        <time>2017-04-24T19:36:56.000Z</time>
      </trkpt>
      <trkpt lat="48.84392" lon="2.45035">
        <ele>53.400001525879</ele>
        <time>2017-04-24T19:37:01.000Z</time>
      </trkpt>
      <trkpt lat="48.84413" lon="2.45041">
        <ele>53.599998474121</ele>
        <time>2017-04-24T19:37:07.000Z</time>
      </trkpt>
      <trkpt lat="48.84433" lon="2.45053">
        <ele>53.599998474121</ele>
        <time>2017-04-24T19:37:14.000Z</time>
      </trkpt>
      <trkpt lat="48.84451" lon="2.45069">
        <ele>54.200000762939</ele>
        <time>2017-04-24T19:37:20.000Z</time>
      </trkpt>
      <trkpt lat="48.84468" lon="2.45083">
        <ele>55</ele>
        <time>2017-04-24T19:37:25.000Z</time>
      </trkpt>
      <trkpt lat="48.84486" lon="2.45094">
        <ele>55.599998474121</ele>
        <time>2017-04-24T19:37:30.000Z</time>
      </trkpt>
      <trkpt lat="48.84506" lon="2.45103">
        <ele>56.400001525879</ele>
        <time>2017-04-24T19:37:36.000Z</time>
      </trkpt>
      <trkpt lat="48.84524" lon="2.45107">
        <ele>57</ele>
        <time>2017-04-24T19:37:42.000Z</time>
      </trkpt>
      <trkpt lat="48.84529" lon="2.45106">
        <ele>56.599998474121</ele>
        <time>2017-04-24T19:37:46.000Z</time>
      </trkpt>
      <trkpt lat="48.84533" lon="2.45077">
        <ele>56.599998474121</ele>
        <time>2017-04-24T19:37:55.000Z</time>
      </trkpt>
      <trkpt lat="48.84536" lon="2.4505">
        <ele>56.400001525879</ele>
        <time>2017-04-24T19:38:01.000Z</time>
      </trkpt>
      <trkpt lat="48.8454" lon="2.45018">
        <ele>56.400001525879</ele>
        <time>2017-04-24T19:38:08.000Z</time>
      </trkpt>
      <trkpt lat="48.84546" lon="2.4499">
        <ele>56</ele>
        <time>2017-04-24T19:38:14.000Z</time>
      </trkpt>
      <trkpt lat="48.84553" lon="2.44959">
        <ele>55.400001525879</ele>
        <time>2017-04-24T19:38:20.000Z</time>
      </trkpt>
      <trkpt lat="48.84557" lon="2.44929">
        <ele>54.799999237061</ele>
        <time>2017-04-24T19:38:26.000Z</time>
      </trkpt>
      <trkpt lat="48.84562" lon="2.44897">
        <ele>54.200000762939</ele>
        <time>2017-04-24T19:38:31.000Z</time>
      </trkpt>
      <trkpt lat="48.84567" lon="2.4487">
        <ele>53.599998474121</ele>
        <time>2017-04-24T19:38:36.000Z</time>
      </trkpt>
      <trkpt lat="48.84571" lon="2.44838">
        <ele>54</ele>
        <time>2017-04-24T19:38:42.000Z</time>
      </trkpt>
      <trkpt lat="48.84572" lon="2.44809">
        <ele>53.799999237061</ele>
        <time>2017-04-24T19:38:47.000Z</time>
      </trkpt>
      <trkpt lat="48.84574" lon="2.44781">
        <ele>53.599998474121</ele>
        <time>2017-04-24T19:38:52.000Z</time>
      </trkpt>
      <trkpt lat="48.84576" lon="2.44751">
        <ele>53.599998474121</ele>
        <time>2017-04-24T19:38:57.000Z</time>
      </trkpt>
      <trkpt lat="48.84578" lon="2.44723">
        <ele>54</ele>
        <time>2017-04-24T19:39:02.000Z</time>
      </trkpt>
      <trkpt lat="48.84579" lon="2.44692">
        <ele>53.200000762939</ele>
        <time>2017-04-24T19:39:08.000Z</time>
      </trkpt>
      <trkpt lat="48.84588" lon="2.4467">
        <ele>52.599998474121</ele>
        <time>2017-04-24T19:39:15.000Z</time>
      </trkpt>
      <trkpt lat="48.8459" lon="2.44671">
        <ele>52.400001525879</ele>
        <time>2017-04-24T19:39:16.000Z</time>
      </trkpt>
      <trkpt lat="48.84611" lon="2.44673">
        <ele>52.400001525879</ele>
        <time>2017-04-24T19:39:24.000Z</time>
      </trkpt>
      <trkpt lat="48.8463" lon="2.44673">
        <ele>52.599998474121</ele>
        <time>2017-04-24T19:39:31.000Z</time>
      </trkpt>
      <trkpt lat="48.84648" lon="2.4467">
        <ele>52.799999237061</ele>
        <time>2017-04-24T19:39:38.000Z</time>
      </trkpt>
      <trkpt lat="48.84655" lon="2.44666">
        <ele>52.599998474121</ele>
        <time>2017-04-24T19:39:41.000Z</time>
      </trkpt>
      <trkpt lat="48.8466" lon="2.44636">
        <ele>53.400001525879</ele>
        <time>2017-04-24T19:39:49.000Z</time>
      </trkpt>
      <trkpt lat="48.84664" lon="2.44607">
        <ele>53.400001525879</ele>
        <time>2017-04-24T19:39:55.000Z</time>
      </trkpt>
      <trkpt lat="48.84668" lon="2.44574">
        <ele>53.599998474121</ele>
        <time>2017-04-24T19:40:01.000Z</time>
      </trkpt>
      <trkpt lat="48.8467" lon="2.44547">
        <ele>54</ele>
        <time>2017-04-24T19:40:06.000Z</time>
      </trkpt>
      <trkpt lat="48.84671" lon="2.44518">
        <ele>53.799999237061</ele>
        <time>2017-04-24T19:40:11.000Z</time>
      </trkpt>
      <trkpt lat="48.84673" lon="2.44487">
        <ele>53.400001525879</ele>
        <time>2017-04-24T19:40:16.000Z</time>
      </trkpt>
      <trkpt lat="48.84676" lon="2.44456">
        <ele>53.400001525879</ele>
        <time>2017-04-24T19:40:21.000Z</time>
      </trkpt>
      <trkpt lat="48.84676" lon="2.44424">
        <ele>53.400001525879</ele>
        <time>2017-04-24T19:40:26.000Z</time>
      </trkpt>
      <trkpt lat="48.84677" lon="2.44396">
        <ele>53.200000762939</ele>
        <time>2017-04-24T19:40:30.000Z</time>
      </trkpt>
      <trkpt lat="48.84679" lon="2.44369">
        <ele>53.599998474121</ele>
        <time>2017-04-24T19:40:34.000Z</time>
      </trkpt>
      <trkpt lat="48.8468" lon="2.44341">
        <ele>53.799999237061</ele>
        <time>2017-04-24T19:40:38.000Z</time>
      </trkpt>
      <trkpt lat="48.84681" lon="2.44311">
        <ele>54.200000762939</ele>
        <time>2017-04-24T19:40:43.000Z</time>
      </trkpt>
      <trkpt lat="48.84681" lon="2.44283">
        <ele>54</ele>
        <time>2017-04-24T19:40:48.000Z</time>
      </trkpt>
      <trkpt lat="48.84682" lon="2.44249">
        <ele>54</ele>
        <time>2017-04-24T19:40:53.000Z</time>
      </trkpt>
      <trkpt lat="48.84684" lon="2.44222">
        <ele>53.799999237061</ele>
        <time>2017-04-24T19:40:57.000Z</time>
      </trkpt>
      <trkpt lat="48.84685" lon="2.4419">
        <ele>53.400001525879</ele>
        <time>2017-04-24T19:41:02.000Z</time>
      </trkpt>
      <trkpt lat="48.84686" lon="2.4416">
        <ele>53</ele>
        <time>2017-04-24T19:41:07.000Z</time>
      </trkpt>
      <trkpt lat="48.8469" lon="2.44129">
        <ele>52.599998474121</ele>
        <time>2017-04-24T19:41:12.000Z</time>
      </trkpt>
      <trkpt lat="48.84691" lon="2.44097">
        <ele>52.200000762939</ele>
        <time>2017-04-24T19:41:17.000Z</time>
      </trkpt>
      <trkpt lat="48.84691" lon="2.44085">
        <ele>52</ele>
        <time>2017-04-24T19:41:19.000Z</time>
      </trkpt>
      <trkpt lat="48.84691" lon="2.44063">
        <ele>52</ele>
        <time>2017-04-24T19:41:23.000Z</time>
      </trkpt>
      <trkpt lat="48.84696" lon="2.44037">
        <ele>52.200000762939</ele>
        <time>2017-04-24T19:41:26.000Z</time>
      </trkpt>
      <trkpt lat="48.84696" lon="2.44024">
        <ele>52.200000762939</ele>
        <time>2017-04-24T19:41:30.000Z</time>
      </trkpt>
      <trkpt lat="48.84697" lon="2.44">
        <ele>52.200000762939</ele>
        <time>2017-04-24T19:42:14.000Z</time>
      </trkpt>
      <trkpt lat="48.84702" lon="2.43972">
        <ele>53</ele>
        <time>2017-04-24T19:42:24.000Z</time>
      </trkpt>
      <trkpt lat="48.84704" lon="2.43956">
        <ele>53.400001525879</ele>
        <time>2017-04-24T19:42:30.000Z</time>
      </trkpt>
      <trkpt lat="48.84705" lon="2.43942">
        <ele>53.799999237061</ele>
        <time>2017-04-24T19:42:34.000Z</time>
      </trkpt>
      <trkpt lat="48.84711" lon="2.43916">
        <ele>54.799999237061</ele>
        <time>2017-04-24T19:42:43.000Z</time>
      </trkpt>
      <trkpt lat="48.84712" lon="2.43897">
        <ele>55.599998474121</ele>
        <time>2017-04-24T19:42:49.000Z</time>
      </trkpt>
      <trkpt lat="48.84714" lon="2.43867">
        <ele>56.599998474121</ele>
        <time>2017-04-24T19:42:57.000Z</time>
      </trkpt>
      <trkpt lat="48.84714" lon="2.43845">
        <ele>57</ele>
        <time>2017-04-24T19:43:07.000Z</time>
      </trkpt>
      <trkpt lat="48.84722" lon="2.43836">
        <ele>57</ele>
        <time>2017-04-24T19:43:12.000Z</time>
      </trkpt>
      <trkpt lat="48.84724" lon="2.43823">
        <ele>57</ele>
        <time>2017-04-24T19:43:16.000Z</time>
      </trkpt>
      <trkpt lat="48.84722" lon="2.43796">
        <ele>57</ele>
        <time>2017-04-24T19:43:22.000Z</time>
      </trkpt>
      <trkpt lat="48.84719" lon="2.43766">
        <ele>57.200000762939</ele>
        <time>2017-04-24T19:43:26.000Z</time>
      </trkpt>
      <trkpt lat="48.84714" lon="2.43736">
        <ele>57</ele>
        <time>2017-04-24T19:43:31.000Z</time>
      </trkpt>
      <trkpt lat="48.84717" lon="2.43708">
        <ele>56.400001525879</ele>
        <time>2017-04-24T19:43:36.000Z</time>
      </trkpt>
      <trkpt lat="48.8472" lon="2.43705">
        <ele>56.400001525879</ele>
        <time>2017-04-24T19:43:38.000Z</time>
      </trkpt>
      <trkpt lat="48.84715" lon="2.43675">
        <ele>55.599998474121</ele>
        <time>2017-04-24T19:43:55.000Z</time>
      </trkpt>
      <trkpt lat="48.84716" lon="2.43644">
        <ele>55.400001525879</ele>
        <time>2017-04-24T19:44:02.000Z</time>
      </trkpt>
      <trkpt lat="48.84718" lon="2.43614">
        <ele>55.400001525879</ele>
        <time>2017-04-24T19:44:08.000Z</time>
      </trkpt>
      <trkpt lat="48.84721" lon="2.43587">
        <ele>56</ele>
        <time>2017-04-24T19:44:13.000Z</time>
      </trkpt>
      <trkpt lat="48.8472" lon="2.43556">
        <ele>57.400001525879</ele>
        <time>2017-04-24T19:44:19.000Z</time>
      </trkpt>
      <trkpt lat="48.84722" lon="2.43525">
        <ele>58.599998474121</ele>
        <time>2017-04-24T19:44:25.000Z</time>
      </trkpt>
      <trkpt lat="48.84723" lon="2.43494">
        <ele>58.599998474121</ele>
        <time>2017-04-24T19:44:32.000Z</time>
      </trkpt>
      <trkpt lat="48.84723" lon="2.43486">
        <ele>58.599998474121</ele>
        <time>2017-04-24T19:44:34.000Z</time>
      </trkpt>
      <trkpt lat="48.84721" lon="2.43459">
        <ele>58.599998474121</ele>
        <time>2017-04-24T19:44:43.000Z</time>
      </trkpt>
      <trkpt lat="48.84725" lon="2.43439">
        <ele>58.799999237061</ele>
        <time>2017-04-24T19:44:48.000Z</time>
      </trkpt>
      <trkpt lat="48.8473" lon="2.43411">
        <ele>59</ele>
        <time>2017-04-24T19:44:55.000Z</time>
      </trkpt>
      <trkpt lat="48.84735" lon="2.43382">
        <ele>58.599998474121</ele>
        <time>2017-04-24T19:45:02.000Z</time>
      </trkpt>
      <trkpt lat="48.84742" lon="2.43352">
        <ele>58.200000762939</ele>
        <time>2017-04-24T19:45:10.000Z</time>
      </trkpt>
      <trkpt lat="48.84743" lon="2.43323">
        <ele>57.599998474121</ele>
        <time>2017-04-24T19:45:16.000Z</time>
      </trkpt>
      <trkpt lat="48.84743" lon="2.43294">
        <ele>56.599998474121</ele>
        <time>2017-04-24T19:45:22.000Z</time>
      </trkpt>
      <trkpt lat="48.84744" lon="2.43262">
        <ele>55.400001525879</ele>
        <time>2017-04-24T19:45:28.000Z</time>
      </trkpt>
      <trkpt lat="48.84744" lon="2.43232">
        <ele>54.599998474121</ele>
        <time>2017-04-24T19:45:33.000Z</time>
      </trkpt>
      <trkpt lat="48.84744" lon="2.432">
        <ele>54</ele>
        <time>2017-04-24T19:45:38.000Z</time>
      </trkpt>
      <trkpt lat="48.84746" lon="2.43168">
        <ele>53.799999237061</ele>
        <time>2017-04-24T19:45:43.000Z</time>
      </trkpt>
      <trkpt lat="48.84747" lon="2.43135">
        <ele>54</ele>
        <time>2017-04-24T19:45:48.000Z</time>
      </trkpt>
      <trkpt lat="48.8475" lon="2.43104">
        <ele>53.599998474121</ele>
        <time>2017-04-24T19:45:54.000Z</time>
      </trkpt>
      <trkpt lat="48.84748" lon="2.43075">
        <ele>53.400001525879</ele>
        <time>2017-04-24T19:45:59.000Z</time>
      </trkpt>
      <trkpt lat="48.84747" lon="2.43041">
        <ele>53.799999237061</ele>
        <time>2017-04-24T19:46:04.000Z</time>
      </trkpt>
      <trkpt lat="48.84745" lon="2.43007">
        <ele>54.200000762939</ele>
        <time>2017-04-24T19:46:09.000Z</time>
      </trkpt>
      <trkpt lat="48.84743" lon="2.42978">
        <ele>53.799999237061</ele>
        <time>2017-04-24T19:46:13.000Z</time>
      </trkpt>
      <trkpt lat="48.84742" lon="2.42949">
        <ele>53.400001525879</ele>
        <time>2017-04-24T19:46:17.000Z</time>
      </trkpt>
      <trkpt lat="48.8474" lon="2.42916">
        <ele>53</ele>
        <time>2017-04-24T19:46:21.000Z</time>
      </trkpt>
      <trkpt lat="48.84733" lon="2.42885">
        <ele>52.599998474121</ele>
        <time>2017-04-24T19:46:26.000Z</time>
      </trkpt>
      <trkpt lat="48.84732" lon="2.42879">
        <ele>52.599998474121</ele>
        <time>2017-04-24T19:46:27.000Z</time>
      </trkpt>
      <trkpt lat="48.84728" lon="2.42854">
        <ele>52</ele>
        <time>2017-04-24T19:46:31.000Z</time>
      </trkpt>
      <trkpt lat="48.84723" lon="2.42823">
        <ele>51.599998474121</ele>
        <time>2017-04-24T19:46:36.000Z</time>
      </trkpt>
      <trkpt lat="48.84722" lon="2.42803">
        <ele>51.599998474121</ele>
        <time>2017-04-24T19:46:39.000Z</time>
      </trkpt>
      <trkpt lat="48.84719" lon="2.42772">
        <ele>51.799999237061</ele>
        <time>2017-04-24T19:46:44.000Z</time>
      </trkpt>
      <trkpt lat="48.84715" lon="2.42745">
        <ele>52.400001525879</ele>
        <time>2017-04-24T19:46:48.000Z</time>
      </trkpt>
      <trkpt lat="48.84711" lon="2.42716">
        <ele>52.599998474121</ele>
        <time>2017-04-24T19:46:52.000Z</time>
      </trkpt>
      <trkpt lat="48.84706" lon="2.42688">
        <ele>53</ele>
        <time>2017-04-24T19:46:56.000Z</time>
      </trkpt>
      <trkpt lat="48.84702" lon="2.42669">
        <ele>53.200000762939</ele>
        <time>2017-04-24T19:46:59.000Z</time>
      </trkpt>
      <trkpt lat="48.84693" lon="2.42641">
        <ele>53</ele>
        <time>2017-04-24T19:47:05.000Z</time>
      </trkpt>
      <trkpt lat="48.84685" lon="2.42608">
        <ele>53</ele>
        <time>2017-04-24T19:47:10.000Z</time>
      </trkpt>
      <trkpt lat="48.84681" lon="2.42589">
        <ele>53</ele>
        <time>2017-04-24T19:47:13.000Z</time>
      </trkpt>
      <trkpt lat="48.84673" lon="2.42559">
        <ele>53</ele>
        <time>2017-04-24T19:47:18.000Z</time>
      </trkpt>
      <trkpt lat="48.84663" lon="2.42531">
        <ele>52.799999237061</ele>
        <time>2017-04-24T19:47:23.000Z</time>
      </trkpt>
      <trkpt lat="48.84653" lon="2.42501">
        <ele>52.400001525879</ele>
        <time>2017-04-24T19:47:28.000Z</time>
      </trkpt>
      <trkpt lat="48.84642" lon="2.42474">
        <ele>52.599998474121</ele>
        <time>2017-04-24T19:47:33.000Z</time>
      </trkpt>
      <trkpt lat="48.8463" lon="2.4245">
        <ele>52.799999237061</ele>
        <time>2017-04-24T19:47:38.000Z</time>
      </trkpt>
      <trkpt lat="48.84628" lon="2.42444">
        <ele>52.799999237061</ele>
        <time>2017-04-24T19:47:39.000Z</time>
      </trkpt>
      <trkpt lat="48.84622" lon="2.42429">
        <ele>52.799999237061</ele>
        <time>2017-04-24T19:47:42.000Z</time>
      </trkpt>
      <trkpt lat="48.84607" lon="2.42412">
        <ele>53</ele>
        <time>2017-04-24T19:47:48.000Z</time>
      </trkpt>
      <trkpt lat="48.84605" lon="2.42409">
        <ele>53.200000762939</ele>
        <time>2017-04-24T19:47:50.000Z</time>
      </trkpt>
      <trkpt lat="48.846" lon="2.42386">
        <ele>53.599998474121</ele>
        <time>2017-04-24T19:48:19.000Z</time>
      </trkpt>
      <trkpt lat="48.84596" lon="2.42357">
        <ele>54.200000762939</ele>
        <time>2017-04-24T19:48:31.000Z</time>
      </trkpt>
      <trkpt lat="48.84598" lon="2.42329">
        <ele>54.200000762939</ele>
        <time>2017-04-24T19:48:37.000Z</time>
      </trkpt>
      <trkpt lat="48.846" lon="2.42301">
        <ele>54.200000762939</ele>
        <time>2017-04-24T19:48:42.000Z</time>
      </trkpt>
      <trkpt lat="48.84603" lon="2.42271">
        <ele>54</ele>
        <time>2017-04-24T19:48:48.000Z</time>
      </trkpt>
      <trkpt lat="48.84603" lon="2.42242">
        <ele>54.200000762939</ele>
        <time>2017-04-24T19:48:54.000Z</time>
      </trkpt>
      <trkpt lat="48.84606" lon="2.42214">
        <ele>55.200000762939</ele>
        <time>2017-04-24T19:48:59.000Z</time>
      </trkpt>
      <trkpt lat="48.84612" lon="2.42186">
        <ele>56.400001525879</ele>
        <time>2017-04-24T19:49:04.000Z</time>
      </trkpt>
      <trkpt lat="48.84616" lon="2.42158">
        <ele>57.400001525879</ele>
        <time>2017-04-24T19:49:09.000Z</time>
      </trkpt>
      <trkpt lat="48.84618" lon="2.42127">
        <ele>58.599998474121</ele>
        <time>2017-04-24T19:49:14.000Z</time>
      </trkpt>
      <trkpt lat="48.84618" lon="2.42095">
        <ele>59.599998474121</ele>
        <time>2017-04-24T19:49:19.000Z</time>
      </trkpt>
      <trkpt lat="48.8462" lon="2.42067">
        <ele>59.799999237061</ele>
        <time>2017-04-24T19:49:24.000Z</time>
      </trkpt>
      <trkpt lat="48.84623" lon="2.42036">
        <ele>60.200000762939</ele>
        <time>2017-04-24T19:49:30.000Z</time>
      </trkpt>
      <trkpt lat="48.84626" lon="2.42008">
        <ele>60.200000762939</ele>
        <time>2017-04-24T19:49:36.000Z</time>
      </trkpt>
      <trkpt lat="48.8463" lon="2.41976">
        <ele>59.799999237061</ele>
        <time>2017-04-24T19:49:42.000Z</time>
      </trkpt>
      <trkpt lat="48.84634" lon="2.41949">
        <ele>59.400001525879</ele>
        <time>2017-04-24T19:49:46.000Z</time>
      </trkpt>
      <trkpt lat="48.84638" lon="2.41917">
        <ele>59.200000762939</ele>
        <time>2017-04-24T19:49:51.000Z</time>
      </trkpt>
      <trkpt lat="48.84641" lon="2.41886">
        <ele>58.799999237061</ele>
        <time>2017-04-24T19:49:56.000Z</time>
      </trkpt>
      <trkpt lat="48.84645" lon="2.41859">
        <ele>58.599998474121</ele>
        <time>2017-04-24T19:50:01.000Z</time>
      </trkpt>
      <trkpt lat="48.84647" lon="2.41841">
        <ele>58.599998474121</ele>
        <time>2017-04-24T19:50:08.000Z</time>
      </trkpt>
      <trkpt lat="48.84659" lon="2.41842">
        <ele>58.400001525879</ele>
        <time>2017-04-24T19:50:14.000Z</time>
      </trkpt>
      <trkpt lat="48.84679" lon="2.41848">
        <ele>58.200000762939</ele>
        <time>2017-04-24T19:50:20.000Z</time>
      </trkpt>
      <trkpt lat="48.84697" lon="2.41854">
        <ele>58</ele>
        <time>2017-04-24T19:50:25.000Z</time>
      </trkpt>
      <trkpt lat="48.84717" lon="2.41859">
        <ele>58.400001525879</ele>
        <time>2017-04-24T19:50:30.000Z</time>
      </trkpt>
      <trkpt lat="48.84735" lon="2.41857">
        <ele>58.799999237061</ele>
        <time>2017-04-24T19:50:36.000Z</time>
      </trkpt>
      <trkpt lat="48.84741" lon="2.41862">
        <ele>58.799999237061</ele>
        <time>2017-04-24T19:50:40.000Z</time>
      </trkpt>
      <trkpt lat="48.84762" lon="2.41867">
        <ele>59.400001525879</ele>
        <time>2017-04-24T19:51:20.000Z</time>
      </trkpt>
      <trkpt lat="48.8478" lon="2.41868">
        <ele>59.599998474121</ele>
        <time>2017-04-24T19:51:24.000Z</time>
      </trkpt>
      <trkpt lat="48.84802" lon="2.41875">
        <ele>59.400001525879</ele>
        <time>2017-04-24T19:51:28.000Z</time>
      </trkpt>
      <trkpt lat="48.84823" lon="2.41879">
        <ele>59.400001525879</ele>
        <time>2017-04-24T19:51:32.000Z</time>
      </trkpt>
      <trkpt lat="48.84838" lon="2.41883">
        <ele>58.799999237061</ele>
        <time>2017-04-24T19:51:35.000Z</time>
      </trkpt>
      <trkpt lat="48.84858" lon="2.41885">
        <ele>58.200000762939</ele>
        <time>2017-04-24T19:51:39.000Z</time>
      </trkpt>
      <trkpt lat="48.84863" lon="2.41886">
        <ele>58.200000762939</ele>
        <time>2017-04-24T19:51:40.000Z</time>
      </trkpt>
      <trkpt lat="48.84877" lon="2.41888">
        <ele>57.799999237061</ele>
        <time>2017-04-24T19:51:43.000Z</time>
      </trkpt>
      <trkpt lat="48.84899" lon="2.41884">
        <ele>57.200000762939</ele>
        <time>2017-04-24T19:51:48.000Z</time>
      </trkpt>
      <trkpt lat="48.84909" lon="2.41886">
        <ele>57</ele>
        <time>2017-04-24T19:51:50.000Z</time>
      </trkpt>
      <trkpt lat="48.84927" lon="2.41893">
        <ele>56.799999237061</ele>
        <time>2017-04-24T19:51:53.000Z</time>
      </trkpt>
      <trkpt lat="48.84933" lon="2.41869">
        <ele>56</ele>
        <time>2017-04-24T19:51:58.000Z</time>
      </trkpt>
      <trkpt lat="48.84933" lon="2.41863">
        <ele>56</ele>
        <time>2017-04-24T19:51:59.000Z</time>
      </trkpt>
      <trkpt lat="48.84931" lon="2.41833">
        <ele>55.200000762939</ele>
        <time>2017-04-24T19:52:04.000Z</time>
      </trkpt>
      <trkpt lat="48.84931" lon="2.41803">
        <ele>54.599998474121</ele>
        <time>2017-04-24T19:52:09.000Z</time>
      </trkpt>
      <trkpt lat="48.84931" lon="2.4179">
        <ele>54.599998474121</ele>
        <time>2017-04-24T19:52:11.000Z</time>
      </trkpt>
      <trkpt lat="48.84942" lon="2.41765">
        <ele>54.200000762939</ele>
        <time>2017-04-24T19:52:16.000Z</time>
      </trkpt>
      <trkpt lat="48.84959" lon="2.41746">
        <ele>53</ele>
        <time>2017-04-24T19:52:21.000Z</time>
      </trkpt>
      <trkpt lat="48.84962" lon="2.41743">
        <ele>52.799999237061</ele>
        <time>2017-04-24T19:52:22.000Z</time>
      </trkpt>
      <trkpt lat="48.84974" lon="2.41736">
        <ele>52</ele>
        <time>2017-04-24T19:52:26.000Z</time>
      </trkpt>
      <trkpt lat="48.84988" lon="2.41717">
        <ele>50.799999237061</ele>
        <time>2017-04-24T19:52:31.000Z</time>
      </trkpt>
      <trkpt lat="48.85006" lon="2.41702">
        <ele>50.400001525879</ele>
        <time>2017-04-24T19:52:37.000Z</time>
      </trkpt>
      <trkpt lat="48.85021" lon="2.41684">
        <ele>50</ele>
        <time>2017-04-24T19:52:43.000Z</time>
      </trkpt>
      <trkpt lat="48.85038" lon="2.41671">
        <ele>50.599998474121</ele>
        <time>2017-04-24T19:52:51.000Z</time>
      </trkpt>
      <trkpt lat="48.85043" lon="2.41669">
        <ele>50.799999237061</ele>
        <time>2017-04-24T19:52:55.000Z</time>
      </trkpt>
      <trkpt lat="48.8506" lon="2.41658">
        <ele>51.400001525879</ele>
        <time>2017-04-24T19:53:05.000Z</time>
      </trkpt>
      <trkpt lat="48.85074" lon="2.41635">
        <ele>51.799999237061</ele>
        <time>2017-04-24T19:53:09.000Z</time>
      </trkpt>
      <trkpt lat="48.85091" lon="2.41612">
        <ele>52</ele>
        <time>2017-04-24T19:53:14.000Z</time>
      </trkpt>
      <trkpt lat="48.85105" lon="2.41593">
        <ele>52</ele>
        <time>2017-04-24T19:53:19.000Z</time>
      </trkpt>
      <trkpt lat="48.85119" lon="2.41573">
        <ele>52.599998474121</ele>
        <time>2017-04-24T19:53:25.000Z</time>
      </trkpt>
      <trkpt lat="48.85136" lon="2.41566">
        <ele>53.599998474121</ele>
        <time>2017-04-24T19:53:30.000Z</time>
      </trkpt>
      <trkpt lat="48.85154" lon="2.41561">
        <ele>54.599998474121</ele>
        <time>2017-04-24T19:53:36.000Z</time>
      </trkpt>
      <trkpt lat="48.85175" lon="2.41557">
        <ele>55.400001525879</ele>
        <time>2017-04-24T19:53:42.000Z</time>
      </trkpt>
      <trkpt lat="48.85195" lon="2.41556">
        <ele>55.799999237061</ele>
        <time>2017-04-24T19:53:47.000Z</time>
      </trkpt>
      <trkpt lat="48.85215" lon="2.41559">
        <ele>56.599998474121</ele>
        <time>2017-04-24T19:53:52.000Z</time>
      </trkpt>
      <trkpt lat="48.85234" lon="2.41562">
        <ele>57.200000762939</ele>
        <time>2017-04-24T19:53:56.000Z</time>
      </trkpt>
      <trkpt lat="48.85254" lon="2.41557">
        <ele>57</ele>
        <time>2017-04-24T19:54:01.000Z</time>
      </trkpt>
      <trkpt lat="48.85275" lon="2.41556">
        <ele>56.599998474121</ele>
        <time>2017-04-24T19:54:06.000Z</time>
      </trkpt>
      <trkpt lat="48.85295" lon="2.41553">
        <ele>57</ele>
        <time>2017-04-24T19:54:11.000Z</time>
      </trkpt>
      <trkpt lat="48.85307" lon="2.41554">
        <ele>57.599998474121</ele>
        <time>2017-04-24T19:54:14.000Z</time>
      </trkpt>
      <trkpt lat="48.8532" lon="2.41551">
        <ele>57.799999237061</ele>
        <time>2017-04-24T19:54:18.000Z</time>
      </trkpt>
      <trkpt lat="48.85339" lon="2.41549">
        <ele>58.599998474121</ele>
        <time>2017-04-24T19:54:24.000Z</time>
      </trkpt>
      <trkpt lat="48.85359" lon="2.41547">
        <ele>59.799999237061</ele>
        <time>2017-04-24T19:54:31.000Z</time>
      </trkpt>
      <trkpt lat="48.85378" lon="2.41538">
        <ele>61.200000762939</ele>
        <time>2017-04-24T19:54:38.000Z</time>
      </trkpt>
      <trkpt lat="48.85394" lon="2.41533">
        <ele>62.400001525879</ele>
        <time>2017-04-24T19:54:45.000Z</time>
      </trkpt>
      <trkpt lat="48.85405" lon="2.41525">
        <ele>62.400001525879</ele>
        <time>2017-04-24T19:54:52.000Z</time>
      </trkpt>
      <trkpt lat="48.85419" lon="2.41541">
        <ele>65.199996948242</ele>
        <time>2017-04-24T19:55:09.000Z</time>
      </trkpt>
      <trkpt lat="48.85438" lon="2.41541">
        <ele>66.599998474121</ele>
        <time>2017-04-24T19:55:32.000Z</time>
      </trkpt>
      <trkpt lat="48.85455" lon="2.4153">
        <ele>64.400001525879</ele>
        <time>2017-04-24T19:55:38.000Z</time>
      </trkpt>
      <trkpt lat="48.85476" lon="2.41526">
        <ele>63.599998474121</ele>
        <time>2017-04-24T19:55:44.000Z</time>
      </trkpt>
      <trkpt lat="48.85494" lon="2.4152">
        <ele>63.799999237061</ele>
        <time>2017-04-24T19:55:49.000Z</time>
      </trkpt>
      <trkpt lat="48.85516" lon="2.41524">
        <ele>64.400001525879</ele>
        <time>2017-04-24T19:55:54.000Z</time>
      </trkpt>
      <trkpt lat="48.85537" lon="2.41522">
        <ele>63.799999237061</ele>
        <time>2017-04-24T19:55:59.000Z</time>
      </trkpt>
      <trkpt lat="48.85558" lon="2.41518">
        <ele>62.599998474121</ele>
        <time>2017-04-24T19:56:04.000Z</time>
      </trkpt>
      <trkpt lat="48.8558" lon="2.41512">
        <ele>61</ele>
        <time>2017-04-24T19:56:09.000Z</time>
      </trkpt>
      <trkpt lat="48.85601" lon="2.41508">
        <ele>59.599998474121</ele>
        <time>2017-04-24T19:56:14.000Z</time>
      </trkpt>
      <trkpt lat="48.85622" lon="2.41509">
        <ele>59.400001525879</ele>
        <time>2017-04-24T19:56:19.000Z</time>
      </trkpt>
      <trkpt lat="48.85642" lon="2.41507">
        <ele>59.200000762939</ele>
        <time>2017-04-24T19:56:24.000Z</time>
      </trkpt>
      <trkpt lat="48.85647" lon="2.41507">
        <ele>59.400001525879</ele>
        <time>2017-04-24T19:56:25.000Z</time>
      </trkpt>
      <trkpt lat="48.85666" lon="2.41504">
        <ele>59.200000762939</ele>
        <time>2017-04-24T19:56:30.000Z</time>
      </trkpt>
      <trkpt lat="48.85675" lon="2.41496">
        <ele>59</ele>
        <time>2017-04-24T19:56:33.000Z</time>
      </trkpt>
      <trkpt lat="48.85694" lon="2.4149">
        <ele>58.799999237061</ele>
        <time>2017-04-24T19:56:38.000Z</time>
      </trkpt>
      <trkpt lat="48.85716" lon="2.41492">
        <ele>59.799999237061</ele>
        <time>2017-04-24T19:56:43.000Z</time>
      </trkpt>
      <trkpt lat="48.85737" lon="2.41485">
        <ele>60.200000762939</ele>
        <time>2017-04-24T19:56:48.000Z</time>
      </trkpt>
      <trkpt lat="48.85749" lon="2.41483">
        <ele>60.599998474121</ele>
        <time>2017-04-24T19:56:51.000Z</time>
      </trkpt>
      <trkpt lat="48.85764" lon="2.41475">
        <ele>61.400001525879</ele>
        <time>2017-04-24T19:56:55.000Z</time>
      </trkpt>
      <trkpt lat="48.85782" lon="2.41489">
        <ele>62.200000762939</ele>
        <time>2017-04-24T19:56:58.000Z</time>
      </trkpt>
      <trkpt lat="48.85801" lon="2.41489">
        <ele>62.400001525879</ele>
        <time>2017-04-24T19:57:04.000Z</time>
      </trkpt>
      <trkpt lat="48.85809" lon="2.41488">
        <ele>62.400001525879</ele>
        <time>2017-04-24T19:57:07.000Z</time>
      </trkpt>
      <trkpt lat="48.85815" lon="2.41486">
        <ele>62.599998474121</ele>
        <time>2017-04-24T19:57:09.000Z</time>
      </trkpt>
      <trkpt lat="48.85823" lon="2.41484">
        <ele>62.599998474121</ele>
        <time>2017-04-24T19:57:11.000Z</time>
      </trkpt>
      <trkpt lat="48.85843" lon="2.41476">
        <ele>62.799999237061</ele>
        <time>2017-04-24T19:57:16.000Z</time>
      </trkpt>
      <trkpt lat="48.85864" lon="2.41475">
        <ele>62.799999237061</ele>
        <time>2017-04-24T19:57:22.000Z</time>
      </trkpt>
      <trkpt lat="48.85883" lon="2.4148">
        <ele>63.200000762939</ele>
        <time>2017-04-24T19:57:27.000Z</time>
      </trkpt>
      <trkpt lat="48.85903" lon="2.4148">
        <ele>63.400001525879</ele>
        <time>2017-04-24T19:57:32.000Z</time>
      </trkpt>
      <trkpt lat="48.85923" lon="2.41479">
        <ele>63.599998474121</ele>
        <time>2017-04-24T19:57:38.000Z</time>
      </trkpt>
      <trkpt lat="48.8594" lon="2.41488">
        <ele>64.199996948242</ele>
        <time>2017-04-24T19:57:43.000Z</time>
      </trkpt>
      <trkpt lat="48.85959" lon="2.41498">
        <ele>64.199996948242</ele>
        <time>2017-04-24T19:57:48.000Z</time>
      </trkpt>
      <trkpt lat="48.85979" lon="2.41513">
        <ele>64.400001525879</ele>
        <time>2017-04-24T19:57:53.000Z</time>
      </trkpt>
      <trkpt lat="48.85998" lon="2.41524">
        <ele>64.400001525879</ele>
        <time>2017-04-24T19:57:57.000Z</time>
      </trkpt>
      <trkpt lat="48.86017" lon="2.41533">
        <ele>64.599998474121</ele>
        <time>2017-04-24T19:58:01.000Z</time>
      </trkpt>
      <trkpt lat="48.86037" lon="2.41541">
        <ele>65.199996948242</ele>
        <time>2017-04-24T19:58:05.000Z</time>
      </trkpt>
      <trkpt lat="48.86058" lon="2.41551">
        <ele>66</ele>
        <time>2017-04-24T19:58:09.000Z</time>
      </trkpt>
      <trkpt lat="48.86079" lon="2.41559">
        <ele>67</ele>
        <time>2017-04-24T19:58:13.000Z</time>
      </trkpt>
      <trkpt lat="48.86084" lon="2.41561">
        <ele>67.199996948242</ele>
        <time>2017-04-24T19:58:14.000Z</time>
      </trkpt>
      <trkpt lat="48.86099" lon="2.41567">
        <ele>67.599998474121</ele>
        <time>2017-04-24T19:58:17.000Z</time>
      </trkpt>
      <trkpt lat="48.86118" lon="2.41574">
        <ele>68.400001525879</ele>
        <time>2017-04-24T19:58:21.000Z</time>
      </trkpt>
      <trkpt lat="48.86123" lon="2.41575">
        <ele>68.599998474121</ele>
        <time>2017-04-24T19:58:22.000Z</time>
      </trkpt>
      <trkpt lat="48.86128" lon="2.41577">
        <ele>68.800003051758</ele>
        <time>2017-04-24T19:58:23.000Z</time>
      </trkpt>
      <trkpt lat="48.86146" lon="2.41585">
        <ele>69.400001525879</ele>
        <time>2017-04-24T19:58:27.000Z</time>
      </trkpt>
      <trkpt lat="48.86164" lon="2.41594">
        <ele>70</ele>
        <time>2017-04-24T19:58:31.000Z</time>
      </trkpt>
      <trkpt lat="48.86176" lon="2.416">
        <ele>70.599998474121</ele>
        <time>2017-04-24T19:58:34.000Z</time>
      </trkpt>
      <trkpt lat="48.86193" lon="2.41613">
        <ele>71</ele>
        <time>2017-04-24T19:58:39.000Z</time>
      </trkpt>
      <trkpt lat="48.86202" lon="2.41621">
        <ele>70.800003051758</ele>
        <time>2017-04-24T19:58:43.000Z</time>
      </trkpt>
      <trkpt lat="48.86206" lon="2.41623">
        <ele>70.800003051758</ele>
        <time>2017-04-24T19:58:46.000Z</time>
      </trkpt>
      <trkpt lat="48.86211" lon="2.41624">
        <ele>70.800003051758</ele>
        <time>2017-04-24T19:58:49.000Z</time>
      </trkpt>
      <trkpt lat="48.86215" lon="2.41623">
        <ele>70.599998474121</ele>
        <time>2017-04-24T19:58:53.000Z</time>
      </trkpt>
      <trkpt lat="48.86224" lon="2.41604">
        <ele>71</ele>
        <time>2017-04-24T19:59:30.000Z</time>
      </trkpt>
      <trkpt lat="48.86241" lon="2.41589">
        <ele>72</ele>
        <time>2017-04-24T19:59:36.000Z</time>
      </trkpt>
      <trkpt lat="48.86247" lon="2.41583">
        <ele>72.400001525879</ele>
        <time>2017-04-24T19:59:38.000Z</time>
      </trkpt>
      <trkpt lat="48.86252" lon="2.41572">
        <ele>72.400001525879</ele>
        <time>2017-04-24T19:59:43.000Z</time>
      </trkpt>
      <trkpt lat="48.86254" lon="2.41567">
        <ele>72.599998474121</ele>
        <time>2017-04-24T19:59:47.000Z</time>
      </trkpt>
      <trkpt lat="48.86263" lon="2.41544">
        <ele>72.800003051758</ele>
        <time>2017-04-24T20:00:17.000Z</time>
      </trkpt>
      <trkpt lat="48.86273" lon="2.41521">
        <ele>73</ele>
        <time>2017-04-24T20:00:23.000Z</time>
      </trkpt>
      <trkpt lat="48.86292" lon="2.41504">
        <ele>74</ele>
        <time>2017-04-24T20:00:29.000Z</time>
      </trkpt>
      <trkpt lat="48.86307" lon="2.41483">
        <ele>74.400001525879</ele>
        <time>2017-04-24T20:00:35.000Z</time>
      </trkpt>
      <trkpt lat="48.8632" lon="2.41463">
        <ele>74.599998474121</ele>
        <time>2017-04-24T20:00:41.000Z</time>
      </trkpt>
      <trkpt lat="48.86334" lon="2.4144">
        <ele>74.599998474121</ele>
        <time>2017-04-24T20:00:47.000Z</time>
      </trkpt>
      <trkpt lat="48.86354" lon="2.41431">
        <ele>75.400001525879</ele>
        <time>2017-04-24T20:00:53.000Z</time>
      </trkpt>
      <trkpt lat="48.86368" lon="2.41412">
        <ele>75.800003051758</ele>
        <time>2017-04-24T20:01:00.000Z</time>
      </trkpt>
      <trkpt lat="48.86379" lon="2.41388">
        <ele>77.800003051758</ele>
        <time>2017-04-24T20:01:09.000Z</time>
      </trkpt>
      <trkpt lat="48.86382" lon="2.41382">
        <ele>78.199996948242</ele>
        <time>2017-04-24T20:01:13.000Z</time>
      </trkpt>
      <trkpt lat="48.86372" lon="2.41369">
        <ele>78.599998474121</ele>
        <time>2017-04-24T20:01:29.000Z</time>
      </trkpt>
      <trkpt lat="48.86381" lon="2.41355">
        <ele>79.599998474121</ele>
        <time>2017-04-24T20:01:36.000Z</time>
      </trkpt>
      <trkpt lat="48.86398" lon="2.41338">
        <ele>79</ele>
        <time>2017-04-24T20:01:44.000Z</time>
      </trkpt>
      <trkpt lat="48.86411" lon="2.41314">
        <ele>78.800003051758</ele>
        <time>2017-04-24T20:01:52.000Z</time>
      </trkpt>
      <trkpt lat="48.86423" lon="2.41285">
        <ele>80.400001525879</ele>
        <time>2017-04-24T20:02:04.000Z</time>
      </trkpt>
      <trkpt lat="48.86432" lon="2.41259">
        <ele>82.199996948242</ele>
        <time>2017-04-24T20:02:12.000Z</time>
      </trkpt>
      <trkpt lat="48.86444" lon="2.41235">
        <ele>83</ele>
        <time>2017-04-24T20:02:20.000Z</time>
      </trkpt>
      <trkpt lat="48.86459" lon="2.41214">
        <ele>83</ele>
        <time>2017-04-24T20:02:27.000Z</time>
      </trkpt>
      <trkpt lat="48.86474" lon="2.41195">
        <ele>83</ele>
        <time>2017-04-24T20:02:37.000Z</time>
      </trkpt>
      <trkpt lat="48.86485" lon="2.41172">
        <ele>83.800003051758</ele>
        <time>2017-04-24T20:02:45.000Z</time>
      </trkpt>
      <trkpt lat="48.86488" lon="2.41163">
        <ele>83.800003051758</ele>
        <time>2017-04-24T20:02:49.000Z</time>
      </trkpt>
      <trkpt lat="48.86489" lon="2.41152">
        <ele>83.400001525879</ele>
        <time>2017-04-24T20:02:56.000Z</time>
      </trkpt>
      <trkpt lat="48.86488" lon="2.41123">
        <ele>82.400001525879</ele>
        <time>2017-04-24T20:03:07.000Z</time>
      </trkpt>
      <trkpt lat="48.8648" lon="2.41097">
        <ele>82.199996948242</ele>
        <time>2017-04-24T20:03:13.000Z</time>
      </trkpt>
      <trkpt lat="48.86475" lon="2.41068">
        <ele>82.199996948242</ele>
        <time>2017-04-24T20:03:20.000Z</time>
      </trkpt>
      <trkpt lat="48.86467" lon="2.41039">
        <ele>82.199996948242</ele>
        <time>2017-04-24T20:03:27.000Z</time>
      </trkpt>
      <trkpt lat="48.8646" lon="2.41012">
        <ele>81.800003051758</ele>
        <time>2017-04-24T20:03:35.000Z</time>
      </trkpt>
      <trkpt lat="48.8646" lon="2.4098">
        <ele>80.400001525879</ele>
        <time>2017-04-24T20:03:46.000Z</time>
      </trkpt>
      <trkpt lat="48.86462" lon="2.40969">
        <ele>79.800003051758</ele>
        <time>2017-04-24T20:03:50.000Z</time>
      </trkpt>
      <trkpt lat="48.86456" lon="2.40942">
        <ele>78.400001525879</ele>
        <time>2017-04-24T20:04:01.000Z</time>
      </trkpt>
      <trkpt lat="48.8645" lon="2.40928">
        <ele>77.800003051758</ele>
        <time>2017-04-24T20:04:08.000Z</time>
      </trkpt>
      <trkpt lat="48.86447" lon="2.4091">
        <ele>77.800003051758</ele>
        <time>2017-04-24T20:04:53.000Z</time>
      </trkpt>
      <trkpt lat="48.86457" lon="2.40899">
        <ele>79.199996948242</ele>
        <time>2017-04-24T20:04:59.000Z</time>
      </trkpt>
      <trkpt lat="48.86465" lon="2.40874">
        <ele>81.199996948242</ele>
        <time>2017-04-24T20:05:10.000Z</time>
      </trkpt>
      <trkpt lat="48.86461" lon="2.40863">
        <ele>81.400001525879</ele>
        <time>2017-04-24T20:05:13.000Z</time>
      </trkpt>
      <trkpt lat="48.86456" lon="2.40835">
        <ele>81.800003051758</ele>
        <time>2017-04-24T20:05:19.000Z</time>
      </trkpt>
      <trkpt lat="48.86455" lon="2.40804">
        <ele>82.800003051758</ele>
        <time>2017-04-24T20:05:24.000Z</time>
      </trkpt>
      <trkpt lat="48.86451" lon="2.40772">
        <ele>83.599998474121</ele>
        <time>2017-04-24T20:05:29.000Z</time>
      </trkpt>
      <trkpt lat="48.86448" lon="2.4074">
        <ele>84.400001525879</ele>
        <time>2017-04-24T20:05:34.000Z</time>
      </trkpt>
      <trkpt lat="48.86455" lon="2.40712">
        <ele>84.599998474121</ele>
        <time>2017-04-24T20:05:40.000Z</time>
      </trkpt>
      <trkpt lat="48.86458" lon="2.40684">
        <ele>84.400001525879</ele>
        <time>2017-04-24T20:05:46.000Z</time>
      </trkpt>
      <trkpt lat="48.86469" lon="2.40666">
        <ele>84.800003051758</ele>
        <time>2017-04-24T20:05:56.000Z</time>
      </trkpt>
      <trkpt lat="48.86469" lon="2.40656">
        <ele>84.400001525879</ele>
        <time>2017-04-24T20:06:13.000Z</time>
      </trkpt>
      <trkpt lat="48.86459" lon="2.40626">
        <ele>82.800003051758</ele>
        <time>2017-04-24T20:06:32.000Z</time>
      </trkpt>
      <trkpt lat="48.86457" lon="2.4062">
        <ele>82.400001525879</ele>
        <time>2017-04-24T20:06:34.000Z</time>
      </trkpt>
      <trkpt lat="48.86459" lon="2.40609">
        <ele>82.199996948242</ele>
        <time>2017-04-24T20:06:38.000Z</time>
      </trkpt>
      <trkpt lat="48.8646" lon="2.40596">
        <ele>81.800003051758</ele>
        <time>2017-04-24T20:06:42.000Z</time>
      </trkpt>
      <trkpt lat="48.86462" lon="2.40582">
        <ele>81.599998474121</ele>
        <time>2017-04-24T20:06:47.000Z</time>
      </trkpt>
      <trkpt lat="48.86463" lon="2.40552">
        <ele>81.400001525879</ele>
        <time>2017-04-24T20:06:55.000Z</time>
      </trkpt>
      <trkpt lat="48.86464" lon="2.40522">
        <ele>81.199996948242</ele>
        <time>2017-04-24T20:07:01.000Z</time>
      </trkpt>
      <trkpt lat="48.86463" lon="2.40492">
        <ele>81.599998474121</ele>
        <time>2017-04-24T20:07:07.000Z</time>
      </trkpt>
      <trkpt lat="48.86466" lon="2.40462">
        <ele>82.800003051758</ele>
        <time>2017-04-24T20:07:13.000Z</time>
      </trkpt>
      <trkpt lat="48.86467" lon="2.4043">
        <ele>83.599998474121</ele>
        <time>2017-04-24T20:07:19.000Z</time>
      </trkpt>
      <trkpt lat="48.86467" lon="2.404">
        <ele>83.800003051758</ele>
        <time>2017-04-24T20:07:25.000Z</time>
      </trkpt>
      <trkpt lat="48.86466" lon="2.40373">
        <ele>84</ele>
        <time>2017-04-24T20:07:30.000Z</time>
      </trkpt>
      <trkpt lat="48.86468" lon="2.40345">
        <ele>83.599998474121</ele>
        <time>2017-04-24T20:07:35.000Z</time>
      </trkpt>
      <trkpt lat="48.86473" lon="2.40315">
        <ele>84</ele>
        <time>2017-04-24T20:07:41.000Z</time>
      </trkpt>
      <trkpt lat="48.86472" lon="2.40284">
        <ele>85.400001525879</ele>
        <time>2017-04-24T20:07:47.000Z</time>
      </trkpt>
      <trkpt lat="48.86469" lon="2.40255">
        <ele>86</ele>
        <time>2017-04-24T20:07:54.000Z</time>
      </trkpt>
      <trkpt lat="48.8647" lon="2.40247">
        <ele>86</ele>
        <time>2017-04-24T20:07:56.000Z</time>
      </trkpt>
      <trkpt lat="48.86475" lon="2.40218">
        <ele>86.800003051758</ele>
        <time>2017-04-24T20:08:03.000Z</time>
      </trkpt>
      <trkpt lat="48.86483" lon="2.40187">
        <ele>88</ele>
        <time>2017-04-24T20:08:10.000Z</time>
      </trkpt>
      <trkpt lat="48.86485" lon="2.40155">
        <ele>89.199996948242</ele>
        <time>2017-04-24T20:08:16.000Z</time>
      </trkpt>
      <trkpt lat="48.86488" lon="2.40124">
        <ele>89.800003051758</ele>
        <time>2017-04-24T20:08:22.000Z</time>
      </trkpt>
      <trkpt lat="48.86492" lon="2.40095">
        <ele>91</ele>
        <time>2017-04-24T20:08:27.000Z</time>
      </trkpt>
      <trkpt lat="48.86499" lon="2.40069">
        <ele>92.400001525879</ele>
        <time>2017-04-24T20:08:32.000Z</time>
      </trkpt>
      <trkpt lat="48.86502" lon="2.40035">
        <ele>92.199996948242</ele>
        <time>2017-04-24T20:08:38.000Z</time>
      </trkpt>
      <trkpt lat="48.86499" lon="2.40005">
        <ele>91.400001525879</ele>
        <time>2017-04-24T20:08:43.000Z</time>
      </trkpt>
      <trkpt lat="48.865" lon="2.39977">
        <ele>91.599998474121</ele>
        <time>2017-04-24T20:08:49.000Z</time>
      </trkpt>
      <trkpt lat="48.86502" lon="2.39946">
        <ele>93</ele>
        <time>2017-04-24T20:08:56.000Z</time>
      </trkpt>
      <trkpt lat="48.86496" lon="2.39917">
        <ele>94.199996948242</ele>
        <time>2017-04-24T20:09:02.000Z</time>
      </trkpt>
      <trkpt lat="48.86498" lon="2.39894">
        <ele>94.599998474121</ele>
        <time>2017-04-24T20:09:11.000Z</time>
      </trkpt>
      <trkpt lat="48.86494" lon="2.39887">
        <ele>94.599998474121</ele>
        <time>2017-04-24T20:09:28.000Z</time>
      </trkpt>
      <trkpt lat="48.86491" lon="2.39881">
        <ele>94.599998474121</ele>
        <time>2017-04-24T20:09:34.000Z</time>
      </trkpt>
      <trkpt lat="48.86487" lon="2.39872">
        <ele>94.599998474121</ele>
        <time>2017-04-24T20:09:41.000Z</time>
      </trkpt>
      <trkpt lat="48.86487" lon="2.39849">
        <ele>95</ele>
        <time>2017-04-24T20:10:10.000Z</time>
      </trkpt>
      <trkpt lat="48.86494" lon="2.39824">
        <ele>95.599998474121</ele>
        <time>2017-04-24T20:10:25.000Z</time>
      </trkpt>
      <trkpt lat="48.8649" lon="2.39801">
        <ele>96</ele>
        <time>2017-04-24T20:10:42.000Z</time>
      </trkpt>
      <trkpt lat="48.86491" lon="2.39771">
        <ele>95.400001525879</ele>
        <time>2017-04-24T20:10:50.000Z</time>
      </trkpt>
      <trkpt lat="48.86492" lon="2.39744">
        <ele>94.400001525879</ele>
        <time>2017-04-24T20:10:57.000Z</time>
      </trkpt>
      <trkpt lat="48.86498" lon="2.39719">
        <ele>93.199996948242</ele>
        <time>2017-04-24T20:11:04.000Z</time>
      </trkpt>
      <trkpt lat="48.86502" lon="2.39691">
        <ele>93.199996948242</ele>
        <time>2017-04-24T20:11:10.000Z</time>
      </trkpt>
      <trkpt lat="48.86505" lon="2.3966">
        <ele>93.400001525879</ele>
        <time>2017-04-24T20:11:16.000Z</time>
      </trkpt>
      <trkpt lat="48.86509" lon="2.3963">
        <ele>94</ele>
        <time>2017-04-24T20:11:23.000Z</time>
      </trkpt>
      <trkpt lat="48.86511" lon="2.39603">
        <ele>94.800003051758</ele>
        <time>2017-04-24T20:11:29.000Z</time>
      </trkpt>
      <trkpt lat="48.86514" lon="2.39575">
        <ele>95.400001525879</ele>
        <time>2017-04-24T20:11:35.000Z</time>
      </trkpt>
      <trkpt lat="48.86511" lon="2.39546">
        <ele>93.800003051758</ele>
        <time>2017-04-24T20:11:43.000Z</time>
      </trkpt>
      <trkpt lat="48.86512" lon="2.39516">
        <ele>92</ele>
        <time>2017-04-24T20:11:50.000Z</time>
      </trkpt>
      <trkpt lat="48.86512" lon="2.39487">
        <ele>91</ele>
        <time>2017-04-24T20:11:55.000Z</time>
      </trkpt>
      <trkpt lat="48.86513" lon="2.39459">
        <ele>89.599998474121</ele>
        <time>2017-04-24T20:12:00.000Z</time>
      </trkpt>
      <trkpt lat="48.86512" lon="2.39429">
        <ele>88.199996948242</ele>
        <time>2017-04-24T20:12:07.000Z</time>
      </trkpt>
      <trkpt lat="48.86521" lon="2.394">
        <ele>87</ele>
        <time>2017-04-24T20:12:13.000Z</time>
      </trkpt>
      <trkpt lat="48.86536" lon="2.39379">
        <ele>87.599998474121</ele>
        <time>2017-04-24T20:12:19.000Z</time>
      </trkpt>
      <trkpt lat="48.86547" lon="2.39356">
        <ele>88</ele>
        <time>2017-04-24T20:12:25.000Z</time>
      </trkpt>
      <trkpt lat="48.86561" lon="2.39332">
        <ele>87.400001525879</ele>
        <time>2017-04-24T20:12:32.000Z</time>
      </trkpt>
      <trkpt lat="48.86572" lon="2.39311">
        <ele>86.400001525879</ele>
        <time>2017-04-24T20:12:38.000Z</time>
      </trkpt>
      <trkpt lat="48.8659" lon="2.39293">
        <ele>86.400001525879</ele>
        <time>2017-04-24T20:12:45.000Z</time>
      </trkpt>
      <trkpt lat="48.86606" lon="2.39274">
        <ele>86.800003051758</ele>
        <time>2017-04-24T20:12:50.000Z</time>
      </trkpt>
      <trkpt lat="48.8662" lon="2.39252">
        <ele>86.599998474121</ele>
        <time>2017-04-24T20:12:56.000Z</time>
      </trkpt>
      <trkpt lat="48.86632" lon="2.39225">
        <ele>85.800003051758</ele>
        <time>2017-04-24T20:13:02.000Z</time>
      </trkpt>
      <trkpt lat="48.86644" lon="2.39207">
        <ele>85.400001525879</ele>
        <time>2017-04-24T20:13:06.000Z</time>
      </trkpt>
      <trkpt lat="48.86658" lon="2.3919">
        <ele>85.199996948242</ele>
        <time>2017-04-24T20:13:10.000Z</time>
      </trkpt>
      <trkpt lat="48.86674" lon="2.39173">
        <ele>85</ele>
        <time>2017-04-24T20:13:15.000Z</time>
      </trkpt>
      <trkpt lat="48.86689" lon="2.39153">
        <ele>84.199996948242</ele>
        <time>2017-04-24T20:13:21.000Z</time>
      </trkpt>
      <trkpt lat="48.86706" lon="2.39133">
        <ele>82.800003051758</ele>
        <time>2017-04-24T20:13:27.000Z</time>
      </trkpt>
      <trkpt lat="48.86718" lon="2.39107">
        <ele>81.199996948242</ele>
        <time>2017-04-24T20:13:33.000Z</time>
      </trkpt>
      <trkpt lat="48.86731" lon="2.39077">
        <ele>80.199996948242</ele>
        <time>2017-04-24T20:13:41.000Z</time>
      </trkpt>
      <trkpt lat="48.86749" lon="2.3906">
        <ele>79</ele>
        <time>2017-04-24T20:13:48.000Z</time>
      </trkpt>
      <trkpt lat="48.86767" lon="2.39049">
        <ele>78.599998474121</ele>
        <time>2017-04-24T20:13:52.000Z</time>
      </trkpt>
      <trkpt lat="48.86786" lon="2.39038">
        <ele>78.599998474121</ele>
        <time>2017-04-24T20:13:57.000Z</time>
      </trkpt>
      <trkpt lat="48.868" lon="2.39021">
        <ele>78.199996948242</ele>
        <time>2017-04-24T20:14:02.000Z</time>
      </trkpt>
      <trkpt lat="48.86814" lon="2.38998">
        <ele>78.400001525879</ele>
        <time>2017-04-24T20:14:10.000Z</time>
      </trkpt>
      <trkpt lat="48.86827" lon="2.38978">
        <ele>79</ele>
        <time>2017-04-24T20:14:18.000Z</time>
      </trkpt>
      <trkpt lat="48.86835" lon="2.38967">
        <ele>79</ele>
        <time>2017-04-24T20:14:24.000Z</time>
      </trkpt>
      <trkpt lat="48.86852" lon="2.38958">
        <ele>79</ele>
        <time>2017-04-24T20:14:35.000Z</time>
      </trkpt>
      <trkpt lat="48.86855" lon="2.38958">
        <ele>79</ele>
        <time>2017-04-24T20:14:37.000Z</time>
      </trkpt>
      <trkpt lat="48.8687" lon="2.38964">
        <ele>79.199996948242</ele>
        <time>2017-04-24T20:15:45.000Z</time>
      </trkpt>
      <trkpt lat="48.86871" lon="2.38959">
        <ele>78.800003051758</ele>
        <time>2017-04-24T20:16:33.000Z</time>
      </trkpt>
      <trkpt lat="48.86865" lon="2.38932">
        <ele>77</ele>
        <time>2017-04-24T20:16:42.000Z</time>
      </trkpt>
      <trkpt lat="48.86858" lon="2.38905">
        <ele>75.599998474121</ele>
        <time>2017-04-24T20:16:47.000Z</time>
      </trkpt>
      <trkpt lat="48.86847" lon="2.3888">
        <ele>74.199996948242</ele>
        <time>2017-04-24T20:16:53.000Z</time>
      </trkpt>
      <trkpt lat="48.86833" lon="2.38854">
        <ele>72.599998474121</ele>
        <time>2017-04-24T20:16:58.000Z</time>
      </trkpt>
      <trkpt lat="48.86826" lon="2.38826">
        <ele>71</ele>
        <time>2017-04-24T20:17:03.000Z</time>
      </trkpt>
      <trkpt lat="48.86819" lon="2.38794">
        <ele>69.800003051758</ele>
        <time>2017-04-24T20:17:08.000Z</time>
      </trkpt>
      <trkpt lat="48.86814" lon="2.38768">
        <ele>68.800003051758</ele>
        <time>2017-04-24T20:17:12.000Z</time>
      </trkpt>
      <trkpt lat="48.86807" lon="2.3874">
        <ele>67.599998474121</ele>
        <time>2017-04-24T20:17:16.000Z</time>
      </trkpt>
      <trkpt lat="48.86799" lon="2.38711">
        <ele>66.800003051758</ele>
        <time>2017-04-24T20:17:20.000Z</time>
      </trkpt>
      <trkpt lat="48.86793" lon="2.38685">
        <ele>66</ele>
        <time>2017-04-24T20:17:24.000Z</time>
      </trkpt>
      <trkpt lat="48.86785" lon="2.38654">
        <ele>65.400001525879</ele>
        <time>2017-04-24T20:17:29.000Z</time>
      </trkpt>
      <trkpt lat="48.86782" lon="2.38647">
        <ele>65.400001525879</ele>
        <time>2017-04-24T20:17:30.000Z</time>
      </trkpt>
      <trkpt lat="48.86775" lon="2.3862">
        <ele>65</ele>
        <time>2017-04-24T20:17:34.000Z</time>
      </trkpt>
      <trkpt lat="48.86768" lon="2.38589">
        <ele>64.800003051758</ele>
        <time>2017-04-24T20:17:38.000Z</time>
      </trkpt>
      <trkpt lat="48.86764" lon="2.38575">
        <ele>64.800003051758</ele>
        <time>2017-04-24T20:17:40.000Z</time>
      </trkpt>
      <trkpt lat="48.86757" lon="2.38547">
        <ele>64.199996948242</ele>
        <time>2017-04-24T20:17:44.000Z</time>
      </trkpt>
      <trkpt lat="48.8675" lon="2.38519">
        <ele>63.599998474121</ele>
        <time>2017-04-24T20:17:48.000Z</time>
      </trkpt>
      <trkpt lat="48.86745" lon="2.38505">
        <ele>63.400001525879</ele>
        <time>2017-04-24T20:17:50.000Z</time>
      </trkpt>
      <trkpt lat="48.86737" lon="2.38479">
        <ele>62.599998474121</ele>
        <time>2017-04-24T20:17:54.000Z</time>
      </trkpt>
      <trkpt lat="48.86729" lon="2.3845">
        <ele>61.799999237061</ele>
        <time>2017-04-24T20:17:58.000Z</time>
      </trkpt>
      <trkpt lat="48.86723" lon="2.38421">
        <ele>61.200000762939</ele>
        <time>2017-04-24T20:18:02.000Z</time>
      </trkpt>
      <trkpt lat="48.86718" lon="2.38391">
        <ele>61</ele>
        <time>2017-04-24T20:18:07.000Z</time>
      </trkpt>
      <trkpt lat="48.86717" lon="2.38386">
        <ele>61</ele>
        <time>2017-04-24T20:18:08.000Z</time>
      </trkpt>
      <trkpt lat="48.86713" lon="2.38356">
        <ele>60.799999237061</ele>
        <time>2017-04-24T20:18:15.000Z</time>
      </trkpt>
      <trkpt lat="48.86713" lon="2.38352">
        <ele>60.799999237061</ele>
        <time>2017-04-24T20:18:16.000Z</time>
      </trkpt>
      <trkpt lat="48.86715" lon="2.38347">
        <ele>60.599998474121</ele>
        <time>2017-04-24T20:18:18.000Z</time>
      </trkpt>
      <trkpt lat="48.86726" lon="2.38328">
        <ele>60.400001525879</ele>
        <time>2017-04-24T20:18:44.000Z</time>
      </trkpt>
      <trkpt lat="48.86713" lon="2.38312">
        <ele>59.799999237061</ele>
        <time>2017-04-24T20:19:13.000Z</time>
      </trkpt>
      <trkpt lat="48.86709" lon="2.38304">
        <ele>59.599998474121</ele>
        <time>2017-04-24T20:19:16.000Z</time>
      </trkpt>
      <trkpt lat="48.86716" lon="2.38287">
        <ele>59.200000762939</ele>
        <time>2017-04-24T20:19:24.000Z</time>
      </trkpt>
      <trkpt lat="48.86731" lon="2.38271">
        <ele>59.599998474121</ele>
        <time>2017-04-24T20:19:31.000Z</time>
      </trkpt>
      <trkpt lat="48.86748" lon="2.38259">
        <ele>60</ele>
        <time>2017-04-24T20:19:39.000Z</time>
      </trkpt>
      <trkpt lat="48.86762" lon="2.38241">
        <ele>60.599998474121</ele>
        <time>2017-04-24T20:19:47.000Z</time>
      </trkpt>
      <trkpt lat="48.86776" lon="2.38224">
        <ele>61.400001525879</ele>
        <time>2017-04-24T20:19:51.000Z</time>
      </trkpt>
      <trkpt lat="48.86789" lon="2.38202">
        <ele>61.799999237061</ele>
        <time>2017-04-24T20:19:58.000Z</time>
      </trkpt>
      <trkpt lat="48.86802" lon="2.3818">
        <ele>62.200000762939</ele>
        <time>2017-04-24T20:20:04.000Z</time>
      </trkpt>
      <trkpt lat="48.86819" lon="2.38164">
        <ele>62.400001525879</ele>
        <time>2017-04-24T20:20:09.000Z</time>
      </trkpt>
      <trkpt lat="48.86837" lon="2.38148">
        <ele>61.599998474121</ele>
        <time>2017-04-24T20:20:14.000Z</time>
      </trkpt>
      <trkpt lat="48.86854" lon="2.38134">
        <ele>63.400001525879</ele>
        <time>2017-04-24T20:20:19.000Z</time>
      </trkpt>
      <trkpt lat="48.86869" lon="2.38113">
        <ele>64</ele>
        <time>2017-04-24T20:20:25.000Z</time>
      </trkpt>
      <trkpt lat="48.86882" lon="2.38094">
        <ele>64</ele>
        <time>2017-04-24T20:20:34.000Z</time>
      </trkpt>
      <trkpt lat="48.8689" lon="2.38072">
        <ele>63.200000762939</ele>
        <time>2017-04-24T20:20:44.000Z</time>
      </trkpt>
      <trkpt lat="48.86895" lon="2.38055">
        <ele>62</ele>
        <time>2017-04-24T20:21:10.000Z</time>
      </trkpt>
      <trkpt lat="48.86881" lon="2.38033">
        <ele>61.200000762939</ele>
        <time>2017-04-24T20:21:22.000Z</time>
      </trkpt>
      <trkpt lat="48.86867" lon="2.38014">
        <ele>60.599998474121</ele>
        <time>2017-04-24T20:21:27.000Z</time>
      </trkpt>
      <trkpt lat="48.86855" lon="2.37991">
        <ele>59.599998474121</ele>
        <time>2017-04-24T20:21:32.000Z</time>
      </trkpt>
      <trkpt lat="48.86842" lon="2.37969">
        <ele>58.200000762939</ele>
        <time>2017-04-24T20:21:37.000Z</time>
      </trkpt>
      <trkpt lat="48.86831" lon="2.37946">
        <ele>56.799999237061</ele>
        <time>2017-04-24T20:21:42.000Z</time>
      </trkpt>
      <trkpt lat="48.86825" lon="2.37919">
        <ele>55.400001525879</ele>
        <time>2017-04-24T20:21:47.000Z</time>
      </trkpt>
      <trkpt lat="48.86815" lon="2.3789">
        <ele>54.799999237061</ele>
        <time>2017-04-24T20:21:52.000Z</time>
      </trkpt>
      <trkpt lat="48.86805" lon="2.3786">
        <ele>54</ele>
        <time>2017-04-24T20:21:57.000Z</time>
      </trkpt>
      <trkpt lat="48.86798" lon="2.37835">
        <ele>53.400001525879</ele>
        <time>2017-04-24T20:22:01.000Z</time>
      </trkpt>
      <trkpt lat="48.86791" lon="2.37807">
        <ele>53</ele>
        <time>2017-04-24T20:22:05.000Z</time>
      </trkpt>
      <trkpt lat="48.86787" lon="2.37779">
        <ele>52.599998474121</ele>
        <time>2017-04-24T20:22:09.000Z</time>
      </trkpt>
      <trkpt lat="48.86779" lon="2.37747">
        <ele>52</ele>
        <time>2017-04-24T20:22:13.000Z</time>
      </trkpt>
      <trkpt lat="48.86776" lon="2.37733">
        <ele>52.200000762939</ele>
        <time>2017-04-24T20:22:15.000Z</time>
      </trkpt>
      <trkpt lat="48.86769" lon="2.37706">
        <ele>52.400001525879</ele>
        <time>2017-04-24T20:22:19.000Z</time>
      </trkpt>
      <trkpt lat="48.86767" lon="2.37699">
        <ele>52.599998474121</ele>
        <time>2017-04-24T20:22:20.000Z</time>
      </trkpt>
      <trkpt lat="48.86759" lon="2.37672">
        <ele>52.799999237061</ele>
        <time>2017-04-24T20:22:24.000Z</time>
      </trkpt>
      <trkpt lat="48.86757" lon="2.3766">
        <ele>52.599998474121</ele>
        <time>2017-04-24T20:22:26.000Z</time>
      </trkpt>
      <trkpt lat="48.86753" lon="2.37629">
        <ele>51.400001525879</ele>
        <time>2017-04-24T20:22:31.000Z</time>
      </trkpt>
      <trkpt lat="48.8675" lon="2.37603">
        <ele>50.599998474121</ele>
        <time>2017-04-24T20:22:36.000Z</time>
      </trkpt>
      <trkpt lat="48.86757" lon="2.37586">
        <ele>50</ele>
        <time>2017-04-24T20:22:40.000Z</time>
      </trkpt>
      <trkpt lat="48.86756" lon="2.37582">
        <ele>49.799999237061</ele>
        <time>2017-04-24T20:22:41.000Z</time>
      </trkpt>
      <trkpt lat="48.86752" lon="2.3757">
        <ele>49.799999237061</ele>
        <time>2017-04-24T20:22:44.000Z</time>
      </trkpt>
      <trkpt lat="48.86743" lon="2.37541">
        <ele>49.599998474121</ele>
        <time>2017-04-24T20:22:49.000Z</time>
      </trkpt>
      <trkpt lat="48.86735" lon="2.37512">
        <ele>49.200000762939</ele>
        <time>2017-04-24T20:22:55.000Z</time>
      </trkpt>
      <trkpt lat="48.86729" lon="2.37486">
        <ele>48.799999237061</ele>
        <time>2017-04-24T20:23:00.000Z</time>
      </trkpt>
      <trkpt lat="48.86722" lon="2.37455">
        <ele>48.400001525879</ele>
        <time>2017-04-24T20:23:06.000Z</time>
      </trkpt>
      <trkpt lat="48.86714" lon="2.37428">
        <ele>48.400001525879</ele>
        <time>2017-04-24T20:23:12.000Z</time>
      </trkpt>
      <trkpt lat="48.86704" lon="2.37401">
        <ele>48.599998474121</ele>
        <time>2017-04-24T20:23:18.000Z</time>
      </trkpt>
      <trkpt lat="48.867" lon="2.3737">
        <ele>49.400001525879</ele>
        <time>2017-04-24T20:23:25.000Z</time>
      </trkpt>
      <trkpt lat="48.86689" lon="2.3735">
        <ele>49.599998474121</ele>
        <time>2017-04-24T20:23:45.000Z</time>
      </trkpt>
      <trkpt lat="48.86678" lon="2.37324">
        <ele>50</ele>
        <time>2017-04-24T20:23:54.000Z</time>
      </trkpt>
      <trkpt lat="48.8667" lon="2.37295">
        <ele>50</ele>
        <time>2017-04-24T20:24:01.000Z</time>
      </trkpt>
      <trkpt lat="48.86661" lon="2.37267">
        <ele>50</ele>
        <time>2017-04-24T20:24:07.000Z</time>
      </trkpt>
      <trkpt lat="48.86651" lon="2.37241">
        <ele>50</ele>
        <time>2017-04-24T20:24:13.000Z</time>
      </trkpt>
      <trkpt lat="48.86641" lon="2.37218">
        <ele>49.599998474121</ele>
        <time>2017-04-24T20:24:18.000Z</time>
      </trkpt>
      <trkpt lat="48.86634" lon="2.37191">
        <ele>49.400001525879</ele>
        <time>2017-04-24T20:24:23.000Z</time>
      </trkpt>
      <trkpt lat="48.86626" lon="2.37164">
        <ele>48.799999237061</ele>
        <time>2017-04-24T20:24:29.000Z</time>
      </trkpt>
      <trkpt lat="48.86615" lon="2.37141">
        <ele>47.799999237061</ele>
        <time>2017-04-24T20:24:36.000Z</time>
      </trkpt>
      <trkpt lat="48.866" lon="2.37124">
        <ele>47</ele>
        <time>2017-04-24T20:24:44.000Z</time>
      </trkpt>
      <trkpt lat="48.86597" lon="2.37097">
        <ele>45.799999237061</ele>
        <time>2017-04-24T20:24:49.000Z</time>
      </trkpt>
      <trkpt lat="48.86602" lon="2.37065">
        <ele>44.599998474121</ele>
        <time>2017-04-24T20:24:53.000Z</time>
      </trkpt>
      <trkpt lat="48.86608" lon="2.37039">
        <ele>44</ele>
        <time>2017-04-24T20:24:57.000Z</time>
      </trkpt>
      <trkpt lat="48.86614" lon="2.37012">
        <ele>43.599998474121</ele>
        <time>2017-04-24T20:25:02.000Z</time>
      </trkpt>
      <trkpt lat="48.86621" lon="2.36982">
        <ele>44.200000762939</ele>
        <time>2017-04-24T20:25:07.000Z</time>
      </trkpt>
      <trkpt lat="48.86626" lon="2.36952">
        <ele>45.599998474121</ele>
        <time>2017-04-24T20:25:12.000Z</time>
      </trkpt>
      <trkpt lat="48.8663" lon="2.36925">
        <ele>46</ele>
        <time>2017-04-24T20:25:16.000Z</time>
      </trkpt>
      <trkpt lat="48.86633" lon="2.36897">
        <ele>46.200000762939</ele>
        <time>2017-04-24T20:25:20.000Z</time>
      </trkpt>
      <trkpt lat="48.86634" lon="2.3689">
        <ele>46.200000762939</ele>
        <time>2017-04-24T20:25:21.000Z</time>
      </trkpt>
      <trkpt lat="48.86639" lon="2.36859">
        <ele>46.799999237061</ele>
        <time>2017-04-24T20:25:26.000Z</time>
      </trkpt>
      <trkpt lat="48.86646" lon="2.36831">
        <ele>46</ele>
        <time>2017-04-24T20:25:31.000Z</time>
      </trkpt>
      <trkpt lat="48.86652" lon="2.36801">
        <ele>45.400001525879</ele>
        <time>2017-04-24T20:25:36.000Z</time>
      </trkpt>
      <trkpt lat="48.86658" lon="2.36774">
        <ele>45.400001525879</ele>
        <time>2017-04-24T20:25:40.000Z</time>
      </trkpt>
      <trkpt lat="48.86665" lon="2.36746">
        <ele>45.599998474121</ele>
        <time>2017-04-24T20:25:45.000Z</time>
      </trkpt>
      <trkpt lat="48.86671" lon="2.36718">
        <ele>45.200000762939</ele>
        <time>2017-04-24T20:25:50.000Z</time>
      </trkpt>
      <trkpt lat="48.86681" lon="2.36689">
        <ele>45.200000762939</ele>
        <time>2017-04-24T20:25:55.000Z</time>
      </trkpt>
      <trkpt lat="48.86689" lon="2.36659">
        <ele>45</ele>
        <time>2017-04-24T20:26:00.000Z</time>
      </trkpt>
      <trkpt lat="48.86699" lon="2.3663">
        <ele>44.599998474121</ele>
        <time>2017-04-24T20:26:05.000Z</time>
      </trkpt>
      <trkpt lat="48.86709" lon="2.36604">
        <ele>44.599998474121</ele>
        <time>2017-04-24T20:26:10.000Z</time>
      </trkpt>
      <trkpt lat="48.86711" lon="2.36593">
        <ele>44.599998474121</ele>
        <time>2017-04-24T20:26:12.000Z</time>
      </trkpt>
      <trkpt lat="48.86711" lon="2.36576">
        <ele>44.200000762939</ele>
        <time>2017-04-24T20:26:15.000Z</time>
      </trkpt>
      <trkpt lat="48.86703" lon="2.36552">
        <ele>43</ele>
        <time>2017-04-24T20:26:19.000Z</time>
      </trkpt>
      <trkpt lat="48.86697" lon="2.36537">
        <ele>42</ele>
        <time>2017-04-24T20:26:23.000Z</time>
      </trkpt>
      <trkpt lat="48.86692" lon="2.36523">
        <ele>41.200000762939</ele>
        <time>2017-04-24T20:26:30.000Z</time>
      </trkpt>
      <trkpt lat="48.86692" lon="2.36503">
        <ele>40.400001525879</ele>
        <time>2017-04-24T20:27:01.000Z</time>
      </trkpt>
      <trkpt lat="48.86699" lon="2.36475">
        <ele>41</ele>
        <time>2017-04-24T20:27:10.000Z</time>
      </trkpt>
      <trkpt lat="48.86711" lon="2.36452">
        <ele>41.799999237061</ele>
        <time>2017-04-24T20:27:17.000Z</time>
      </trkpt>
      <trkpt lat="48.86721" lon="2.36427">
        <ele>41.799999237061</ele>
        <time>2017-04-24T20:27:24.000Z</time>
      </trkpt>
      <trkpt lat="48.86729" lon="2.364">
        <ele>42.200000762939</ele>
        <time>2017-04-24T20:27:31.000Z</time>
      </trkpt>
      <trkpt lat="48.86737" lon="2.36374">
        <ele>43.400001525879</ele>
        <time>2017-04-24T20:27:40.000Z</time>
      </trkpt>
      <trkpt lat="48.86746" lon="2.36349">
        <ele>43.200000762939</ele>
        <time>2017-04-24T20:27:50.000Z</time>
      </trkpt>
      <trkpt lat="48.86748" lon="2.36345">
        <ele>43</ele>
        <time>2017-04-24T20:27:53.000Z</time>
      </trkpt>
      <trkpt lat="48.86746" lon="2.36335">
        <ele>43.400001525879</ele>
        <time>2017-04-24T20:28:57.000Z</time>
      </trkpt>
      <trkpt lat="48.86731" lon="2.36318">
        <ele>44.799999237061</ele>
        <time>2017-04-24T20:29:07.000Z</time>
      </trkpt>
      <trkpt lat="48.86719" lon="2.36292">
        <ele>45.200000762939</ele>
        <time>2017-04-24T20:29:13.000Z</time>
      </trkpt>
      <trkpt lat="48.86709" lon="2.36264">
        <ele>45.799999237061</ele>
        <time>2017-04-24T20:29:18.000Z</time>
      </trkpt>
      <trkpt lat="48.86698" lon="2.36239">
        <ele>46.799999237061</ele>
        <time>2017-04-24T20:29:23.000Z</time>
      </trkpt>
      <trkpt lat="48.86687" lon="2.36215">
        <ele>46.599998474121</ele>
        <time>2017-04-24T20:29:28.000Z</time>
      </trkpt>
      <trkpt lat="48.86678" lon="2.3619">
        <ele>46</ele>
        <time>2017-04-24T20:29:33.000Z</time>
      </trkpt>
      <trkpt lat="48.8667" lon="2.36165">
        <ele>45.599998474121</ele>
        <time>2017-04-24T20:29:38.000Z</time>
      </trkpt>
      <trkpt lat="48.86659" lon="2.36141">
        <ele>45</ele>
        <time>2017-04-24T20:29:43.000Z</time>
      </trkpt>
      <trkpt lat="48.86654" lon="2.36107">
        <ele>44.799999237061</ele>
        <time>2017-04-24T20:29:48.000Z</time>
      </trkpt>
      <trkpt lat="48.86649" lon="2.36079">
        <ele>44.599998474121</ele>
        <time>2017-04-24T20:29:52.000Z</time>
      </trkpt>
      <trkpt lat="48.86643" lon="2.36052">
        <ele>44.599998474121</ele>
        <time>2017-04-24T20:29:56.000Z</time>
      </trkpt>
      <trkpt lat="48.86637" lon="2.36021">
        <ele>44.599998474121</ele>
        <time>2017-04-24T20:30:01.000Z</time>
      </trkpt>
      <trkpt lat="48.86631" lon="2.3599">
        <ele>44</ele>
        <time>2017-04-24T20:30:06.000Z</time>
      </trkpt>
      <trkpt lat="48.8663" lon="2.3596">
        <ele>44.400001525879</ele>
        <time>2017-04-24T20:30:11.000Z</time>
      </trkpt>
      <trkpt lat="48.86624" lon="2.35933">
        <ele>44.799999237061</ele>
        <time>2017-04-24T20:30:16.000Z</time>
      </trkpt>
      <trkpt lat="48.86616" lon="2.35904">
        <ele>44.599998474121</ele>
        <time>2017-04-24T20:30:21.000Z</time>
      </trkpt>
      <trkpt lat="48.8661" lon="2.35877">
        <ele>44.400001525879</ele>
        <time>2017-04-24T20:30:25.000Z</time>
      </trkpt>
      <trkpt lat="48.86603" lon="2.35854">
        <ele>44.400001525879</ele>
        <time>2017-04-24T20:30:29.000Z</time>
      </trkpt>
      <trkpt lat="48.86594" lon="2.35827">
        <ele>44.200000762939</ele>
        <time>2017-04-24T20:30:34.000Z</time>
      </trkpt>
      <trkpt lat="48.86592" lon="2.35816">
        <ele>44.200000762939</ele>
        <time>2017-04-24T20:30:36.000Z</time>
      </trkpt>
      <trkpt lat="48.8659" lon="2.35804">
        <ele>44.400001525879</ele>
        <time>2017-04-24T20:30:38.000Z</time>
      </trkpt>
      <trkpt lat="48.86586" lon="2.35776">
        <ele>44.599998474121</ele>
        <time>2017-04-24T20:30:43.000Z</time>
      </trkpt>
      <trkpt lat="48.86576" lon="2.35751">
        <ele>45</ele>
        <time>2017-04-24T20:30:48.000Z</time>
      </trkpt>
      <trkpt lat="48.8657" lon="2.35723">
        <ele>45.200000762939</ele>
        <time>2017-04-24T20:30:53.000Z</time>
      </trkpt>
      <trkpt lat="48.86563" lon="2.35696">
        <ele>45.400001525879</ele>
        <time>2017-04-24T20:30:58.000Z</time>
      </trkpt>
      <trkpt lat="48.86555" lon="2.35666">
        <ele>44.799999237061</ele>
        <time>2017-04-24T20:31:04.000Z</time>
      </trkpt>
      <trkpt lat="48.8655" lon="2.35637">
        <ele>45</ele>
        <time>2017-04-24T20:31:11.000Z</time>
      </trkpt>
      <trkpt lat="48.8655" lon="2.3563">
        <ele>45</ele>
        <time>2017-04-24T20:31:15.000Z</time>
      </trkpt>
      <trkpt lat="48.86553" lon="2.35601">
        <ele>44.599998474121</ele>
        <time>2017-04-24T20:31:30.000Z</time>
      </trkpt>
      <trkpt lat="48.86549" lon="2.35573">
        <ele>44.799999237061</ele>
        <time>2017-04-24T20:31:37.000Z</time>
      </trkpt>
      <trkpt lat="48.8654" lon="2.35544">
        <ele>46.400001525879</ele>
        <time>2017-04-24T20:31:43.000Z</time>
      </trkpt>
      <trkpt lat="48.86533" lon="2.35518">
        <ele>47.599998474121</ele>
        <time>2017-04-24T20:31:48.000Z</time>
      </trkpt>
      <trkpt lat="48.86527" lon="2.35491">
        <ele>48.799999237061</ele>
        <time>2017-04-24T20:31:53.000Z</time>
      </trkpt>
      <trkpt lat="48.86515" lon="2.35465">
        <ele>48.799999237061</ele>
        <time>2017-04-24T20:31:58.000Z</time>
      </trkpt>
      <trkpt lat="48.86508" lon="2.35438">
        <ele>48.599998474121</ele>
        <time>2017-04-24T20:32:03.000Z</time>
      </trkpt>
      <trkpt lat="48.86503" lon="2.35409">
        <ele>48.400001525879</ele>
        <time>2017-04-24T20:32:08.000Z</time>
      </trkpt>
      <trkpt lat="48.86499" lon="2.3538">
        <ele>47.400001525879</ele>
        <time>2017-04-24T20:32:13.000Z</time>
      </trkpt>
      <trkpt lat="48.86489" lon="2.35354">
        <ele>46.200000762939</ele>
        <time>2017-04-24T20:32:18.000Z</time>
      </trkpt>
      <trkpt lat="48.86474" lon="2.35334">
        <ele>45.200000762939</ele>
        <time>2017-04-24T20:32:24.000Z</time>
      </trkpt>
      <trkpt lat="48.86457" lon="2.35322">
        <ele>45.200000762939</ele>
        <time>2017-04-24T20:32:30.000Z</time>
      </trkpt>
      <trkpt lat="48.86437" lon="2.35314">
        <ele>45.400001525879</ele>
        <time>2017-04-24T20:32:36.000Z</time>
      </trkpt>
      <trkpt lat="48.86419" lon="2.35305">
        <ele>45.400001525879</ele>
        <time>2017-04-24T20:32:42.000Z</time>
      </trkpt>
      <trkpt lat="48.864" lon="2.35298">
        <ele>45.400001525879</ele>
        <time>2017-04-24T20:32:48.000Z</time>
      </trkpt>
      <trkpt lat="48.86382" lon="2.35291">
        <ele>45.200000762939</ele>
        <time>2017-04-24T20:32:54.000Z</time>
      </trkpt>
      <trkpt lat="48.86363" lon="2.35284">
        <ele>45.200000762939</ele>
        <time>2017-04-24T20:33:00.000Z</time>
      </trkpt>
      <trkpt lat="48.86343" lon="2.35272">
        <ele>45.799999237061</ele>
        <time>2017-04-24T20:33:10.000Z</time>
      </trkpt>
      <trkpt lat="48.86328" lon="2.35246">
        <ele>46.799999237061</ele>
        <time>2017-04-24T20:33:15.000Z</time>
      </trkpt>
      <trkpt lat="48.86311" lon="2.35237">
        <ele>47.400001525879</ele>
        <time>2017-04-24T20:33:20.000Z</time>
      </trkpt>
      <trkpt lat="48.86292" lon="2.35231">
        <ele>48</ele>
        <time>2017-04-24T20:33:27.000Z</time>
      </trkpt>
      <trkpt lat="48.86272" lon="2.35227">
        <ele>48.400001525879</ele>
        <time>2017-04-24T20:33:35.000Z</time>
      </trkpt>
      <trkpt lat="48.86254" lon="2.35222">
        <ele>47.799999237061</ele>
        <time>2017-04-24T20:33:40.000Z</time>
      </trkpt>
      <trkpt lat="48.86236" lon="2.35215">
        <ele>47</ele>
        <time>2017-04-24T20:33:48.000Z</time>
      </trkpt>
      <trkpt lat="48.86217" lon="2.35208">
        <ele>46.400001525879</ele>
        <time>2017-04-24T20:33:54.000Z</time>
      </trkpt>
      <trkpt lat="48.86203" lon="2.35196">
        <ele>46</ele>
        <time>2017-04-24T20:33:58.000Z</time>
      </trkpt>
      <trkpt lat="48.86196" lon="2.35187">
        <ele>46</ele>
        <time>2017-04-24T20:34:02.000Z</time>
      </trkpt>
      <trkpt lat="48.86183" lon="2.35178">
        <ele>46</ele>
        <time>2017-04-24T20:34:10.000Z</time>
      </trkpt>
      <trkpt lat="48.86172" lon="2.35175">
        <ele>46</ele>
        <time>2017-04-24T20:34:15.000Z</time>
      </trkpt>
      <trkpt lat="48.86153" lon="2.35164">
        <ele>46.400001525879</ele>
        <time>2017-04-24T20:34:21.000Z</time>
      </trkpt>
      <trkpt lat="48.86135" lon="2.35153">
        <ele>46.200000762939</ele>
        <time>2017-04-24T20:34:26.000Z</time>
      </trkpt>
      <trkpt lat="48.86118" lon="2.35142">
        <ele>46</ele>
        <time>2017-04-24T20:34:33.000Z</time>
      </trkpt>
      <trkpt lat="48.86099" lon="2.35135">
        <ele>46</ele>
        <time>2017-04-24T20:34:39.000Z</time>
      </trkpt>
      <trkpt lat="48.86077" lon="2.35128">
        <ele>45.799999237061</ele>
        <time>2017-04-24T20:34:45.000Z</time>
      </trkpt>
      <trkpt lat="48.86057" lon="2.35126">
        <ele>45.799999237061</ele>
        <time>2017-04-24T20:34:51.000Z</time>
      </trkpt>
      <trkpt lat="48.86034" lon="2.35129">
        <ele>46.200000762939</ele>
        <time>2017-04-24T20:34:57.000Z</time>
      </trkpt>
      <trkpt lat="48.86021" lon="2.35113">
        <ele>45.599998474121</ele>
        <time>2017-04-24T20:35:03.000Z</time>
      </trkpt>
      <trkpt lat="48.86022" lon="2.35085">
        <ele>44.200000762939</ele>
        <time>2017-04-24T20:35:11.000Z</time>
      </trkpt>
      <trkpt lat="48.86029" lon="2.35057">
        <ele>45.200000762939</ele>
        <time>2017-04-24T20:35:17.000Z</time>
      </trkpt>
      <trkpt lat="48.86032" lon="2.35027">
        <ele>46.599998474121</ele>
        <time>2017-04-24T20:35:23.000Z</time>
      </trkpt>
      <trkpt lat="48.8604" lon="2.35001">
        <ele>47.599998474121</ele>
        <time>2017-04-24T20:35:29.000Z</time>
      </trkpt>
      <trkpt lat="48.86048" lon="2.34973">
        <ele>47.599998474121</ele>
        <time>2017-04-24T20:35:37.000Z</time>
      </trkpt>
      <trkpt lat="48.86063" lon="2.34956">
        <ele>47.599998474121</ele>
        <time>2017-04-24T20:35:45.000Z</time>
      </trkpt>
      <trkpt lat="48.86058" lon="2.34948">
        <ele>47.799999237061</ele>
        <time>2017-04-24T20:35:49.000Z</time>
      </trkpt>
      <trkpt lat="48.86043" lon="2.3493">
        <ele>48.400001525879</ele>
        <time>2017-04-24T20:35:56.000Z</time>
      </trkpt>
      <trkpt lat="48.86029" lon="2.34912">
        <ele>48.799999237061</ele>
        <time>2017-04-24T20:36:03.000Z</time>
      </trkpt>
      <trkpt lat="48.86018" lon="2.34899">
        <ele>48.799999237061</ele>
        <time>2017-04-24T20:36:09.000Z</time>
      </trkpt>
      <trkpt lat="48.8602" lon="2.34876">
        <ele>48.599998474121</ele>
        <time>2017-04-24T20:36:14.000Z</time>
      </trkpt>
      <trkpt lat="48.86023" lon="2.34848">
        <ele>48.200000762939</ele>
        <time>2017-04-24T20:36:22.000Z</time>
      </trkpt>
      <trkpt lat="48.8602" lon="2.34844">
        <ele>48.200000762939</ele>
        <time>2017-04-24T20:36:23.000Z</time>
      </trkpt>
      <trkpt lat="48.86005" lon="2.34828">
        <ele>47.799999237061</ele>
        <time>2017-04-24T20:36:33.000Z</time>
      </trkpt>
      <trkpt lat="48.85988" lon="2.34815">
        <ele>47.200000762939</ele>
        <time>2017-04-24T20:36:42.000Z</time>
      </trkpt>
      <trkpt lat="48.85971" lon="2.34804">
        <ele>46.799999237061</ele>
        <time>2017-04-24T20:36:47.000Z</time>
      </trkpt>
      <trkpt lat="48.85959" lon="2.34799">
        <ele>46.400001525879</ele>
        <time>2017-04-24T20:36:54.000Z</time>
      </trkpt>
      <trkpt lat="48.85961" lon="2.34791">
        <ele>46</ele>
        <time>2017-04-24T20:36:58.000Z</time>
      </trkpt>
      <trkpt lat="48.8597" lon="2.34774">
        <ele>45.400001525879</ele>
        <time>2017-04-24T20:37:15.000Z</time>
      </trkpt>
      <trkpt lat="48.85978" lon="2.34765">
        <ele>45</ele>
        <time>2017-04-24T20:37:23.000Z</time>
      </trkpt>
      <trkpt lat="48.85985" lon="2.34762">
        <ele>45</ele>
        <time>2017-04-24T20:37:29.000Z</time>
      </trkpt>
    </trkseg>
  </trk>
</gpx>